<?xml version="1.0" encoding="UTF-8"?>
<gpx version="1.1" creator="2bulu-scraper" xmlns="http://www.topografix.com/GPX/1/1">
  <metadata><name>青山岭520 12:03:32</name><desc>source: 2bulu.com trackId=79710291; exported 2026-09-01T15:49:41.285Z</desc>
    <bounds minlat="29.065572" minlon="105.055995" maxlat="29.076883" maxlon="105.071048"/>
    <link href="https://www.2bulu.com/track/t-jVE8LaIub7Hp%252FR2KBg5Tzw%253D%253D.htm"><text>2bulu 源页面</text></link>
  </metadata>
  <wpt lat="29.069297039161782" lon="105.06737356281826"><ele>0</ele><name></name></wpt>
  <wpt lat="29.069210436987582" lon="105.06719510328901"><ele>0</ele><name></name></wpt>
  <wpt lat="29.06833196018481" lon="105.0662945304113"><ele>0</ele><name></name></wpt>
  <wpt lat="29.066308353786816" lon="105.06438009220047"><ele>0</ele><name>
          前面下方就是河流
        </name></wpt>
  <wpt lat="29.065796624480683" lon="105.06427409081127"><ele>0</ele><name></name></wpt>
  <wpt lat="29.0697803035046" lon="105.06228793924278"><ele>0</ele><name></name></wpt>
  <wpt lat="29.0695664390739" lon="105.05986169273325"><ele>0</ele><name></name></wpt>
  <wpt lat="29.06836868777277" lon="105.0565624783287"><ele>0</ele><name></name></wpt>
  <wpt lat="29.075134165568034" lon="105.06705331667612"><ele>0</ele><name></name></wpt>
  <wpt lat="29.074074154483963" lon="105.0677939092332"><ele>0</ele><name></name></wpt>
  <wpt lat="29.073704889996392" lon="105.06808676719439"><ele>0</ele><name></name></wpt>
  <wpt lat="29.071957303371537" lon="105.06860692181311"><ele>0</ele><name></name></wpt>
  <wpt lat="29.071939115441342" lon="105.06878621613969"><ele>0</ele><name></name></wpt>
  <wpt lat="29.0715380007954" lon="105.07099216847179"><ele>0</ele><name></name></wpt>
  <wpt lat="29.070722910623388" lon="105.0694764411562"><ele>0</ele><name></name></wpt>
  <trk><name>青山岭520 12:03:32</name>
      <trkseg>
        <trkpt lat="29.07007" lon="105.06861"><ele>500.3069</ele><time>2026-02-05T20:03:33.000Z</time></trkpt>
        <trkpt lat="29.070096" lon="105.068584"><ele>495.87537</ele><time>2026-02-05T20:03:37.000Z</time></trkpt>
        <trkpt lat="29.070095" lon="105.068563"><ele>490.63617</ele><time>2026-02-05T20:03:40.000Z</time></trkpt>
        <trkpt lat="29.070077" lon="105.068518"><ele>488.2793</ele><time>2026-02-05T20:03:46.000Z</time></trkpt>
        <trkpt lat="29.070073" lon="105.068457"><ele>487.26218</ele><time>2026-02-05T20:03:51.000Z</time></trkpt>
        <trkpt lat="29.070042" lon="105.068407"><ele>488.78442</ele><time>2026-02-05T20:03:54.000Z</time></trkpt>
        <trkpt lat="29.070014" lon="105.068363"><ele>489.34457</ele><time>2026-02-05T20:04:02.000Z</time></trkpt>
        <trkpt lat="29.069966" lon="105.068338"><ele>490.10925</ele><time>2026-02-05T20:04:09.000Z</time></trkpt>
        <trkpt lat="29.06992" lon="105.068312"><ele>490.70407</ele><time>2026-02-05T20:04:14.000Z</time></trkpt>
        <trkpt lat="29.069871" lon="105.068299"><ele>491.26407</ele><time>2026-02-05T20:04:18.000Z</time></trkpt>
        <trkpt lat="29.069823" lon="105.068284"><ele>491.80792</ele><time>2026-02-05T20:04:22.000Z</time></trkpt>
        <trkpt lat="29.069776" lon="105.06825"><ele>492.7072</ele><time>2026-02-05T20:04:26.000Z</time></trkpt>
        <trkpt lat="29.069735" lon="105.068212"><ele>492.7801</ele><time>2026-02-05T20:04:30.000Z</time></trkpt>
        <trkpt lat="29.069708" lon="105.068166"><ele>492.8278</ele><time>2026-02-05T20:04:34.000Z</time></trkpt>
        <trkpt lat="29.069678" lon="105.068127"><ele>492.38907</ele><time>2026-02-05T20:04:38.000Z</time></trkpt>
        <trkpt lat="29.069665" lon="105.068069"><ele>492.5513</ele><time>2026-02-05T20:04:42.000Z</time></trkpt>
        <trkpt lat="29.069654" lon="105.068006"><ele>491.77194</ele><time>2026-02-05T20:04:46.000Z</time></trkpt>
        <trkpt lat="29.069628" lon="105.067961"><ele>492.13834</ele><time>2026-02-05T20:04:50.000Z</time></trkpt>
        <trkpt lat="29.069602" lon="105.067911"><ele>492.23785</ele><time>2026-02-05T20:04:54.000Z</time></trkpt>
        <trkpt lat="29.069563" lon="105.067873"><ele>490.30322</ele><time>2026-02-05T20:05:23.000Z</time></trkpt>
        <trkpt lat="29.069534" lon="105.067816"><ele>491.272</ele><time>2026-02-05T20:05:26.000Z</time></trkpt>
        <trkpt lat="29.069519" lon="105.067761"><ele>491.52377</ele><time>2026-02-05T20:05:30.000Z</time></trkpt>
        <trkpt lat="29.069516" lon="105.067747"><ele>491.18396</ele><time>2026-02-05T20:05:31.000Z</time></trkpt>
        <trkpt lat="29.069516" lon="105.067747"><ele>491.18396</ele><time>2026-02-05T20:05:31.000Z</time></trkpt>
        <trkpt lat="29.069513" lon="105.067735"><ele>491.17166</ele><time>2026-02-05T20:05:32.000Z</time></trkpt>
        <trkpt lat="29.069513" lon="105.067735"><ele>491.17166</ele><time>2026-02-05T20:05:32.000Z</time></trkpt>
        <trkpt lat="29.069515" lon="105.067716"><ele>491.40918</ele><time>2026-02-05T20:05:33.000Z</time></trkpt>
        <trkpt lat="29.069514" lon="105.067695"><ele>491.64728</ele><time>2026-02-05T20:05:34.000Z</time></trkpt>
        <trkpt lat="29.069514" lon="105.067695"><ele>491.64728</ele><time>2026-02-05T20:05:34.000Z</time></trkpt>
        <trkpt lat="29.069512" lon="105.067676"><ele>491.94702</ele><time>2026-02-05T20:05:35.000Z</time></trkpt>
        <trkpt lat="29.069512" lon="105.067676"><ele>491.94702</ele><time>2026-02-05T20:05:35.000Z</time></trkpt>
        <trkpt lat="29.069498" lon="105.067623"><ele>492.78088</ele><time>2026-02-05T20:05:39.000Z</time></trkpt>
        <trkpt lat="29.069498" lon="105.067623"><ele>492.78088</ele><time>2026-02-05T20:05:39.000Z</time></trkpt>
        <trkpt lat="29.069491" lon="105.067618"><ele>492.99323</ele><time>2026-02-05T20:05:40.000Z</time></trkpt>
        <trkpt lat="29.069491" lon="105.067618"><ele>492.99323</ele><time>2026-02-05T20:05:40.000Z</time></trkpt>
        <trkpt lat="29.069487" lon="105.067611"><ele>493.06128</ele><time>2026-02-05T20:05:41.000Z</time></trkpt>
        <trkpt lat="29.069445" lon="105.067591"><ele>493.81747</ele><time>2026-02-05T20:05:47.000Z</time></trkpt>
        <trkpt lat="29.069419" lon="105.067547"><ele>493.15393</ele><time>2026-02-05T20:05:51.000Z</time></trkpt>
        <trkpt lat="29.069385" lon="105.067514"><ele>491.7929</ele><time>2026-02-05T20:05:55.000Z</time></trkpt>
        <trkpt lat="29.069336" lon="105.067489"><ele>491.26465</ele><time>2026-02-05T20:05:59.000Z</time></trkpt>
        <trkpt lat="29.069313" lon="105.067439"><ele>492.2324</ele><time>2026-02-05T20:06:03.000Z</time></trkpt>
        <trkpt lat="29.069306" lon="105.067387"><ele>491.1371</ele><time>2026-02-05T20:06:08.000Z</time></trkpt>
        <trkpt lat="29.069291" lon="105.067334"><ele>490.30667</ele><time>2026-02-05T20:06:30.000Z</time></trkpt>
        <trkpt lat="29.069279" lon="105.067284"><ele>490.3758</ele><time>2026-02-05T20:06:35.000Z</time></trkpt>
        <trkpt lat="29.069242" lon="105.067233"><ele>492.13147</ele><time>2026-02-05T20:06:39.000Z</time></trkpt>
        <trkpt lat="29.06921" lon="105.067195"><ele>492.96335</ele><time>2026-02-05T20:06:42.000Z</time></trkpt>
        <trkpt lat="29.069172" lon="105.067136"><ele>493.3861</ele><time>2026-02-05T20:06:52.000Z</time></trkpt>
        <trkpt lat="29.069139" lon="105.067098"><ele>493.41382</ele><time>2026-02-05T20:06:55.000Z</time></trkpt>
        <trkpt lat="29.069106" lon="105.067054"><ele>492.3409</ele><time>2026-02-05T20:06:59.000Z</time></trkpt>
        <trkpt lat="29.069072" lon="105.067001"><ele>491.10587</ele><time>2026-02-05T20:07:03.000Z</time></trkpt>
        <trkpt lat="29.069011" lon="105.066979"><ele>489.63004</ele><time>2026-02-05T20:07:08.000Z</time></trkpt>
        <trkpt lat="29.068974" lon="105.066943"><ele>489.05783</ele><time>2026-02-05T20:07:12.000Z</time></trkpt>
        <trkpt lat="29.068972" lon="105.066884"><ele>489.4645</ele><time>2026-02-05T20:07:17.000Z</time></trkpt>
        <trkpt lat="29.068972" lon="105.066884"><ele>489.4645</ele><time>2026-02-05T20:07:17.000Z</time></trkpt>
        <trkpt lat="29.068968" lon="105.06687"><ele>489.21014</ele><time>2026-02-05T20:07:18.000Z</time></trkpt>
        <trkpt lat="29.068968" lon="105.066858"><ele>488.91644</ele><time>2026-02-05T20:07:19.000Z</time></trkpt>
        <trkpt lat="29.068961" lon="105.066826"><ele>487.59607</ele><time>2026-02-05T20:07:22.000Z</time></trkpt>
        <trkpt lat="29.068961" lon="105.066826"><ele>487.59607</ele><time>2026-02-05T20:07:22.000Z</time></trkpt>
        <trkpt lat="29.068956" lon="105.066814"><ele>487.38727</ele><time>2026-02-05T20:07:23.000Z</time></trkpt>
        <trkpt lat="29.06895" lon="105.066801"><ele>487.1791</ele><time>2026-02-05T20:07:24.000Z</time></trkpt>
        <trkpt lat="29.068945" lon="105.066784"><ele>487.179</ele><time>2026-02-05T20:07:25.000Z</time></trkpt>
        <trkpt lat="29.068937" lon="105.066743"><ele>486.70676</ele><time>2026-02-05T20:07:27.000Z</time></trkpt>
        <trkpt lat="29.068933" lon="105.06672"><ele>486.39307</ele><time>2026-02-05T20:07:28.000Z</time></trkpt>
        <trkpt lat="29.068918" lon="105.066679"><ele>485.4489</ele><time>2026-02-05T20:07:30.000Z</time></trkpt>
        <trkpt lat="29.068916" lon="105.066663"><ele>485.28604</ele><time>2026-02-05T20:07:31.000Z</time></trkpt>
        <trkpt lat="29.068854" lon="105.066628"><ele>484.20862</ele><time>2026-02-05T20:07:45.000Z</time></trkpt>
        <trkpt lat="29.068818" lon="105.066593"><ele>484.2026</ele><time>2026-02-05T20:07:52.000Z</time></trkpt>
        <trkpt lat="29.068798" lon="105.066543"><ele>483.7607</ele><time>2026-02-05T20:07:56.000Z</time></trkpt>
        <trkpt lat="29.068772" lon="105.066499"><ele>483.57632</ele><time>2026-02-05T20:08:01.000Z</time></trkpt>
        <trkpt lat="29.06874" lon="105.066535"><ele>482.58054</ele><time>2026-02-05T20:08:51.000Z</time></trkpt>
        <trkpt lat="29.068731" lon="105.066576"><ele>479.55768</ele><time>2026-02-05T20:09:27.000Z</time></trkpt>
        <trkpt lat="29.068754" lon="105.066531"><ele>477.29922</ele><time>2026-02-05T20:10:36.000Z</time></trkpt>
        <trkpt lat="29.068768" lon="105.06649"><ele>480.30667</ele><time>2026-02-05T20:10:41.000Z</time></trkpt>
        <trkpt lat="29.068805" lon="105.066454"><ele>479.1579</ele><time>2026-02-05T20:10:49.000Z</time></trkpt>
        <trkpt lat="29.068809" lon="105.0665"><ele>476.81927</ele><time>2026-02-05T20:11:17.000Z</time></trkpt>
        <trkpt lat="29.068773" lon="105.066533"><ele>477.16318</ele><time>2026-02-05T20:11:22.000Z</time></trkpt>
        <trkpt lat="29.068731" lon="105.0665"><ele>477.15012</ele><time>2026-02-05T20:11:27.000Z</time></trkpt>
        <trkpt lat="29.068719" lon="105.066451"><ele>478.02075</ele><time>2026-02-05T20:11:33.000Z</time></trkpt>
        <trkpt lat="29.068702" lon="105.066401"><ele>478.07275</ele><time>2026-02-05T20:11:38.000Z</time></trkpt>
        <trkpt lat="29.068667" lon="105.066364"><ele>479.4387</ele><time>2026-02-05T20:11:44.000Z</time></trkpt>
        <trkpt lat="29.068619" lon="105.066385"><ele>478.81186</ele><time>2026-02-05T20:11:50.000Z</time></trkpt>
        <trkpt lat="29.068572" lon="105.066392"><ele>479.14868</ele><time>2026-02-05T20:11:59.000Z</time></trkpt>
        <trkpt lat="29.068529" lon="105.066406"><ele>479.1794</ele><time>2026-02-05T20:12:05.000Z</time></trkpt>
        <trkpt lat="29.068491" lon="105.066372"><ele>479.91364</ele><time>2026-02-05T20:12:10.000Z</time></trkpt>
        <trkpt lat="29.068467" lon="105.066325"><ele>480.71585</ele><time>2026-02-05T20:12:15.000Z</time></trkpt>
        <trkpt lat="29.068427" lon="105.066297"><ele>481.2803</ele><time>2026-02-05T20:12:20.000Z</time></trkpt>
        <trkpt lat="29.068378" lon="105.066316"><ele>480.70496</ele><time>2026-02-05T20:12:28.000Z</time></trkpt>
        <trkpt lat="29.068332" lon="105.066295"><ele>479.75113</ele><time>2026-02-05T20:12:34.000Z</time></trkpt>
        <trkpt lat="29.068292" lon="105.066257"><ele>478.47543</ele><time>2026-02-05T20:12:46.000Z</time></trkpt>
        <trkpt lat="29.068259" lon="105.066218"><ele>477.53</ele><time>2026-02-05T20:12:51.000Z</time></trkpt>
        <trkpt lat="29.068216" lon="105.066193"><ele>479.12378</ele><time>2026-02-05T20:13:09.000Z</time></trkpt>
        <trkpt lat="29.068175" lon="105.066152"><ele>478.63968</ele><time>2026-02-05T20:13:13.000Z</time></trkpt>
        <trkpt lat="29.068129" lon="105.06615"><ele>477.5818</ele><time>2026-02-05T20:13:22.000Z</time></trkpt>
        <trkpt lat="29.068119" lon="105.0661"><ele>477.79758</ele><time>2026-02-05T20:13:28.000Z</time></trkpt>
        <trkpt lat="29.068095" lon="105.066052"><ele>478.60446</ele><time>2026-02-05T20:13:34.000Z</time></trkpt>
        <trkpt lat="29.06807" lon="105.066007"><ele>478.0012</ele><time>2026-02-05T20:13:38.000Z</time></trkpt>
        <trkpt lat="29.068055" lon="105.06595"><ele>477.12833</ele><time>2026-02-05T20:13:42.000Z</time></trkpt>
        <trkpt lat="29.06805" lon="105.065897"><ele>476.1165</ele><time>2026-02-05T20:13:46.000Z</time></trkpt>
        <trkpt lat="29.068061" lon="105.065841"><ele>476.6248</ele><time>2026-02-05T20:13:51.000Z</time></trkpt>
        <trkpt lat="29.068031" lon="105.065783"><ele>476.06436</ele><time>2026-02-05T20:13:55.000Z</time></trkpt>
        <trkpt lat="29.068012" lon="105.065725"><ele>475.73615</ele><time>2026-02-05T20:13:59.000Z</time></trkpt>
        <trkpt lat="29.068041" lon="105.065667"><ele>475.65677</ele><time>2026-02-05T20:14:03.000Z</time></trkpt>
        <trkpt lat="29.068053" lon="105.06561"><ele>475.74612</ele><time>2026-02-05T20:14:09.000Z</time></trkpt>
        <trkpt lat="29.068026" lon="105.065551"><ele>475.34695</ele><time>2026-02-05T20:14:14.000Z</time></trkpt>
        <trkpt lat="29.067987" lon="105.065524"><ele>474.23053</ele><time>2026-02-05T20:14:19.000Z</time></trkpt>
        <trkpt lat="29.067953" lon="105.065492"><ele>472.20453</ele><time>2026-02-05T20:14:23.000Z</time></trkpt>
        <trkpt lat="29.067912" lon="105.06546"><ele>474.01166</ele><time>2026-02-05T20:14:29.000Z</time></trkpt>
        <trkpt lat="29.067876" lon="105.065422"><ele>473.47968</ele><time>2026-02-05T20:14:33.000Z</time></trkpt>
        <trkpt lat="29.067837" lon="105.065397"><ele>472.35886</ele><time>2026-02-05T20:14:39.000Z</time></trkpt>
        <trkpt lat="29.067787" lon="105.065392"><ele>470.51688</ele><time>2026-02-05T20:14:47.000Z</time></trkpt>
        <trkpt lat="29.067762" lon="105.065342"><ele>469.55865</ele><time>2026-02-05T20:14:52.000Z</time></trkpt>
        <trkpt lat="29.067738" lon="105.065285"><ele>469.71674</ele><time>2026-02-05T20:14:57.000Z</time></trkpt>
        <trkpt lat="29.06769" lon="105.065255"><ele>470.50107</ele><time>2026-02-05T20:15:30.000Z</time></trkpt>
        <trkpt lat="29.067682" lon="105.065192"><ele>470.8249</ele><time>2026-02-05T20:15:37.000Z</time></trkpt>
        <trkpt lat="29.067675" lon="105.065136"><ele>470.71246</ele><time>2026-02-05T20:15:43.000Z</time></trkpt>
        <trkpt lat="29.067621" lon="105.065116"><ele>471.3404</ele><time>2026-02-05T20:16:09.000Z</time></trkpt>
        <trkpt lat="29.067572" lon="105.065107"><ele>471.3418</ele><time>2026-02-05T20:16:14.000Z</time></trkpt>
        <trkpt lat="29.067534" lon="105.065074"><ele>471.36142</ele><time>2026-02-05T20:16:19.000Z</time></trkpt>
        <trkpt lat="29.067534" lon="105.065074"><ele>471.36142</ele><time>2026-02-05T20:16:19.000Z</time></trkpt>
        <trkpt lat="29.067529" lon="105.065066"><ele>471.5221</ele><time>2026-02-05T20:16:20.000Z</time></trkpt>
        <trkpt lat="29.067529" lon="105.065066"><ele>471.5221</ele><time>2026-02-05T20:16:20.000Z</time></trkpt>
        <trkpt lat="29.067528" lon="105.065059"><ele>471.6807</ele><time>2026-02-05T20:16:21.000Z</time></trkpt>
        <trkpt lat="29.067528" lon="105.065059"><ele>471.6807</ele><time>2026-02-05T20:16:21.000Z</time></trkpt>
        <trkpt lat="29.067567" lon="105.064994"><ele>470.00308</ele><time>2026-02-05T20:16:27.000Z</time></trkpt>
        <trkpt lat="29.067567" lon="105.064994"><ele>470.00308</ele><time>2026-02-05T20:16:27.000Z</time></trkpt>
        <trkpt lat="29.067567" lon="105.064986"><ele>469.70087</ele><time>2026-02-05T20:16:28.000Z</time></trkpt>
        <trkpt lat="29.067567" lon="105.064986"><ele>469.70087</ele><time>2026-02-05T20:16:28.000Z</time></trkpt>
        <trkpt lat="29.067568" lon="105.064975"><ele>469.38782</ele><time>2026-02-05T20:16:29.000Z</time></trkpt>
        <trkpt lat="29.067554" lon="105.06493"><ele>467.6249</ele><time>2026-02-05T20:16:33.000Z</time></trkpt>
        <trkpt lat="29.067536" lon="105.064879"><ele>466.1099</ele><time>2026-02-05T20:16:39.000Z</time></trkpt>
        <trkpt lat="29.067532" lon="105.064822"><ele>464.8552</ele><time>2026-02-05T20:16:44.000Z</time></trkpt>
        <trkpt lat="29.067488" lon="105.064775"><ele>464.17712</ele><time>2026-02-05T20:16:49.000Z</time></trkpt>
        <trkpt lat="29.067451" lon="105.064801"><ele>465.6406</ele><time>2026-02-05T20:17:02.000Z</time></trkpt>
        <trkpt lat="29.067431" lon="105.064755"><ele>466.62274</ele><time>2026-02-05T20:17:10.000Z</time></trkpt>
        <trkpt lat="29.06742" lon="105.064694"><ele>466.38354</ele><time>2026-02-05T20:17:15.000Z</time></trkpt>
        <trkpt lat="29.067414" lon="105.064638"><ele>464.98267</ele><time>2026-02-05T20:17:20.000Z</time></trkpt>
        <trkpt lat="29.067392" lon="105.064593"><ele>463.0111</ele><time>2026-02-05T20:17:24.000Z</time></trkpt>
        <trkpt lat="29.06735" lon="105.064578"><ele>462.00024</ele><time>2026-02-05T20:17:30.000Z</time></trkpt>
        <trkpt lat="29.06735" lon="105.064578"><ele>462.00024</ele><time>2026-02-05T20:17:30.000Z</time></trkpt>
        <trkpt lat="29.067339" lon="105.064579"><ele>461.56152</ele><time>2026-02-05T20:17:31.000Z</time></trkpt>
        <trkpt lat="29.067334" lon="105.064573"><ele>461.3331</ele><time>2026-02-05T20:17:32.000Z</time></trkpt>
        <trkpt lat="29.06731" lon="105.06455"><ele>460.69775</ele><time>2026-02-05T20:17:35.000Z</time></trkpt>
        <trkpt lat="29.06731" lon="105.06455"><ele>460.69775</ele><time>2026-02-05T20:17:35.000Z</time></trkpt>
        <trkpt lat="29.067302" lon="105.064542"><ele>460.39325</ele><time>2026-02-05T20:17:36.000Z</time></trkpt>
        <trkpt lat="29.067297" lon="105.064536"><ele>460.0832</ele><time>2026-02-05T20:17:37.000Z</time></trkpt>
        <trkpt lat="29.067297" lon="105.064536"><ele>460.0832</ele><time>2026-02-05T20:17:37.000Z</time></trkpt>
        <trkpt lat="29.067284" lon="105.064496"><ele>459.16397</ele><time>2026-02-05T20:17:52.000Z</time></trkpt>
        <trkpt lat="29.06728" lon="105.064488"><ele>458.49896</ele><time>2026-02-05T20:17:55.000Z</time></trkpt>
        <trkpt lat="29.06728" lon="105.064488"><ele>458.49896</ele><time>2026-02-05T20:17:55.000Z</time></trkpt>
        <trkpt lat="29.067273" lon="105.064481"><ele>453.3077</ele><time>2026-02-05T20:18:22.000Z</time></trkpt>
        <trkpt lat="29.067262" lon="105.064436"><ele>450.93555</ele><time>2026-02-05T20:18:41.000Z</time></trkpt>
        <trkpt lat="29.067229" lon="105.0644"><ele>449.86285</ele><time>2026-02-05T20:18:50.000Z</time></trkpt>
        <trkpt lat="29.067182" lon="105.064389"><ele>448.7817</ele><time>2026-02-05T20:18:59.000Z</time></trkpt>
        <trkpt lat="29.067137" lon="105.064385"><ele>447.7887</ele><time>2026-02-05T20:19:06.000Z</time></trkpt>
        <trkpt lat="29.067094" lon="105.064365"><ele>446.6591</ele><time>2026-02-05T20:19:15.000Z</time></trkpt>
        <trkpt lat="29.067052" lon="105.064348"><ele>446.09146</ele><time>2026-02-05T20:19:22.000Z</time></trkpt>
        <trkpt lat="29.066997" lon="105.064356"><ele>445.5172</ele><time>2026-02-05T20:19:29.000Z</time></trkpt>
        <trkpt lat="29.066982" lon="105.064323"><ele>441.81973</ele><time>2026-02-05T20:19:48.000Z</time></trkpt>
        <trkpt lat="29.06697" lon="105.064276"><ele>439.88345</ele><time>2026-02-05T20:19:57.000Z</time></trkpt>
        <trkpt lat="29.06694" lon="105.064239"><ele>438.63376</ele><time>2026-02-05T20:20:06.000Z</time></trkpt>
        <trkpt lat="29.06693" lon="105.064189"><ele>437.04703</ele><time>2026-02-05T20:20:25.000Z</time></trkpt>
        <trkpt lat="29.066953" lon="105.064147"><ele>435.17685</ele><time>2026-02-05T20:20:36.000Z</time></trkpt>
        <trkpt lat="29.066908" lon="105.064155"><ele>433.66086</ele><time>2026-02-05T20:20:51.000Z</time></trkpt>
        <trkpt lat="29.066906" lon="105.064102"><ele>431.7884</ele><time>2026-02-05T20:21:05.000Z</time></trkpt>
        <trkpt lat="29.066913" lon="105.064049"><ele>429.6332</ele><time>2026-02-05T20:21:20.000Z</time></trkpt>
        <trkpt lat="29.066952" lon="105.064026"><ele>427.64978</ele><time>2026-02-05T20:21:25.000Z</time></trkpt>
        <trkpt lat="29.06695" lon="105.064085"><ele>426.0752</ele><time>2026-02-05T20:21:50.000Z</time></trkpt>
        <trkpt lat="29.066934" lon="105.064139"><ele>425.94843</ele><time>2026-02-05T20:21:54.000Z</time></trkpt>
        <trkpt lat="29.066759" lon="105.064199"><ele>437.55225</ele><time>2026-02-05T20:21:59.000Z</time></trkpt>
        <trkpt lat="29.066736" lon="105.064249"><ele>437.25836</ele><time>2026-02-05T20:22:05.000Z</time></trkpt>
        <trkpt lat="29.066699" lon="105.06428"><ele>436.8877</ele><time>2026-02-05T20:22:10.000Z</time></trkpt>
        <trkpt lat="29.066651" lon="105.064296"><ele>436.35077</ele><time>2026-02-05T20:22:18.000Z</time></trkpt>
        <trkpt lat="29.066617" lon="105.064331"><ele>436.49066</ele><time>2026-02-05T20:22:23.000Z</time></trkpt>
        <trkpt lat="29.066573" lon="105.064351"><ele>436.7879</ele><time>2026-02-05T20:22:33.000Z</time></trkpt>
        <trkpt lat="29.066536" lon="105.064388"><ele>436.60306</ele><time>2026-02-05T20:22:39.000Z</time></trkpt>
        <trkpt lat="29.066492" lon="105.064407"><ele>436.5224</ele><time>2026-02-05T20:22:44.000Z</time></trkpt>
        <trkpt lat="29.066459" lon="105.064448"><ele>437.12274</ele><time>2026-02-05T20:22:48.000Z</time></trkpt>
        <trkpt lat="29.066428" lon="105.064479"><ele>439.75964</ele><time>2026-02-05T20:23:01.000Z</time></trkpt>
        <trkpt lat="29.06641" lon="105.064533"><ele>440.5472</ele><time>2026-02-05T20:23:10.000Z</time></trkpt>
        <trkpt lat="29.066436" lon="105.064506"><ele>435.823</ele><time>2026-02-05T20:23:20.000Z</time></trkpt>
        <trkpt lat="29.066417" lon="105.064453"><ele>435.5485</ele><time>2026-02-05T20:23:27.000Z</time></trkpt>
        <trkpt lat="29.066393" lon="105.064411"><ele>433.37692</ele><time>2026-02-05T20:23:35.000Z</time></trkpt>
        <trkpt lat="29.066347" lon="105.064404"><ele>432.9685</ele><time>2026-02-05T20:23:42.000Z</time></trkpt>
        <trkpt lat="29.066306" lon="105.06439"><ele>434.68585</ele><time>2026-02-05T20:23:51.000Z</time></trkpt>
        <trkpt lat="29.066274" lon="105.064399"><ele>440.5577</ele><time>2026-02-05T20:24:24.000Z</time></trkpt>
        <trkpt lat="29.06623" lon="105.064376"><ele>439.33612</ele><time>2026-02-05T20:25:15.000Z</time></trkpt>
        <trkpt lat="29.066217" lon="105.064384"><ele>428.9202</ele><time>2026-02-05T20:25:18.000Z</time></trkpt>
        <trkpt lat="29.066176" lon="105.064351"><ele>429.18164</ele><time>2026-02-05T20:25:26.000Z</time></trkpt>
        <trkpt lat="29.066129" lon="105.064371"><ele>427.81845</ele><time>2026-02-05T20:25:52.000Z</time></trkpt>
        <trkpt lat="29.066125" lon="105.064372"><ele>435.02722</ele><time>2026-02-05T20:25:53.000Z</time></trkpt>
        <trkpt lat="29.06612" lon="105.064323"><ele>433.4537</ele><time>2026-02-05T20:26:00.000Z</time></trkpt>
        <trkpt lat="29.066079" lon="105.064295"><ele>433.8347</ele><time>2026-02-05T20:26:13.000Z</time></trkpt>
        <trkpt lat="29.066032" lon="105.064271"><ele>431.53546</ele><time>2026-02-05T20:26:21.000Z</time></trkpt>
        <trkpt lat="29.06599" lon="105.064307"><ele>430.53043</ele><time>2026-02-05T20:26:26.000Z</time></trkpt>
        <trkpt lat="29.065989" lon="105.064315"><ele>419.7108</ele><time>2026-02-05T20:26:29.000Z</time></trkpt>
        <trkpt lat="29.065965" lon="105.064274"><ele>417.66675</ele><time>2026-02-05T20:26:39.000Z</time></trkpt>
        <trkpt lat="29.065929" lon="105.064304"><ele>416.18857</ele><time>2026-02-05T20:26:46.000Z</time></trkpt>
        <trkpt lat="29.065899" lon="105.064342"><ele>415.98648</ele><time>2026-02-05T20:26:56.000Z</time></trkpt>
        <trkpt lat="29.065867" lon="105.064371"><ele>413.0642</ele><time>2026-02-05T20:27:06.000Z</time></trkpt>
        <trkpt lat="29.065831" lon="105.064403"><ele>411.34912</ele><time>2026-02-05T20:27:33.000Z</time></trkpt>
        <trkpt lat="29.065844" lon="105.064395"><ele>416.70026</ele><time>2026-02-05T20:28:13.000Z</time></trkpt>
        <trkpt lat="29.065811" lon="105.064355"><ele>417.4795</ele><time>2026-02-05T20:28:32.000Z</time></trkpt>
        <trkpt lat="29.065847" lon="105.064322"><ele>417.4653</ele><time>2026-02-05T20:28:59.000Z</time></trkpt>
        <trkpt lat="29.065805" lon="105.064281"><ele>415.63345</ele><time>2026-02-05T20:29:10.000Z</time></trkpt>
        <trkpt lat="29.065815" lon="105.064251"><ele>411.6862</ele><time>2026-02-05T20:29:23.000Z</time></trkpt>
        <trkpt lat="29.065811" lon="105.064296"><ele>408.57535</ele><time>2026-02-05T20:30:03.000Z</time></trkpt>
        <trkpt lat="29.065779" lon="105.064338"><ele>408.34418</ele><time>2026-02-05T20:30:13.000Z</time></trkpt>
        <trkpt lat="29.065747" lon="105.064306"><ele>406.02112</ele><time>2026-02-05T20:30:31.000Z</time></trkpt>
        <trkpt lat="29.065778" lon="105.064256"><ele>405.40518</ele><time>2026-02-05T20:30:39.000Z</time></trkpt>
        <trkpt lat="29.065762" lon="105.064205"><ele>406.60724</ele><time>2026-02-05T20:30:44.000Z</time></trkpt>
        <trkpt lat="29.06572" lon="105.064189"><ele>409.17865</ele><time>2026-02-05T20:31:00.000Z</time></trkpt>
        <trkpt lat="29.065665" lon="105.064178"><ele>409.53986</ele><time>2026-02-05T20:31:04.000Z</time></trkpt>
        <trkpt lat="29.06561" lon="105.064166"><ele>409.86505</ele><time>2026-02-05T20:31:08.000Z</time></trkpt>
        <trkpt lat="29.065613" lon="105.064227"><ele>411.29962</ele><time>2026-02-05T20:31:17.000Z</time></trkpt>
        <trkpt lat="29.065616" lon="105.064282"><ele>411.89755</ele><time>2026-02-05T20:32:08.000Z</time></trkpt>
        <trkpt lat="29.065572" lon="105.06428"><ele>411.04837</ele><time>2026-02-05T20:32:14.000Z</time></trkpt>
        <trkpt lat="29.065579" lon="105.064225"><ele>410.07135</ele><time>2026-02-05T20:32:32.000Z</time></trkpt>
        <trkpt lat="29.065623" lon="105.064249"><ele>409.11545</ele><time>2026-02-05T20:32:46.000Z</time></trkpt>
        <trkpt lat="29.065659" lon="105.06429"><ele>408.64938</ele><time>2026-02-05T20:32:52.000Z</time></trkpt>
        <trkpt lat="29.065699" lon="105.064322"><ele>409.95053</ele><time>2026-02-05T20:33:14.000Z</time></trkpt>
        <trkpt lat="29.065738" lon="105.064348"><ele>409.54254</ele><time>2026-02-05T20:33:27.000Z</time></trkpt>
        <trkpt lat="29.065788" lon="105.064357"><ele>408.16113</ele><time>2026-02-05T20:34:01.000Z</time></trkpt>
        <trkpt lat="29.065815" lon="105.064403"><ele>407.4125</ele><time>2026-02-05T20:34:07.000Z</time></trkpt>
        <trkpt lat="29.065857" lon="105.06438"><ele>407.81076</ele><time>2026-02-05T20:34:14.000Z</time></trkpt>
        <trkpt lat="29.06585" lon="105.064345"><ele>411.73727</ele><time>2026-02-05T20:34:44.000Z</time></trkpt>
        <trkpt lat="29.065893" lon="105.064314"><ele>413.9111</ele><time>2026-02-05T20:34:52.000Z</time></trkpt>
        <trkpt lat="29.065949" lon="105.064302"><ele>415.70367</ele><time>2026-02-05T20:34:56.000Z</time></trkpt>
        <trkpt lat="29.065982" lon="105.064267"><ele>418.2582</ele><time>2026-02-05T20:35:26.000Z</time></trkpt>
        <trkpt lat="29.066026" lon="105.064293"><ele>418.3669</ele><time>2026-02-05T20:35:31.000Z</time></trkpt>
        <trkpt lat="29.066058" lon="105.064321"><ele>421.5616</ele><time>2026-02-05T20:35:59.000Z</time></trkpt>
        <trkpt lat="29.066092" lon="105.064356"><ele>421.14816</ele><time>2026-02-05T20:36:05.000Z</time></trkpt>
        <trkpt lat="29.066075" lon="105.064307"><ele>420.44363</ele><time>2026-02-05T20:36:14.000Z</time></trkpt>
        <trkpt lat="29.066103" lon="105.064266"><ele>420.42245</ele><time>2026-02-05T20:36:28.000Z</time></trkpt>
        <trkpt lat="29.066131" lon="105.064305"><ele>421.97562</ele><time>2026-02-05T20:36:33.000Z</time></trkpt>
        <trkpt lat="29.066154" lon="105.064345"><ele>424.04214</ele><time>2026-02-05T20:36:50.000Z</time></trkpt>
        <trkpt lat="29.066183" lon="105.064321"><ele>427.23392</ele><time>2026-02-05T20:37:20.000Z</time></trkpt>
        <trkpt lat="29.066213" lon="105.064288"><ele>429.27582</ele><time>2026-02-05T20:37:28.000Z</time></trkpt>
        <trkpt lat="29.066221" lon="105.064338"><ele>428.92752</ele><time>2026-02-05T20:37:44.000Z</time></trkpt>
        <trkpt lat="29.066191" lon="105.064377"><ele>430.0017</ele><time>2026-02-05T20:37:53.000Z</time></trkpt>
        <trkpt lat="29.066236" lon="105.064409"><ele>430.15405</ele><time>2026-02-05T20:37:59.000Z</time></trkpt>
        <trkpt lat="29.066274" lon="105.064404"><ele>432.89154</ele><time>2026-02-05T20:38:03.000Z</time></trkpt>
        <trkpt lat="29.06631" lon="105.064391"><ele>435.7508</ele><time>2026-02-05T20:38:08.000Z</time></trkpt>
        <trkpt lat="29.066339" lon="105.064416"><ele>439.62665</ele><time>2026-02-05T20:38:22.000Z</time></trkpt>
        <trkpt lat="29.066378" lon="105.064471"><ele>441.16785</ele><time>2026-02-05T20:38:32.000Z</time></trkpt>
        <trkpt lat="29.066418" lon="105.064443"><ele>440.7136</ele><time>2026-02-05T20:38:43.000Z</time></trkpt>
        <trkpt lat="29.066442" lon="105.064395"><ele>441.49304</ele><time>2026-02-05T20:38:53.000Z</time></trkpt>
        <trkpt lat="29.066459" lon="105.06434"><ele>441.8187</ele><time>2026-02-05T20:38:59.000Z</time></trkpt>
        <trkpt lat="29.066498" lon="105.064313"><ele>442.9636</ele><time>2026-02-05T20:39:05.000Z</time></trkpt>
        <trkpt lat="29.066534" lon="105.064281"><ele>443.80496</ele><time>2026-02-05T20:39:09.000Z</time></trkpt>
        <trkpt lat="29.066569" lon="105.064247"><ele>444.21646</ele><time>2026-02-05T20:39:13.000Z</time></trkpt>
        <trkpt lat="29.066619" lon="105.064251"><ele>444.81726</ele><time>2026-02-05T20:39:17.000Z</time></trkpt>
        <trkpt lat="29.066652" lon="105.06422"><ele>447.15396</ele><time>2026-02-05T20:39:31.000Z</time></trkpt>
        <trkpt lat="29.066694" lon="105.064212"><ele>444.84756</ele><time>2026-02-05T20:39:40.000Z</time></trkpt>
        <trkpt lat="29.066737" lon="105.064207"><ele>441.96054</ele><time>2026-02-05T20:39:47.000Z</time></trkpt>
        <trkpt lat="29.066771" lon="105.064178"><ele>440.25134</ele><time>2026-02-05T20:39:53.000Z</time></trkpt>
        <trkpt lat="29.066808" lon="105.064153"><ele>437.61267</ele><time>2026-02-05T20:39:58.000Z</time></trkpt>
        <trkpt lat="29.066843" lon="105.064107"><ele>434.43796</ele><time>2026-02-05T20:40:05.000Z</time></trkpt>
        <trkpt lat="29.066867" lon="105.064075"><ele>431.43954</ele><time>2026-02-05T20:40:10.000Z</time></trkpt>
        <trkpt lat="29.066895" lon="105.064026"><ele>429.54147</ele><time>2026-02-05T20:40:23.000Z</time></trkpt>
        <trkpt lat="29.066937" lon="105.063996"><ele>428.00485</ele><time>2026-02-05T20:40:28.000Z</time></trkpt>
        <trkpt lat="29.066973" lon="105.064011"><ele>431.00436</ele><time>2026-02-05T20:40:42.000Z</time></trkpt>
        <trkpt lat="29.067007" lon="105.063979"><ele>432.91647</ele><time>2026-02-05T20:40:49.000Z</time></trkpt>
        <trkpt lat="29.067037" lon="105.063946"><ele>435.37488</ele><time>2026-02-05T20:41:06.000Z</time></trkpt>
        <trkpt lat="29.067078" lon="105.063931"><ele>432.5684</ele><time>2026-02-05T20:41:25.000Z</time></trkpt>
        <trkpt lat="29.067087" lon="105.063934"><ele>440.14832</ele><time>2026-02-05T20:41:27.000Z</time></trkpt>
        <trkpt lat="29.067123" lon="105.063922"><ele>435.99374</ele><time>2026-02-05T20:41:31.000Z</time></trkpt>
        <trkpt lat="29.067161" lon="105.063888"><ele>433.5446</ele><time>2026-02-05T20:41:35.000Z</time></trkpt>
        <trkpt lat="29.067203" lon="105.063873"><ele>431.71716</ele><time>2026-02-05T20:41:44.000Z</time></trkpt>
        <trkpt lat="29.067243" lon="105.063843"><ele>429.78992</ele><time>2026-02-05T20:41:51.000Z</time></trkpt>
        <trkpt lat="29.067279" lon="105.063854"><ele>426.36942</ele><time>2026-02-05T20:41:56.000Z</time></trkpt>
        <trkpt lat="29.067311" lon="105.063841"><ele>422.96298</ele><time>2026-02-05T20:42:01.000Z</time></trkpt>
        <trkpt lat="29.067354" lon="105.063835"><ele>421.4227</ele><time>2026-02-05T20:42:05.000Z</time></trkpt>
        <trkpt lat="29.06739" lon="105.063822"><ele>418.58414</ele><time>2026-02-05T20:42:18.000Z</time></trkpt>
        <trkpt lat="29.067435" lon="105.063835"><ele>416.50674</ele><time>2026-02-05T20:42:24.000Z</time></trkpt>
        <trkpt lat="29.06739" lon="105.063841"><ele>416.8733</ele><time>2026-02-05T20:42:32.000Z</time></trkpt>
        <trkpt lat="29.067396" lon="105.063786"><ele>415.2971</ele><time>2026-02-05T20:42:40.000Z</time></trkpt>
        <trkpt lat="29.067389" lon="105.063734"><ele>414.4913</ele><time>2026-02-05T20:42:46.000Z</time></trkpt>
        <trkpt lat="29.0674" lon="105.063683"><ele>412.592</ele><time>2026-02-05T20:42:53.000Z</time></trkpt>
        <trkpt lat="29.067411" lon="105.06363"><ele>410.82773</ele><time>2026-02-05T20:43:01.000Z</time></trkpt>
        <trkpt lat="29.067404" lon="105.063577"><ele>410.3012</ele><time>2026-02-05T20:43:06.000Z</time></trkpt>
        <trkpt lat="29.067428" lon="105.06354"><ele>407.4675</ele><time>2026-02-05T20:43:13.000Z</time></trkpt>
        <trkpt lat="29.06746" lon="105.06349"><ele>406.84323</ele><time>2026-02-05T20:43:19.000Z</time></trkpt>
        <trkpt lat="29.06749" lon="105.063455"><ele>405.1935</ele><time>2026-02-05T20:43:24.000Z</time></trkpt>
        <trkpt lat="29.067512" lon="105.063408"><ele>404.00125</ele><time>2026-02-05T20:43:30.000Z</time></trkpt>
        <trkpt lat="29.06752" lon="105.063354"><ele>402.74106</ele><time>2026-02-05T20:43:37.000Z</time></trkpt>
        <trkpt lat="29.067537" lon="105.063306"><ele>400.9507</ele><time>2026-02-05T20:43:54.000Z</time></trkpt>
        <trkpt lat="29.067497" lon="105.063278"><ele>397.76385</ele><time>2026-02-05T20:44:06.000Z</time></trkpt>
        <trkpt lat="29.067479" lon="105.063228"><ele>396.28082</ele><time>2026-02-05T20:44:12.000Z</time></trkpt>
        <trkpt lat="29.067481" lon="105.063168"><ele>395.44803</ele><time>2026-02-05T20:44:19.000Z</time></trkpt>
        <trkpt lat="29.06747" lon="105.063119"><ele>394.14676</ele><time>2026-02-05T20:44:28.000Z</time></trkpt>
        <trkpt lat="29.067446" lon="105.063081"><ele>391.67902</ele><time>2026-02-05T20:44:40.000Z</time></trkpt>
        <trkpt lat="29.067425" lon="105.063031"><ele>392.22568</ele><time>2026-02-05T20:44:52.000Z</time></trkpt>
        <trkpt lat="29.067411" lon="105.062984"><ele>390.48654</ele><time>2026-02-05T20:45:26.000Z</time></trkpt>
        <trkpt lat="29.067405" lon="105.062932"><ele>389.53354</ele><time>2026-02-05T20:45:35.000Z</time></trkpt>
        <trkpt lat="29.067429" lon="105.062955"><ele>385.71918</ele><time>2026-02-05T20:46:06.000Z</time></trkpt>
        <trkpt lat="29.067451" lon="105.063"><ele>385.5025</ele><time>2026-02-05T20:46:12.000Z</time></trkpt>
        <trkpt lat="29.067467" lon="105.063047"><ele>386.85226</ele><time>2026-02-05T20:46:21.000Z</time></trkpt>
        <trkpt lat="29.06746" lon="105.063098"><ele>387.53</ele><time>2026-02-05T20:46:35.000Z</time></trkpt>
        <trkpt lat="29.067476" lon="105.063145"><ele>386.01443</ele><time>2026-02-05T20:46:52.000Z</time></trkpt>
        <trkpt lat="29.067511" lon="105.063184"><ele>384.98956</ele><time>2026-02-05T20:47:04.000Z</time></trkpt>
        <trkpt lat="29.067543" lon="105.063219"><ele>386.09634</ele><time>2026-02-05T20:47:11.000Z</time></trkpt>
        <trkpt lat="29.067547" lon="105.063263"><ele>389.26364</ele><time>2026-02-05T20:47:21.000Z</time></trkpt>
        <trkpt lat="29.067541" lon="105.063305"><ele>392.3472</ele><time>2026-02-05T20:47:28.000Z</time></trkpt>
        <trkpt lat="29.067563" lon="105.06335"><ele>391.47787</ele><time>2026-02-05T20:47:40.000Z</time></trkpt>
        <trkpt lat="29.067569" lon="105.063403"><ele>391.4012</ele><time>2026-02-05T20:48:03.000Z</time></trkpt>
        <trkpt lat="29.067509" lon="105.063432"><ele>392.21127</ele><time>2026-02-05T20:48:07.000Z</time></trkpt>
        <trkpt lat="29.067509" lon="105.063463"><ele>386.92728</ele><time>2026-02-05T20:48:09.000Z</time></trkpt>
        <trkpt lat="29.067504" lon="105.06352"><ele>387.9508</ele><time>2026-02-05T20:48:26.000Z</time></trkpt>
        <trkpt lat="29.067469" lon="105.063566"><ele>389.11505</ele><time>2026-02-05T20:48:43.000Z</time></trkpt>
        <trkpt lat="29.06744" lon="105.063624"><ele>391.32898</ele><time>2026-02-05T20:48:46.000Z</time></trkpt>
        <trkpt lat="29.067418" lon="105.063668"><ele>393.5432</ele><time>2026-02-05T20:48:56.000Z</time></trkpt>
        <trkpt lat="29.067402" lon="105.063717"><ele>393.75443</ele><time>2026-02-05T20:49:01.000Z</time></trkpt>
        <trkpt lat="29.067388" lon="105.063767"><ele>395.30832</ele><time>2026-02-05T20:49:15.000Z</time></trkpt>
        <trkpt lat="29.06737" lon="105.063825"><ele>396.1701</ele><time>2026-02-05T20:49:24.000Z</time></trkpt>
        <trkpt lat="29.067353" lon="105.063872"><ele>397.2306</ele><time>2026-02-05T20:49:37.000Z</time></trkpt>
        <trkpt lat="29.067395" lon="105.063876"><ele>399.15323</ele><time>2026-02-05T20:49:44.000Z</time></trkpt>
        <trkpt lat="29.067412" lon="105.063873"><ele>413.11334</ele><time>2026-02-05T20:49:46.000Z</time></trkpt>
        <trkpt lat="29.067462" lon="105.063862"><ele>414.46207</ele><time>2026-02-05T20:49:51.000Z</time></trkpt>
        <trkpt lat="29.067504" lon="105.063844"><ele>414.78683</ele><time>2026-02-05T20:49:56.000Z</time></trkpt>
        <trkpt lat="29.067551" lon="105.063846"><ele>415.12396</ele><time>2026-02-05T20:50:02.000Z</time></trkpt>
        <trkpt lat="29.067591" lon="105.063872"><ele>414.31244</ele><time>2026-02-05T20:50:08.000Z</time></trkpt>
        <trkpt lat="29.067645" lon="105.063903"><ele>411.23666</ele><time>2026-02-05T20:50:15.000Z</time></trkpt>
        <trkpt lat="29.067688" lon="105.063926"><ele>409.22314</ele><time>2026-02-05T20:50:21.000Z</time></trkpt>
        <trkpt lat="29.067733" lon="105.063964"><ele>408.20355</ele><time>2026-02-05T20:50:26.000Z</time></trkpt>
        <trkpt lat="29.067775" lon="105.063983"><ele>408.13226</ele><time>2026-02-05T20:50:31.000Z</time></trkpt>
        <trkpt lat="29.067815" lon="105.06401"><ele>407.43564</ele><time>2026-02-05T20:50:38.000Z</time></trkpt>
        <trkpt lat="29.067862" lon="105.064034"><ele>406.33008</ele><time>2026-02-05T20:50:44.000Z</time></trkpt>
        <trkpt lat="29.067906" lon="105.064062"><ele>405.6178</ele><time>2026-02-05T20:50:50.000Z</time></trkpt>
        <trkpt lat="29.067948" lon="105.064067"><ele>403.39957</ele><time>2026-02-05T20:50:55.000Z</time></trkpt>
        <trkpt lat="29.067991" lon="105.064084"><ele>403.5347</ele><time>2026-02-05T20:51:00.000Z</time></trkpt>
        <trkpt lat="29.068039" lon="105.064086"><ele>405.29822</ele><time>2026-02-05T20:51:05.000Z</time></trkpt>
        <trkpt lat="29.068084" lon="105.064069"><ele>403.75317</ele><time>2026-02-05T20:51:30.000Z</time></trkpt>
        <trkpt lat="29.068127" lon="105.064078"><ele>401.17273</ele><time>2026-02-05T20:51:37.000Z</time></trkpt>
        <trkpt lat="29.068163" lon="105.064094"><ele>398.68732</ele><time>2026-02-05T20:51:42.000Z</time></trkpt>
        <trkpt lat="29.068204" lon="105.064119"><ele>396.90207</ele><time>2026-02-05T20:51:49.000Z</time></trkpt>
        <trkpt lat="29.068227" lon="105.064161"><ele>395.4851</ele><time>2026-02-05T20:51:54.000Z</time></trkpt>
        <trkpt lat="29.068272" lon="105.064177"><ele>395.0719</ele><time>2026-02-05T20:52:04.000Z</time></trkpt>
        <trkpt lat="29.068275" lon="105.064232"><ele>394.6311</ele><time>2026-02-05T20:52:17.000Z</time></trkpt>
        <trkpt lat="29.068313" lon="105.06427"><ele>394.48093</ele><time>2026-02-05T20:52:23.000Z</time></trkpt>
        <trkpt lat="29.06834" lon="105.064318"><ele>394.7306</ele><time>2026-02-05T20:52:43.000Z</time></trkpt>
        <trkpt lat="29.068312" lon="105.064298"><ele>389.38367</ele><time>2026-02-05T20:53:14.000Z</time></trkpt>
        <trkpt lat="29.068335" lon="105.064346"><ele>387.55048</ele><time>2026-02-05T20:54:20.000Z</time></trkpt>
        <trkpt lat="29.068378" lon="105.064331"><ele>386.8312</ele><time>2026-02-05T20:54:26.000Z</time></trkpt>
        <trkpt lat="29.068396" lon="105.064273"><ele>386.48807</ele><time>2026-02-05T20:54:32.000Z</time></trkpt>
        <trkpt lat="29.068379" lon="105.064216"><ele>386.74863</ele><time>2026-02-05T20:54:35.000Z</time></trkpt>
        <trkpt lat="29.068368" lon="105.064164"><ele>387.12067</ele><time>2026-02-05T20:54:40.000Z</time></trkpt>
        <trkpt lat="29.068357" lon="105.064105"><ele>387.43353</ele><time>2026-02-05T20:54:45.000Z</time></trkpt>
        <trkpt lat="29.068344" lon="105.064056"><ele>388.27222</ele><time>2026-02-05T20:54:51.000Z</time></trkpt>
        <trkpt lat="29.068312" lon="105.064012"><ele>388.09747</ele><time>2026-02-05T20:55:06.000Z</time></trkpt>
        <trkpt lat="29.068321" lon="105.063959"><ele>387.3853</ele><time>2026-02-05T20:55:10.000Z</time></trkpt>
        <trkpt lat="29.068351" lon="105.063916"><ele>386.25592</ele><time>2026-02-05T20:55:14.000Z</time></trkpt>
        <trkpt lat="29.068393" lon="105.063878"><ele>386.5067</ele><time>2026-02-05T20:55:22.000Z</time></trkpt>
        <trkpt lat="29.06844" lon="105.063848"><ele>387.14685</ele><time>2026-02-05T20:55:25.000Z</time></trkpt>
        <trkpt lat="29.068495" lon="105.063816"><ele>387.8611</ele><time>2026-02-05T20:55:32.000Z</time></trkpt>
        <trkpt lat="29.068539" lon="105.063776"><ele>388.25284</ele><time>2026-02-05T20:55:36.000Z</time></trkpt>
        <trkpt lat="29.068583" lon="105.06375"><ele>388.5177</ele><time>2026-02-05T20:55:43.000Z</time></trkpt>
        <trkpt lat="29.068589" lon="105.063694"><ele>388.337</ele><time>2026-02-05T20:55:52.000Z</time></trkpt>
        <trkpt lat="29.068579" lon="105.063638"><ele>388.58603</ele><time>2026-02-05T20:55:57.000Z</time></trkpt>
        <trkpt lat="29.068607" lon="105.063609"><ele>385.7148</ele><time>2026-02-05T20:56:05.000Z</time></trkpt>
        <trkpt lat="29.068638" lon="105.063575"><ele>383.82016</ele><time>2026-02-05T20:56:22.000Z</time></trkpt>
        <trkpt lat="29.068599" lon="105.063539"><ele>383.97714</ele><time>2026-02-05T20:56:31.000Z</time></trkpt>
        <trkpt lat="29.068578" lon="105.063492"><ele>384.2667</ele><time>2026-02-05T20:56:36.000Z</time></trkpt>
        <trkpt lat="29.068566" lon="105.063439"><ele>383.65152</ele><time>2026-02-05T20:56:44.000Z</time></trkpt>
        <trkpt lat="29.068539" lon="105.063393"><ele>382.42014</ele><time>2026-02-05T20:56:48.000Z</time></trkpt>
        <trkpt lat="29.068553" lon="105.063344"><ele>381.6053</ele><time>2026-02-05T20:56:53.000Z</time></trkpt>
        <trkpt lat="29.068567" lon="105.063301"><ele>379.0632</ele><time>2026-02-05T20:56:59.000Z</time></trkpt>
        <trkpt lat="29.068605" lon="105.063272"><ele>377.79184</ele><time>2026-02-05T20:57:11.000Z</time></trkpt>
        <trkpt lat="29.068624" lon="105.063218"><ele>375.81296</ele><time>2026-02-05T20:57:18.000Z</time></trkpt>
        <trkpt lat="29.068665" lon="105.063199"><ele>374.07864</ele><time>2026-02-05T20:57:26.000Z</time></trkpt>
        <trkpt lat="29.068666" lon="105.063148"><ele>372.06107</ele><time>2026-02-05T20:57:34.000Z</time></trkpt>
        <trkpt lat="29.068646" lon="105.063102"><ele>372.28293</ele><time>2026-02-05T20:57:41.000Z</time></trkpt>
        <trkpt lat="29.068658" lon="105.063051"><ele>371.55237</ele><time>2026-02-05T20:57:58.000Z</time></trkpt>
        <trkpt lat="29.068693" lon="105.063051"><ele>367.79227</ele><time>2026-02-05T20:58:05.000Z</time></trkpt>
        <trkpt lat="29.068707" lon="105.063022"><ele>375.9473</ele><time>2026-02-05T20:58:30.000Z</time></trkpt>
        <trkpt lat="29.06868" lon="105.063001"><ele>372.19504</ele><time>2026-02-05T20:58:52.000Z</time></trkpt>
        <trkpt lat="29.068695" lon="105.062965"><ele>368.87057</ele><time>2026-02-05T20:59:09.000Z</time></trkpt>
        <trkpt lat="29.068704" lon="105.063009"><ele>366.0178</ele><time>2026-02-05T20:59:17.000Z</time></trkpt>
        <trkpt lat="29.068753" lon="105.063006"><ele>364.2421</ele><time>2026-02-05T20:59:23.000Z</time></trkpt>
        <trkpt lat="29.068805" lon="105.063014"><ele>363.9039</ele><time>2026-02-05T20:59:38.000Z</time></trkpt>
        <trkpt lat="29.06885" lon="105.062999"><ele>363.0813</ele><time>2026-02-05T20:59:42.000Z</time></trkpt>
        <trkpt lat="29.068878" lon="105.062948"><ele>362.6679</ele><time>2026-02-05T20:59:46.000Z</time></trkpt>
        <trkpt lat="29.068874" lon="105.06289"><ele>362.34964</ele><time>2026-02-05T20:59:52.000Z</time></trkpt>
        <trkpt lat="29.068882" lon="105.062873"><ele>339.8994</ele><time>2026-02-05T21:00:03.000Z</time></trkpt>
        <trkpt lat="29.068924" lon="105.06288"><ele>338.13715</ele><time>2026-02-05T21:00:10.000Z</time></trkpt>
        <trkpt lat="29.068953" lon="105.062853"><ele>335.1607</ele><time>2026-02-05T21:00:35.000Z</time></trkpt>
        <trkpt lat="29.068988" lon="105.062811"><ele>335.39093</ele><time>2026-02-05T21:01:07.000Z</time></trkpt>
        <trkpt lat="29.069035" lon="105.06281"><ele>333.89252</ele><time>2026-02-05T21:01:19.000Z</time></trkpt>
        <trkpt lat="29.068995" lon="105.062795"><ele>331.9773</ele><time>2026-02-05T21:02:08.000Z</time></trkpt>
        <trkpt lat="29.068999" lon="105.062738"><ele>331.55515</ele><time>2026-02-05T21:02:21.000Z</time></trkpt>
        <trkpt lat="29.069005" lon="105.062727"><ele>343.27887</ele><time>2026-02-05T21:02:23.000Z</time></trkpt>
        <trkpt lat="29.068961" lon="105.062712"><ele>342.61853</ele><time>2026-02-05T21:02:38.000Z</time></trkpt>
        <trkpt lat="29.068993" lon="105.062675"><ele>340.35718</ele><time>2026-02-05T21:02:46.000Z</time></trkpt>
        <trkpt lat="29.069025" lon="105.062647"><ele>326.98114</ele><time>2026-02-05T21:02:53.000Z</time></trkpt>
        <trkpt lat="29.069062" lon="105.062612"><ele>325.37973</ele><time>2026-02-05T21:02:57.000Z</time></trkpt>
        <trkpt lat="29.069094" lon="105.062602"><ele>321.86935</ele><time>2026-02-05T21:03:23.000Z</time></trkpt>
        <trkpt lat="29.069124" lon="105.062643"><ele>317.59256</ele><time>2026-02-05T21:03:31.000Z</time></trkpt>
        <trkpt lat="29.06916" lon="105.062668"><ele>315.8935</ele><time>2026-02-05T21:03:37.000Z</time></trkpt>
        <trkpt lat="29.06921" lon="105.062674"><ele>314.5254</ele><time>2026-02-05T21:03:44.000Z</time></trkpt>
        <trkpt lat="29.069255" lon="105.06268"><ele>314.32733</ele><time>2026-02-05T21:03:52.000Z</time></trkpt>
        <trkpt lat="29.069242" lon="105.062623"><ele>314.95493</ele><time>2026-02-05T21:03:56.000Z</time></trkpt>
        <trkpt lat="29.069227" lon="105.062565"><ele>314.47913</ele><time>2026-02-05T21:04:02.000Z</time></trkpt>
        <trkpt lat="29.069261" lon="105.062577"><ele>311.15295</ele><time>2026-02-05T21:04:14.000Z</time></trkpt>
        <trkpt lat="29.069308" lon="105.062556"><ele>311.13898</ele><time>2026-02-05T21:04:20.000Z</time></trkpt>
        <trkpt lat="29.069346" lon="105.062522"><ele>310.66785</ele><time>2026-02-05T21:04:32.000Z</time></trkpt>
        <trkpt lat="29.06936" lon="105.062471"><ele>311.05515</ele><time>2026-02-05T21:04:47.000Z</time></trkpt>
        <trkpt lat="29.069357" lon="105.062416"><ele>310.1411</ele><time>2026-02-05T21:05:06.000Z</time></trkpt>
        <trkpt lat="29.069394" lon="105.062383"><ele>309.14545</ele><time>2026-02-05T21:05:16.000Z</time></trkpt>
        <trkpt lat="29.069445" lon="105.062385"><ele>308.1536</ele><time>2026-02-05T21:05:23.000Z</time></trkpt>
        <trkpt lat="29.069487" lon="105.062368"><ele>309.4266</ele><time>2026-02-05T21:05:55.000Z</time></trkpt>
        <trkpt lat="29.0695" lon="105.06232"><ele>310.85248</ele><time>2026-02-05T21:06:19.000Z</time></trkpt>
        <trkpt lat="29.069544" lon="105.062326"><ele>310.1149</ele><time>2026-02-05T21:06:37.000Z</time></trkpt>
        <trkpt lat="29.069586" lon="105.062299"><ele>307.5135</ele><time>2026-02-05T21:06:46.000Z</time></trkpt>
        <trkpt lat="29.069627" lon="105.062278"><ele>306.61322</ele><time>2026-02-05T21:06:52.000Z</time></trkpt>
        <trkpt lat="29.069652" lon="105.06223"><ele>306.91855</ele><time>2026-02-05T21:06:59.000Z</time></trkpt>
        <trkpt lat="29.069684" lon="105.06219"><ele>304.87927</ele><time>2026-02-05T21:07:18.000Z</time></trkpt>
        <trkpt lat="29.069727" lon="105.062177"><ele>303.8619</ele><time>2026-02-05T21:07:32.000Z</time></trkpt>
        <trkpt lat="29.069761" lon="105.062184"><ele>307.46933</ele><time>2026-02-05T21:07:55.000Z</time></trkpt>
        <trkpt lat="29.069796" lon="105.062217"><ele>309.58682</ele><time>2026-02-05T21:08:32.000Z</time></trkpt>
        <trkpt lat="29.069751" lon="105.062199"><ele>310.302</ele><time>2026-02-05T21:08:37.000Z</time></trkpt>
        <trkpt lat="29.069716" lon="105.062224"><ele>312.63187</ele><time>2026-02-05T21:08:55.000Z</time></trkpt>
        <trkpt lat="29.069744" lon="105.062278"><ele>311.9177</ele><time>2026-02-05T21:09:13.000Z</time></trkpt>
        <trkpt lat="29.069789" lon="105.062285"><ele>312.8534</ele><time>2026-02-05T21:09:23.000Z</time></trkpt>
        <trkpt lat="29.06984" lon="105.062279"><ele>312.00198</ele><time>2026-02-05T21:09:41.000Z</time></trkpt>
        <trkpt lat="29.069875" lon="105.062312"><ele>311.5916</ele><time>2026-02-05T21:10:01.000Z</time></trkpt>
        <trkpt lat="29.069838" lon="105.062374"><ele>312.10773</ele><time>2026-02-05T21:10:18.000Z</time></trkpt>
        <trkpt lat="29.0698" lon="105.062418"><ele>312.24347</ele><time>2026-02-05T21:10:20.000Z</time></trkpt>
        <trkpt lat="29.069804" lon="105.062399"><ele>316.99838</ele><time>2026-02-05T21:10:24.000Z</time></trkpt>
        <trkpt lat="29.069833" lon="105.062356"><ele>317.73117</ele><time>2026-02-05T21:10:37.000Z</time></trkpt>
        <trkpt lat="29.069849" lon="105.062311"><ele>315.40402</ele><time>2026-02-05T21:11:07.000Z</time></trkpt>
        <trkpt lat="29.069835" lon="105.062249"><ele>316.07642</ele><time>2026-02-05T21:11:14.000Z</time></trkpt>
        <trkpt lat="29.069876" lon="105.062261"><ele>313.63458</ele><time>2026-02-05T21:11:36.000Z</time></trkpt>
        <trkpt lat="29.069923" lon="105.062249"><ele>313.8383</ele><time>2026-02-05T21:11:46.000Z</time></trkpt>
        <trkpt lat="29.069967" lon="105.062255"><ele>313.96802</ele><time>2026-02-05T21:11:53.000Z</time></trkpt>
        <trkpt lat="29.069904" lon="105.0623"><ele>312.02667</ele><time>2026-02-05T21:12:25.000Z</time></trkpt>
        <trkpt lat="29.069918" lon="105.062336"><ele>308.5604</ele><time>2026-02-05T21:13:06.000Z</time></trkpt>
        <trkpt lat="29.069906" lon="105.062292"><ele>304.6275</ele><time>2026-02-05T21:13:25.000Z</time></trkpt>
        <trkpt lat="29.069901" lon="105.062239"><ele>303.71106</ele><time>2026-02-05T21:13:36.000Z</time></trkpt>
        <trkpt lat="29.069928" lon="105.062176"><ele>301.81152</ele><time>2026-02-05T21:13:46.000Z</time></trkpt>
        <trkpt lat="29.069951" lon="105.062134"><ele>299.82648</ele><time>2026-02-05T21:13:53.000Z</time></trkpt>
        <trkpt lat="29.069908" lon="105.062092"><ele>298.64426</ele><time>2026-02-05T21:14:02.000Z</time></trkpt>
        <trkpt lat="29.069933" lon="105.062079"><ele>293.65436</ele><time>2026-02-05T21:14:42.000Z</time></trkpt>
        <trkpt lat="29.069957" lon="105.062041"><ele>290.4189</ele><time>2026-02-05T21:15:04.000Z</time></trkpt>
        <trkpt lat="29.069985" lon="105.062001"><ele>288.07147</ele><time>2026-02-05T21:15:26.000Z</time></trkpt>
        <trkpt lat="29.070002" lon="105.061954"><ele>287.03275</ele><time>2026-02-05T21:15:35.000Z</time></trkpt>
        <trkpt lat="29.070006" lon="105.061903"><ele>285.90115</ele><time>2026-02-05T21:15:51.000Z</time></trkpt>
        <trkpt lat="29.069994" lon="105.061857"><ele>283.10208</ele><time>2026-02-05T21:16:04.000Z</time></trkpt>
        <trkpt lat="29.070001" lon="105.0618"><ele>282.28183</ele><time>2026-02-05T21:16:18.000Z</time></trkpt>
        <trkpt lat="29.070026" lon="105.061772"><ele>278.62094</ele><time>2026-02-05T21:16:31.000Z</time></trkpt>
        <trkpt lat="29.070047" lon="105.061726"><ele>276.9537</ele><time>2026-02-05T21:16:44.000Z</time></trkpt>
        <trkpt lat="29.070052" lon="105.061673"><ele>276.24924</ele><time>2026-02-05T21:17:19.000Z</time></trkpt>
        <trkpt lat="29.070072" lon="105.061626"><ele>276.00327</ele><time>2026-02-05T21:17:26.000Z</time></trkpt>
        <trkpt lat="29.070046" lon="105.061585"><ele>275.1099</ele><time>2026-02-05T21:17:46.000Z</time></trkpt>
        <trkpt lat="29.070019" lon="105.061596"><ele>270.9307</ele><time>2026-02-05T21:18:09.000Z</time></trkpt>
        <trkpt lat="29.069974" lon="105.061603"><ele>271.98206</ele><time>2026-02-05T21:18:22.000Z</time></trkpt>
        <trkpt lat="29.069926" lon="105.061595"><ele>271.63156</ele><time>2026-02-05T21:18:32.000Z</time></trkpt>
        <trkpt lat="29.069969" lon="105.061578"><ele>274.90244</ele><time>2026-02-05T21:18:56.000Z</time></trkpt>
        <trkpt lat="29.070014" lon="105.061567"><ele>274.33282</ele><time>2026-02-05T21:19:02.000Z</time></trkpt>
        <trkpt lat="29.070004" lon="105.061514"><ele>273.7577</ele><time>2026-02-05T21:19:21.000Z</time></trkpt>
        <trkpt lat="29.070035" lon="105.061518"><ele>278.20215</ele><time>2026-02-05T21:20:01.000Z</time></trkpt>
        <trkpt lat="29.069991" lon="105.061503"><ele>277.65128</ele><time>2026-02-05T21:20:25.000Z</time></trkpt>
        <trkpt lat="29.06996" lon="105.061478"><ele>274.14368</ele><time>2026-02-05T21:20:38.000Z</time></trkpt>
        <trkpt lat="29.06996" lon="105.061426"><ele>272.2842</ele><time>2026-02-05T21:21:07.000Z</time></trkpt>
        <trkpt lat="29.069943" lon="105.061385"><ele>269.33884</ele><time>2026-02-05T21:22:18.000Z</time></trkpt>
        <trkpt lat="29.069965" lon="105.06136"><ele>265.42273</ele><time>2026-02-05T21:22:28.000Z</time></trkpt>
        <trkpt lat="29.069991" lon="105.061314"><ele>264.23767</ele><time>2026-02-05T21:22:34.000Z</time></trkpt>
        <trkpt lat="29.070032" lon="105.061336"><ele>263.07925</ele><time>2026-02-05T21:22:53.000Z</time></trkpt>
        <trkpt lat="29.070003" lon="105.061299"><ele>265.3509</ele><time>2026-02-05T21:23:08.000Z</time></trkpt>
        <trkpt lat="29.070017" lon="105.061252"><ele>263.5963</ele><time>2026-02-05T21:23:22.000Z</time></trkpt>
        <trkpt lat="29.070022" lon="105.061208"><ele>260.9957</ele><time>2026-02-05T21:23:36.000Z</time></trkpt>
        <trkpt lat="29.070033" lon="105.061157"><ele>261.82318</ele><time>2026-02-05T21:24:01.000Z</time></trkpt>
        <trkpt lat="29.069995" lon="105.061128"><ele>262.53198</ele><time>2026-02-05T21:24:37.000Z</time></trkpt>
        <trkpt lat="29.07" lon="105.061076"><ele>263.54175</ele><time>2026-02-05T21:24:48.000Z</time></trkpt>
        <trkpt lat="29.070035" lon="105.061042"><ele>265.2566</ele><time>2026-02-05T21:25:03.000Z</time></trkpt>
        <trkpt lat="29.070038" lon="105.061015"><ele>269.63257</ele><time>2026-02-05T21:25:13.000Z</time></trkpt>
        <trkpt lat="29.070014" lon="105.061031"><ele>262.36453</ele><time>2026-02-05T21:25:46.000Z</time></trkpt>
        <trkpt lat="29.070016" lon="105.061026"><ele>269.90485</ele><time>2026-02-05T21:25:50.000Z</time></trkpt>
        <trkpt lat="29.069999" lon="105.060981"><ele>272.00226</ele><time>2026-02-05T21:26:18.000Z</time></trkpt>
        <trkpt lat="29.070002" lon="105.060927"><ele>272.82684</ele><time>2026-02-05T21:26:33.000Z</time></trkpt>
        <trkpt lat="29.070015" lon="105.060875"><ele>272.32233</ele><time>2026-02-05T21:26:41.000Z</time></trkpt>
        <trkpt lat="29.070035" lon="105.060842"><ele>275.5349</ele><time>2026-02-05T21:27:08.000Z</time></trkpt>
        <trkpt lat="29.070062" lon="105.060818"><ele>271.6455</ele><time>2026-02-05T21:27:40.000Z</time></trkpt>
        <trkpt lat="29.070017" lon="105.060778"><ele>272.3746</ele><time>2026-02-05T21:27:52.000Z</time></trkpt>
        <trkpt lat="29.069983" lon="105.060738"><ele>273.71744</ele><time>2026-02-05T21:27:56.000Z</time></trkpt>
        <trkpt lat="29.069956" lon="105.060695"><ele>274.05054</ele><time>2026-02-05T21:28:00.000Z</time></trkpt>
        <trkpt lat="29.06992" lon="105.060661"><ele>274.10367</ele><time>2026-02-05T21:28:03.000Z</time></trkpt>
        <trkpt lat="29.069887" lon="105.060616"><ele>275.16397</ele><time>2026-02-05T21:28:07.000Z</time></trkpt>
        <trkpt lat="29.069855" lon="105.06058"><ele>274.30075</ele><time>2026-02-05T21:28:12.000Z</time></trkpt>
        <trkpt lat="29.06982" lon="105.060541"><ele>272.80902</ele><time>2026-02-05T21:28:19.000Z</time></trkpt>
        <trkpt lat="29.069794" lon="105.060497"><ele>272.37662</ele><time>2026-02-05T21:28:24.000Z</time></trkpt>
        <trkpt lat="29.069766" lon="105.060457"><ele>271.66016</ele><time>2026-02-05T21:28:28.000Z</time></trkpt>
        <trkpt lat="29.06975" lon="105.060408"><ele>271.34543</ele><time>2026-02-05T21:28:32.000Z</time></trkpt>
        <trkpt lat="29.069733" lon="105.060359"><ele>271.09918</ele><time>2026-02-05T21:28:41.000Z</time></trkpt>
        <trkpt lat="29.06972" lon="105.0603"><ele>270.18787</ele><time>2026-02-05T21:28:49.000Z</time></trkpt>
        <trkpt lat="29.069715" lon="105.060239"><ele>269.76675</ele><time>2026-02-05T21:28:52.000Z</time></trkpt>
        <trkpt lat="29.069715" lon="105.060176"><ele>268.7464</ele><time>2026-02-05T21:28:56.000Z</time></trkpt>
        <trkpt lat="29.06971" lon="105.060112"><ele>268.83618</ele><time>2026-02-05T21:29:00.000Z</time></trkpt>
        <trkpt lat="29.069691" lon="105.060065"><ele>268.84995</ele><time>2026-02-05T21:29:02.000Z</time></trkpt>
        <trkpt lat="29.069665" lon="105.060002"><ele>268.26157</ele><time>2026-02-05T21:29:05.000Z</time></trkpt>
        <trkpt lat="29.06963" lon="105.05996"><ele>267.69788</ele><time>2026-02-05T21:29:09.000Z</time></trkpt>
        <trkpt lat="29.069591" lon="105.059921"><ele>266.0065</ele><time>2026-02-05T21:29:14.000Z</time></trkpt>
        <trkpt lat="29.069568" lon="105.059875"><ele>264.56277</ele><time>2026-02-05T21:29:19.000Z</time></trkpt>
        <trkpt lat="29.069564" lon="105.059825"><ele>265.85986</ele><time>2026-02-05T21:29:41.000Z</time></trkpt>
        <trkpt lat="29.069539" lon="105.059782"><ele>266.15518</ele><time>2026-02-05T21:29:45.000Z</time></trkpt>
        <trkpt lat="29.069524" lon="105.059733"><ele>265.59045</ele><time>2026-02-05T21:29:50.000Z</time></trkpt>
        <trkpt lat="29.069517" lon="105.059676"><ele>264.96887</ele><time>2026-02-05T21:29:54.000Z</time></trkpt>
        <trkpt lat="29.069501" lon="105.059621"><ele>263.6326</ele><time>2026-02-05T21:29:58.000Z</time></trkpt>
        <trkpt lat="29.069478" lon="105.059561"><ele>263.49203</ele><time>2026-02-05T21:30:02.000Z</time></trkpt>
        <trkpt lat="29.069478" lon="105.059509"><ele>263.0349</ele><time>2026-02-05T21:30:05.000Z</time></trkpt>
        <trkpt lat="29.069479" lon="105.059447"><ele>262.64755</ele><time>2026-02-05T21:30:09.000Z</time></trkpt>
        <trkpt lat="29.06948" lon="105.059385"><ele>262.24637</ele><time>2026-02-05T21:30:13.000Z</time></trkpt>
        <trkpt lat="29.06947" lon="105.059328"><ele>261.72</ele><time>2026-02-05T21:30:17.000Z</time></trkpt>
        <trkpt lat="29.069455" lon="105.059279"><ele>260.1339</ele><time>2026-02-05T21:30:20.000Z</time></trkpt>
        <trkpt lat="29.06944" lon="105.059221"><ele>258.8043</ele><time>2026-02-05T21:30:24.000Z</time></trkpt>
        <trkpt lat="29.069416" lon="105.05917"><ele>260.13892</ele><time>2026-02-05T21:30:28.000Z</time></trkpt>
        <trkpt lat="29.069388" lon="105.059115"><ele>261.32715</ele><time>2026-02-05T21:30:32.000Z</time></trkpt>
        <trkpt lat="29.069367" lon="105.059057"><ele>262.73413</ele><time>2026-02-05T21:30:36.000Z</time></trkpt>
        <trkpt lat="29.06935" lon="105.058997"><ele>263.75037</ele><time>2026-02-05T21:30:40.000Z</time></trkpt>
        <trkpt lat="29.069332" lon="105.058943"><ele>263.82584</ele><time>2026-02-05T21:30:44.000Z</time></trkpt>
        <trkpt lat="29.06931" lon="105.058892"><ele>264.26788</ele><time>2026-02-05T21:30:48.000Z</time></trkpt>
        <trkpt lat="29.06929" lon="105.05884"><ele>264.3504</ele><time>2026-02-05T21:30:52.000Z</time></trkpt>
        <trkpt lat="29.069278" lon="105.058784"><ele>264.63486</ele><time>2026-02-05T21:30:57.000Z</time></trkpt>
        <trkpt lat="29.069269" lon="105.058731"><ele>264.9065</ele><time>2026-02-05T21:31:01.000Z</time></trkpt>
        <trkpt lat="29.069265" lon="105.058672"><ele>264.36597</ele><time>2026-02-05T21:31:05.000Z</time></trkpt>
        <trkpt lat="29.069262" lon="105.058615"><ele>264.34186</ele><time>2026-02-05T21:31:11.000Z</time></trkpt>
        <trkpt lat="29.069263" lon="105.058564"><ele>263.09732</ele><time>2026-02-05T21:31:15.000Z</time></trkpt>
        <trkpt lat="29.069261" lon="105.05851"><ele>262.9793</ele><time>2026-02-05T21:31:20.000Z</time></trkpt>
        <trkpt lat="29.069244" lon="105.05845"><ele>264.57947</ele><time>2026-02-05T21:31:25.000Z</time></trkpt>
        <trkpt lat="29.069225" lon="105.058395"><ele>265.4269</ele><time>2026-02-05T21:31:29.000Z</time></trkpt>
        <trkpt lat="29.06919" lon="105.058349"><ele>265.7381</ele><time>2026-02-05T21:31:33.000Z</time></trkpt>
        <trkpt lat="29.069147" lon="105.058324"><ele>265.31638</ele><time>2026-02-05T21:31:36.000Z</time></trkpt>
        <trkpt lat="29.069127" lon="105.058278"><ele>264.61087</ele><time>2026-02-05T21:31:41.000Z</time></trkpt>
        <trkpt lat="29.0691" lon="105.058233"><ele>264.00455</ele><time>2026-02-05T21:31:46.000Z</time></trkpt>
        <trkpt lat="29.069088" lon="105.058178"><ele>264.97675</ele><time>2026-02-05T21:31:50.000Z</time></trkpt>
        <trkpt lat="29.069085" lon="105.058111"><ele>263.372</ele><time>2026-02-05T21:32:32.000Z</time></trkpt>
        <trkpt lat="29.06907" lon="105.058045"><ele>261.91235</ele><time>2026-02-05T21:32:35.000Z</time></trkpt>
        <trkpt lat="29.069051" lon="105.057991"><ele>261.03943</ele><time>2026-02-05T21:32:39.000Z</time></trkpt>
        <trkpt lat="29.069035" lon="105.057926"><ele>260.56247</ele><time>2026-02-05T21:32:44.000Z</time></trkpt>
        <trkpt lat="29.069025" lon="105.057867"><ele>259.4956</ele><time>2026-02-05T21:32:48.000Z</time></trkpt>
        <trkpt lat="29.069001" lon="105.057811"><ele>257.7998</ele><time>2026-02-05T21:32:52.000Z</time></trkpt>
        <trkpt lat="29.068968" lon="105.057756"><ele>256.18582</ele><time>2026-02-05T21:32:56.000Z</time></trkpt>
        <trkpt lat="29.068945" lon="105.0577"><ele>255.18135</ele><time>2026-02-05T21:33:01.000Z</time></trkpt>
        <trkpt lat="29.068957" lon="105.05764"><ele>254.54251</ele><time>2026-02-05T21:33:05.000Z</time></trkpt>
        <trkpt lat="29.068955" lon="105.057587"><ele>253.59413</ele><time>2026-02-05T21:33:08.000Z</time></trkpt>
        <trkpt lat="29.068958" lon="105.057527"><ele>252.85733</ele><time>2026-02-05T21:33:12.000Z</time></trkpt>
        <trkpt lat="29.068952" lon="105.057462"><ele>252.37625</ele><time>2026-02-05T21:33:16.000Z</time></trkpt>
        <trkpt lat="29.068949" lon="105.05741"><ele>251.81491</ele><time>2026-02-05T21:33:20.000Z</time></trkpt>
        <trkpt lat="29.068937" lon="105.057349"><ele>250.62657</ele><time>2026-02-05T21:33:26.000Z</time></trkpt>
        <trkpt lat="29.068987" lon="105.057375"><ele>250.58728</ele><time>2026-02-05T21:33:50.000Z</time></trkpt>
        <trkpt lat="29.068987" lon="105.057375"><ele>250.58728</ele><time>2026-02-05T21:33:50.000Z</time></trkpt>
        <trkpt lat="29.069006" lon="105.057385"><ele>250.82347</ele><time>2026-02-05T21:33:52.000Z</time></trkpt>
        <trkpt lat="29.069034" lon="105.057376"><ele>252.06996</ele><time>2026-02-05T21:33:55.000Z</time></trkpt>
        <trkpt lat="29.069034" lon="105.057376"><ele>252.06996</ele><time>2026-02-05T21:33:55.000Z</time></trkpt>
        <trkpt lat="29.069038" lon="105.057365"><ele>252.69513</ele><time>2026-02-05T21:33:56.000Z</time></trkpt>
        <trkpt lat="29.069038" lon="105.057365"><ele>252.69513</ele><time>2026-02-05T21:33:56.000Z</time></trkpt>
        <trkpt lat="29.069027" lon="105.057317"><ele>255.22713</ele><time>2026-02-05T21:34:00.000Z</time></trkpt>
        <trkpt lat="29.069019" lon="105.057307"><ele>255.4752</ele><time>2026-02-05T21:34:01.000Z</time></trkpt>
        <trkpt lat="29.069019" lon="105.057307"><ele>255.4752</ele><time>2026-02-05T21:34:01.000Z</time></trkpt>
        <trkpt lat="29.06901" lon="105.057298"><ele>255.8435</ele><time>2026-02-05T21:34:02.000Z</time></trkpt>
        <trkpt lat="29.06901" lon="105.057298"><ele>255.8435</ele><time>2026-02-05T21:34:02.000Z</time></trkpt>
        <trkpt lat="29.068995" lon="105.057281"><ele>256.14212</ele><time>2026-02-05T21:34:04.000Z</time></trkpt>
        <trkpt lat="29.068995" lon="105.057281"><ele>256.14212</ele><time>2026-02-05T21:34:04.000Z</time></trkpt>
        <trkpt lat="29.068985" lon="105.057255"><ele>256.57736</ele><time>2026-02-05T21:34:07.000Z</time></trkpt>
        <trkpt lat="29.068985" lon="105.057255"><ele>256.57736</ele><time>2026-02-05T21:34:07.000Z</time></trkpt>
        <trkpt lat="29.068985" lon="105.057248"><ele>256.6772</ele><time>2026-02-05T21:34:08.000Z</time></trkpt>
        <trkpt lat="29.068978" lon="105.057197"><ele>256.4584</ele><time>2026-02-05T21:34:13.000Z</time></trkpt>
        <trkpt lat="29.068958" lon="105.05715"><ele>257.93137</ele><time>2026-02-05T21:34:18.000Z</time></trkpt>
        <trkpt lat="29.068945" lon="105.057101"><ele>258.8234</ele><time>2026-02-05T21:34:24.000Z</time></trkpt>
        <trkpt lat="29.068901" lon="105.057071"><ele>258.53738</ele><time>2026-02-05T21:34:29.000Z</time></trkpt>
        <trkpt lat="29.068858" lon="105.057052"><ele>258.19827</ele><time>2026-02-05T21:34:33.000Z</time></trkpt>
        <trkpt lat="29.068812" lon="105.057008"><ele>256.55402</ele><time>2026-02-05T21:35:09.000Z</time></trkpt>
        <trkpt lat="29.068797" lon="105.056959"><ele>254.58833</ele><time>2026-02-05T21:35:13.000Z</time></trkpt>
        <trkpt lat="29.068786" lon="105.056908"><ele>253.50546</ele><time>2026-02-05T21:35:16.000Z</time></trkpt>
        <trkpt lat="29.068763" lon="105.056865"><ele>251.53087</ele><time>2026-02-05T21:35:22.000Z</time></trkpt>
        <trkpt lat="29.068763" lon="105.056865"><ele>251.53087</ele><time>2026-02-05T21:35:22.000Z</time></trkpt>
        <trkpt lat="29.068758" lon="105.056863"><ele>251.27095</ele><time>2026-02-05T21:35:23.000Z</time></trkpt>
        <trkpt lat="29.068752" lon="105.056856"><ele>251.17226</ele><time>2026-02-05T21:35:24.000Z</time></trkpt>
        <trkpt lat="29.068717" lon="105.056839"><ele>250.37683</ele><time>2026-02-05T21:35:28.000Z</time></trkpt>
        <trkpt lat="29.068717" lon="105.056839"><ele>250.37683</ele><time>2026-02-05T21:35:28.000Z</time></trkpt>
        <trkpt lat="29.068711" lon="105.056833"><ele>250.17007</ele><time>2026-02-05T21:35:29.000Z</time></trkpt>
        <trkpt lat="29.068665" lon="105.056819"><ele>248.65387</ele><time>2026-02-05T21:36:01.000Z</time></trkpt>
        <trkpt lat="29.068665" lon="105.056819"><ele>248.65387</ele><time>2026-02-05T21:36:01.000Z</time></trkpt>
        <trkpt lat="29.068647" lon="105.05681"><ele>248.75174</ele><time>2026-02-05T21:36:02.000Z</time></trkpt>
        <trkpt lat="29.068627" lon="105.056802"><ele>248.91328</ele><time>2026-02-05T21:36:03.000Z</time></trkpt>
        <trkpt lat="29.068611" lon="105.056798"><ele>248.74005</ele><time>2026-02-05T21:36:04.000Z</time></trkpt>
        <trkpt lat="29.068611" lon="105.056798"><ele>248.74005</ele><time>2026-02-05T21:36:04.000Z</time></trkpt>
        <trkpt lat="29.068598" lon="105.056799"><ele>248.75847</ele><time>2026-02-05T21:36:05.000Z</time></trkpt>
        <trkpt lat="29.068588" lon="105.056801"><ele>248.87166</ele><time>2026-02-05T21:36:06.000Z</time></trkpt>
        <trkpt lat="29.068578" lon="105.056804"><ele>248.81056</ele><time>2026-02-05T21:36:07.000Z</time></trkpt>
        <trkpt lat="29.068559" lon="105.056832"><ele>248.82951</ele><time>2026-02-05T21:36:10.000Z</time></trkpt>
        <trkpt lat="29.068551" lon="105.056836"><ele>248.85637</ele><time>2026-02-05T21:36:11.000Z</time></trkpt>
        <trkpt lat="29.068539" lon="105.056842"><ele>249.03992</ele><time>2026-02-05T21:36:13.000Z</time></trkpt>
        <trkpt lat="29.068511" lon="105.056829"><ele>248.94269</ele><time>2026-02-05T21:36:17.000Z</time></trkpt>
        <trkpt lat="29.068506" lon="105.056823"><ele>248.71808</ele><time>2026-02-05T21:36:18.000Z</time></trkpt>
        <trkpt lat="29.068493" lon="105.056817"><ele>248.01772</ele><time>2026-02-05T21:36:20.000Z</time></trkpt>
        <trkpt lat="29.068468" lon="105.056819"><ele>246.8933</ele><time>2026-02-05T21:36:23.000Z</time></trkpt>
        <trkpt lat="29.068456" lon="105.056828"><ele>246.50499</ele><time>2026-02-05T21:36:24.000Z</time></trkpt>
        <trkpt lat="29.068444" lon="105.056834"><ele>246.31995</ele><time>2026-02-05T21:36:25.000Z</time></trkpt>
        <trkpt lat="29.068428" lon="105.056839"><ele>245.60413</ele><time>2026-02-05T21:36:26.000Z</time></trkpt>
        <trkpt lat="29.068415" lon="105.056847"><ele>245.22641</ele><time>2026-02-05T21:36:27.000Z</time></trkpt>
        <trkpt lat="29.068402" lon="105.056855"><ele>244.94092</ele><time>2026-02-05T21:36:28.000Z</time></trkpt>
        <trkpt lat="29.068382" lon="105.056869"><ele>244.3065</ele><time>2026-02-05T21:36:30.000Z</time></trkpt>
        <trkpt lat="29.068372" lon="105.056865"><ele>243.8587</ele><time>2026-02-05T21:36:31.000Z</time></trkpt>
        <trkpt lat="29.068361" lon="105.056838"><ele>242.47891</ele><time>2026-02-05T21:36:33.000Z</time></trkpt>
        <trkpt lat="29.068358" lon="105.05682"><ele>241.87212</ele><time>2026-02-05T21:36:34.000Z</time></trkpt>
        <trkpt lat="29.068358" lon="105.05682"><ele>241.87212</ele><time>2026-02-05T21:36:34.000Z</time></trkpt>
        <trkpt lat="29.06835" lon="105.05679"><ele>241.09706</ele><time>2026-02-05T21:36:36.000Z</time></trkpt>
        <trkpt lat="29.068333" lon="105.056779"><ele>239.5256</ele><time>2026-02-05T21:36:37.000Z</time></trkpt>
        <trkpt lat="29.068333" lon="105.056779"><ele>239.5256</ele><time>2026-02-05T21:36:37.000Z</time></trkpt>
        <trkpt lat="29.068329" lon="105.05675"><ele>238.96976</ele><time>2026-02-05T21:36:39.000Z</time></trkpt>
        <trkpt lat="29.06833" lon="105.05672"><ele>238.46266</ele><time>2026-02-05T21:36:41.000Z</time></trkpt>
        <trkpt lat="29.06833" lon="105.05672"><ele>238.46266</ele><time>2026-02-05T21:36:41.000Z</time></trkpt>
        <trkpt lat="29.068313" lon="105.0567"><ele>237.72836</ele><time>2026-02-05T21:36:42.000Z</time></trkpt>
        <trkpt lat="29.068307" lon="105.056669"><ele>237.09048</ele><time>2026-02-05T21:36:44.000Z</time></trkpt>
        <trkpt lat="29.068307" lon="105.056669"><ele>237.09048</ele><time>2026-02-05T21:36:44.000Z</time></trkpt>
        <trkpt lat="29.068306" lon="105.056639"><ele>236.82779</ele><time>2026-02-05T21:36:46.000Z</time></trkpt>
        <trkpt lat="29.068311" lon="105.056613"><ele>236.81308</ele><time>2026-02-05T21:36:48.000Z</time></trkpt>
        <trkpt lat="29.068311" lon="105.056613"><ele>236.81308</ele><time>2026-02-05T21:36:48.000Z</time></trkpt>
        <trkpt lat="29.068336" lon="105.056589"><ele>237.11653</ele><time>2026-02-05T21:36:51.000Z</time></trkpt>
        <trkpt lat="29.068353" lon="105.056574"><ele>237.10866</ele><time>2026-02-05T21:36:53.000Z</time></trkpt>
        <trkpt lat="29.068353" lon="105.056574"><ele>237.10866</ele><time>2026-02-05T21:36:53.000Z</time></trkpt>
        <trkpt lat="29.068385" lon="105.056538"><ele>237.69891</ele><time>2026-02-05T21:38:55.000Z</time></trkpt>
        <trkpt lat="29.06836" lon="105.056498"><ele>235.65686</ele><time>2026-02-05T21:40:02.000Z</time></trkpt>
        <trkpt lat="29.068402" lon="105.056469"><ele>234.31033</ele><time>2026-02-05T21:41:50.000Z</time></trkpt>
        <trkpt lat="29.068451" lon="105.056458"><ele>233.11635</ele><time>2026-02-05T21:42:10.000Z</time></trkpt>
        <trkpt lat="29.068499" lon="105.056422"><ele>234.3919</ele><time>2026-02-05T21:42:15.000Z</time></trkpt>
        <trkpt lat="29.068526" lon="105.056406"><ele>240.5949</ele><time>2026-02-05T21:42:18.000Z</time></trkpt>
        <trkpt lat="29.068513" lon="105.056453"><ele>242.05824</ele><time>2026-02-05T21:42:27.000Z</time></trkpt>
        <trkpt lat="29.068499" lon="105.056508"><ele>242.87619</ele><time>2026-02-05T21:42:43.000Z</time></trkpt>
        <trkpt lat="29.068464" lon="105.056541"><ele>242.69876</ele><time>2026-02-05T21:42:47.000Z</time></trkpt>
        <trkpt lat="29.068413" lon="105.056574"><ele>241.22878</ele><time>2026-02-05T21:42:55.000Z</time></trkpt>
        <trkpt lat="29.068367" lon="105.056599"><ele>239.01997</ele><time>2026-02-05T21:42:59.000Z</time></trkpt>
        <trkpt lat="29.068338" lon="105.056644"><ele>238.0317</ele><time>2026-02-05T21:43:02.000Z</time></trkpt>
        <trkpt lat="29.068328" lon="105.05666"><ele>238.45442</ele><time>2026-02-05T21:43:03.000Z</time></trkpt>
        <trkpt lat="29.068292" lon="105.056623"><ele>239.57668</ele><time>2026-02-05T21:43:08.000Z</time></trkpt>
        <trkpt lat="29.06831" lon="105.05655"><ele>238.64648</ele><time>2026-02-05T21:43:12.000Z</time></trkpt>
        <trkpt lat="29.068269" lon="105.056521"><ele>237.98187</ele><time>2026-02-05T21:43:23.000Z</time></trkpt>
        <trkpt lat="29.068269" lon="105.056521"><ele>237.98187</ele><time>2026-02-05T21:43:23.000Z</time></trkpt>
        <trkpt lat="29.068265" lon="105.056517"><ele>237.92148</ele><time>2026-02-05T21:43:24.000Z</time></trkpt>
        <trkpt lat="29.068264" lon="105.056512"><ele>237.74513</ele><time>2026-02-05T21:43:25.000Z</time></trkpt>
        <trkpt lat="29.068325" lon="105.056518"><ele>237.12845</ele><time>2026-02-05T21:43:33.000Z</time></trkpt>
        <trkpt lat="29.068325" lon="105.056518"><ele>237.12845</ele><time>2026-02-05T21:43:33.000Z</time></trkpt>
        <trkpt lat="29.068333" lon="105.056517"><ele>237.15935</ele><time>2026-02-05T21:43:34.000Z</time></trkpt>
        <trkpt lat="29.068352" lon="105.056447"><ele>236.41916</ele><time>2026-02-05T21:43:40.000Z</time></trkpt>
        <trkpt lat="29.068387" lon="105.056405"><ele>235.8087</ele><time>2026-02-05T21:43:44.000Z</time></trkpt>
        <trkpt lat="29.068408" lon="105.056357"><ele>235.27702</ele><time>2026-02-05T21:43:48.000Z</time></trkpt>
        <trkpt lat="29.068354" lon="105.056325"><ele>235.1627</ele><time>2026-02-05T21:43:58.000Z</time></trkpt>
        <trkpt lat="29.068317" lon="105.056309"><ele>232.38416</ele><time>2026-02-05T21:44:19.000Z</time></trkpt>
        <trkpt lat="29.068272" lon="105.056296"><ele>230.66422</ele><time>2026-02-05T21:44:26.000Z</time></trkpt>
        <trkpt lat="29.068254" lon="105.056246"><ele>229.08734</ele><time>2026-02-05T21:44:30.000Z</time></trkpt>
        <trkpt lat="29.068227" lon="105.056197"><ele>228.26591</ele><time>2026-02-05T21:44:34.000Z</time></trkpt>
        <trkpt lat="29.068183" lon="105.056175"><ele>227.33362</ele><time>2026-02-05T21:44:38.000Z</time></trkpt>
        <trkpt lat="29.068152" lon="105.056144"><ele>224.5712</ele><time>2026-02-05T21:44:45.000Z</time></trkpt>
        <trkpt lat="29.068114" lon="105.056147"><ele>219.8667</ele><time>2026-02-05T21:45:00.000Z</time></trkpt>
        <trkpt lat="29.068065" lon="105.05614"><ele>219.07549</ele><time>2026-02-05T21:45:03.000Z</time></trkpt>
        <trkpt lat="29.068008" lon="105.056118"><ele>217.70876</ele><time>2026-02-05T21:45:08.000Z</time></trkpt>
        <trkpt lat="29.068008" lon="105.056118"><ele>217.70876</ele><time>2026-02-05T21:45:08.000Z</time></trkpt>
        <trkpt lat="29.067997" lon="105.056121"><ele>217.68375</ele><time>2026-02-05T21:45:09.000Z</time></trkpt>
        <trkpt lat="29.067997" lon="105.056121"><ele>217.68375</ele><time>2026-02-05T21:45:09.000Z</time></trkpt>
        <trkpt lat="29.067991" lon="105.056124"><ele>217.67482</ele><time>2026-02-05T21:45:10.000Z</time></trkpt>
        <trkpt lat="29.067946" lon="105.056139"><ele>218.81291</ele><time>2026-02-05T21:45:17.000Z</time></trkpt>
        <trkpt lat="29.067901" lon="105.056142"><ele>220.56552</ele><time>2026-02-05T21:45:39.000Z</time></trkpt>
        <trkpt lat="29.067856" lon="105.056161"><ele>220.22351</ele><time>2026-02-05T21:46:05.000Z</time></trkpt>
        <trkpt lat="29.067823" lon="105.0562"><ele>221.63416</ele><time>2026-02-05T21:46:36.000Z</time></trkpt>
        <trkpt lat="29.067832" lon="105.056255"><ele>221.20831</ele><time>2026-02-05T21:47:12.000Z</time></trkpt>
        <trkpt lat="29.06781" lon="105.056302"><ele>219.69994</ele><time>2026-02-05T21:48:02.000Z</time></trkpt>
        <trkpt lat="29.067786" lon="105.056303"><ele>224.05914</ele><time>2026-02-05T21:48:24.000Z</time></trkpt>
        <trkpt lat="29.067772" lon="105.056261"><ele>227.15471</ele><time>2026-02-05T21:49:16.000Z</time></trkpt>
        <trkpt lat="29.067789" lon="105.056309"><ele>226.9846</ele><time>2026-02-05T21:49:33.000Z</time></trkpt>
        <trkpt lat="29.067809" lon="105.056276"><ele>230.27408</ele><time>2026-02-05T21:50:35.000Z</time></trkpt>
        <trkpt lat="29.067846" lon="105.056245"><ele>230.6406</ele><time>2026-02-05T21:51:18.000Z</time></trkpt>
        <trkpt lat="29.067806" lon="105.056236"><ele>232.75952</ele><time>2026-02-05T21:53:38.000Z</time></trkpt>
        <trkpt lat="29.067852" lon="105.056218"><ele>230.83786</ele><time>2026-02-05T21:54:39.000Z</time></trkpt>
        <trkpt lat="29.067903" lon="105.05621"><ele>231.06259</ele><time>2026-02-05T21:54:44.000Z</time></trkpt>
        <trkpt lat="29.067932" lon="105.05617"><ele>230.98578</ele><time>2026-02-05T21:55:16.000Z</time></trkpt>
        <trkpt lat="29.067975" lon="105.056148"><ele>230.2384</ele><time>2026-02-05T21:56:16.000Z</time></trkpt>
        <trkpt lat="29.06802" lon="105.056157"><ele>230.33951</ele><time>2026-02-05T21:56:21.000Z</time></trkpt>
        <trkpt lat="29.068069" lon="105.056148"><ele>229.82346</ele><time>2026-02-05T21:56:24.000Z</time></trkpt>
        <trkpt lat="29.068116" lon="105.056174"><ele>216.65479</ele><time>2026-02-05T21:56:30.000Z</time></trkpt>
        <trkpt lat="29.068133" lon="105.056224"><ele>214.80153</ele><time>2026-02-05T21:56:34.000Z</time></trkpt>
        <trkpt lat="29.068199" lon="105.056208"><ele>214.78246</ele><time>2026-02-05T21:56:36.000Z</time></trkpt>
        <trkpt lat="29.068247" lon="105.056198"><ele>216.60484</ele><time>2026-02-05T21:56:43.000Z</time></trkpt>
        <trkpt lat="29.068285" lon="105.056154"><ele>216.81317</ele><time>2026-02-05T21:56:47.000Z</time></trkpt>
        <trkpt lat="29.068329" lon="105.056142"><ele>217.80067</ele><time>2026-02-05T21:56:51.000Z</time></trkpt>
        <trkpt lat="29.068378" lon="105.056129"><ele>220.00034</ele><time>2026-02-05T21:56:58.000Z</time></trkpt>
        <trkpt lat="29.068421" lon="105.056115"><ele>222.759</ele><time>2026-02-05T21:57:02.000Z</time></trkpt>
        <trkpt lat="29.068456" lon="105.056153"><ele>225.09294</ele><time>2026-02-05T21:57:06.000Z</time></trkpt>
        <trkpt lat="29.068503" lon="105.056151"><ele>226.57512</ele><time>2026-02-05T21:57:13.000Z</time></trkpt>
        <trkpt lat="29.068544" lon="105.056119"><ele>227.60623</ele><time>2026-02-05T21:57:17.000Z</time></trkpt>
        <trkpt lat="29.068592" lon="105.056107"><ele>229.98172</ele><time>2026-02-05T21:57:22.000Z</time></trkpt>
        <trkpt lat="29.068622" lon="105.05607"><ele>231.09038</ele><time>2026-02-05T21:57:26.000Z</time></trkpt>
        <trkpt lat="29.068667" lon="105.056094"><ele>232.42671</ele><time>2026-02-05T21:57:32.000Z</time></trkpt>
        <trkpt lat="29.068674" lon="105.056149"><ele>232.88745</ele><time>2026-02-05T21:57:36.000Z</time></trkpt>
        <trkpt lat="29.068717" lon="105.056163"><ele>233.87247</ele><time>2026-02-05T21:57:41.000Z</time></trkpt>
        <trkpt lat="29.068761" lon="105.056152"><ele>235.93993</ele><time>2026-02-05T21:57:46.000Z</time></trkpt>
        <trkpt lat="29.068806" lon="105.056141"><ele>238.11436</ele><time>2026-02-05T21:57:51.000Z</time></trkpt>
        <trkpt lat="29.068851" lon="105.056153"><ele>238.59251</ele><time>2026-02-05T21:57:55.000Z</time></trkpt>
        <trkpt lat="29.068902" lon="105.056153"><ele>238.43047</ele><time>2026-02-05T21:57:59.000Z</time></trkpt>
        <trkpt lat="29.068942" lon="105.056134"><ele>236.98126</ele><time>2026-02-05T21:58:01.000Z</time></trkpt>
        <trkpt lat="29.068983" lon="105.056112"><ele>237.12158</ele><time>2026-02-05T21:58:04.000Z</time></trkpt>
        <trkpt lat="29.06902" lon="105.056068"><ele>237.39206</ele><time>2026-02-05T21:58:08.000Z</time></trkpt>
        <trkpt lat="29.069063" lon="105.056024"><ele>237.41138</ele><time>2026-02-05T21:58:12.000Z</time></trkpt>
        <trkpt lat="29.069106" lon="105.056009"><ele>236.96585</ele><time>2026-02-05T21:58:16.000Z</time></trkpt>
        <trkpt lat="29.069156" lon="105.056012"><ele>237.23672</ele><time>2026-02-05T21:58:21.000Z</time></trkpt>
        <trkpt lat="29.069211" lon="105.055995"><ele>236.08621</ele><time>2026-02-05T21:58:26.000Z</time></trkpt>
        <trkpt lat="29.069258" lon="105.056028"><ele>235.20464</ele><time>2026-02-05T21:58:29.000Z</time></trkpt>
        <trkpt lat="29.069292" lon="105.056064"><ele>235.47574</ele><time>2026-02-05T21:58:32.000Z</time></trkpt>
        <trkpt lat="29.069331" lon="105.056111"><ele>235.10486</ele><time>2026-02-05T21:58:36.000Z</time></trkpt>
        <trkpt lat="29.069364" lon="105.056155"><ele>234.28308</ele><time>2026-02-05T21:58:40.000Z</time></trkpt>
        <trkpt lat="29.069407" lon="105.05619"><ele>233.24178</ele><time>2026-02-05T21:58:44.000Z</time></trkpt>
        <trkpt lat="29.069446" lon="105.056222"><ele>233.05826</ele><time>2026-02-05T21:58:47.000Z</time></trkpt>
        <trkpt lat="29.06948" lon="105.056267"><ele>233.6531</ele><time>2026-02-05T21:58:50.000Z</time></trkpt>
        <trkpt lat="29.069518" lon="105.05631"><ele>234.49684</ele><time>2026-02-05T21:58:54.000Z</time></trkpt>
        <trkpt lat="29.069565" lon="105.056347"><ele>234.14131</ele><time>2026-02-05T21:58:59.000Z</time></trkpt>
        <trkpt lat="29.069612" lon="105.056372"><ele>234.15764</ele><time>2026-02-05T21:59:04.000Z</time></trkpt>
        <trkpt lat="29.069659" lon="105.056397"><ele>233.03392</ele><time>2026-02-05T21:59:09.000Z</time></trkpt>
        <trkpt lat="29.0697" lon="105.056438"><ele>233.67084</ele><time>2026-02-05T21:59:12.000Z</time></trkpt>
        <trkpt lat="29.06975" lon="105.056458"><ele>235.36359</ele><time>2026-02-05T21:59:15.000Z</time></trkpt>
        <trkpt lat="29.069795" lon="105.056478"><ele>236.3412</ele><time>2026-02-05T21:59:19.000Z</time></trkpt>
        <trkpt lat="29.069836" lon="105.056511"><ele>236.73645</ele><time>2026-02-05T21:59:24.000Z</time></trkpt>
        <trkpt lat="29.069872" lon="105.056536"><ele>234.79225</ele><time>2026-02-05T21:59:28.000Z</time></trkpt>
        <trkpt lat="29.069913" lon="105.056571"><ele>234.41724</ele><time>2026-02-05T21:59:32.000Z</time></trkpt>
        <trkpt lat="29.069955" lon="105.05661"><ele>234.09883</ele><time>2026-02-05T21:59:36.000Z</time></trkpt>
        <trkpt lat="29.069996" lon="105.056654"><ele>234.28325</ele><time>2026-02-05T21:59:40.000Z</time></trkpt>
        <trkpt lat="29.070038" lon="105.056686"><ele>234.28383</ele><time>2026-02-05T21:59:43.000Z</time></trkpt>
        <trkpt lat="29.070076" lon="105.056729"><ele>234.12749</ele><time>2026-02-05T21:59:48.000Z</time></trkpt>
        <trkpt lat="29.070098" lon="105.056778"><ele>233.71054</ele><time>2026-02-05T21:59:52.000Z</time></trkpt>
        <trkpt lat="29.070137" lon="105.056813"><ele>233.19997</ele><time>2026-02-05T21:59:57.000Z</time></trkpt>
        <trkpt lat="29.070169" lon="105.056863"><ele>233.30943</ele><time>2026-02-05T22:00:02.000Z</time></trkpt>
        <trkpt lat="29.070208" lon="105.056891"><ele>234.80054</ele><time>2026-02-05T22:00:06.000Z</time></trkpt>
        <trkpt lat="29.070251" lon="105.056912"><ele>235.3457</ele><time>2026-02-05T22:00:11.000Z</time></trkpt>
        <trkpt lat="29.070285" lon="105.056945"><ele>236.52245</ele><time>2026-02-05T22:00:14.000Z</time></trkpt>
        <trkpt lat="29.070323" lon="105.056987"><ele>237.52644</ele><time>2026-02-05T22:00:18.000Z</time></trkpt>
        <trkpt lat="29.070372" lon="105.057011"><ele>239.05708</ele><time>2026-02-05T22:00:24.000Z</time></trkpt>
        <trkpt lat="29.070408" lon="105.056994"><ele>241.9447</ele><time>2026-02-05T22:00:27.000Z</time></trkpt>
        <trkpt lat="29.070448" lon="105.056984"><ele>244.03276</ele><time>2026-02-05T22:00:31.000Z</time></trkpt>
        <trkpt lat="29.070502" lon="105.057003"><ele>245.04741</ele><time>2026-02-05T22:00:36.000Z</time></trkpt>
        <trkpt lat="29.070543" lon="105.057022"><ele>243.56706</ele><time>2026-02-05T22:00:40.000Z</time></trkpt>
        <trkpt lat="29.070589" lon="105.057039"><ele>243.5936</ele><time>2026-02-05T22:00:44.000Z</time></trkpt>
        <trkpt lat="29.070638" lon="105.057081"><ele>242.57509</ele><time>2026-02-05T22:00:48.000Z</time></trkpt>
        <trkpt lat="29.070676" lon="105.057108"><ele>240.06534</ele><time>2026-02-05T22:00:51.000Z</time></trkpt>
        <trkpt lat="29.07072" lon="105.057138"><ele>238.62103</ele><time>2026-02-05T22:00:55.000Z</time></trkpt>
        <trkpt lat="29.070762" lon="105.057164"><ele>236.65697</ele><time>2026-02-05T22:01:00.000Z</time></trkpt>
        <trkpt lat="29.070812" lon="105.057174"><ele>236.86337</ele><time>2026-02-05T22:01:05.000Z</time></trkpt>
        <trkpt lat="29.070858" lon="105.057194"><ele>237.43591</ele><time>2026-02-05T22:01:09.000Z</time></trkpt>
        <trkpt lat="29.070909" lon="105.057218"><ele>238.56026</ele><time>2026-02-05T22:01:13.000Z</time></trkpt>
        <trkpt lat="29.070914" lon="105.057278"><ele>239.92224</ele><time>2026-02-05T22:01:17.000Z</time></trkpt>
        <trkpt lat="29.070926" lon="105.057334"><ele>241.16806</ele><time>2026-02-05T22:01:21.000Z</time></trkpt>
        <trkpt lat="29.070962" lon="105.057366"><ele>240.80115</ele><time>2026-02-05T22:01:25.000Z</time></trkpt>
        <trkpt lat="29.070971" lon="105.057375"><ele>240.82751</ele><time>2026-02-05T22:01:26.000Z</time></trkpt>
        <trkpt lat="29.070983" lon="105.057386"><ele>240.74557</ele><time>2026-02-05T22:01:27.000Z</time></trkpt>
        <trkpt lat="29.071005" lon="105.057403"><ele>240.79839</ele><time>2026-02-05T22:01:29.000Z</time></trkpt>
        <trkpt lat="29.071017" lon="105.05741"><ele>241.01753</ele><time>2026-02-05T22:01:30.000Z</time></trkpt>
        <trkpt lat="29.07103" lon="105.057415"><ele>240.86983</ele><time>2026-02-05T22:01:31.000Z</time></trkpt>
        <trkpt lat="29.071056" lon="105.057418"><ele>241.04662</ele><time>2026-02-05T22:01:33.000Z</time></trkpt>
        <trkpt lat="29.071068" lon="105.057417"><ele>241.21785</ele><time>2026-02-05T22:01:34.000Z</time></trkpt>
        <trkpt lat="29.071079" lon="105.057417"><ele>241.33093</ele><time>2026-02-05T22:01:35.000Z</time></trkpt>
        <trkpt lat="29.071102" lon="105.057426"><ele>240.97227</ele><time>2026-02-05T22:01:37.000Z</time></trkpt>
        <trkpt lat="29.07112" lon="105.057442"><ele>240.34831</ele><time>2026-02-05T22:01:39.000Z</time></trkpt>
        <trkpt lat="29.071139" lon="105.057464"><ele>239.8614</ele><time>2026-02-05T22:01:41.000Z</time></trkpt>
        <trkpt lat="29.071161" lon="105.057476"><ele>239.45753</ele><time>2026-02-05T22:01:43.000Z</time></trkpt>
        <trkpt lat="29.071186" lon="105.057489"><ele>239.23038</ele><time>2026-02-05T22:01:46.000Z</time></trkpt>
        <trkpt lat="29.071201" lon="105.057503"><ele>238.77557</ele><time>2026-02-05T22:01:48.000Z</time></trkpt>
        <trkpt lat="29.071222" lon="105.057523"><ele>237.7775</ele><time>2026-02-05T22:01:51.000Z</time></trkpt>
        <trkpt lat="29.071243" lon="105.057538"><ele>237.09448</ele><time>2026-02-05T22:01:53.000Z</time></trkpt>
        <trkpt lat="29.071266" lon="105.057553"><ele>236.81624</ele><time>2026-02-05T22:01:55.000Z</time></trkpt>
        <trkpt lat="29.071287" lon="105.057566"><ele>236.32248</ele><time>2026-02-05T22:01:57.000Z</time></trkpt>
        <trkpt lat="29.071302" lon="105.057584"><ele>235.83197</ele><time>2026-02-05T22:01:59.000Z</time></trkpt>
        <trkpt lat="29.071322" lon="105.057599"><ele>235.62714</ele><time>2026-02-05T22:02:01.000Z</time></trkpt>
        <trkpt lat="29.071339" lon="105.057615"><ele>235.71593</ele><time>2026-02-05T22:02:03.000Z</time></trkpt>
        <trkpt lat="29.07136" lon="105.057632"><ele>235.57443</ele><time>2026-02-05T22:02:05.000Z</time></trkpt>
        <trkpt lat="29.071374" lon="105.057648"><ele>236.11394</ele><time>2026-02-05T22:02:07.000Z</time></trkpt>
        <trkpt lat="29.071395" lon="105.057669"><ele>237.16151</ele><time>2026-02-05T22:02:10.000Z</time></trkpt>
        <trkpt lat="29.071413" lon="105.057677"><ele>237.81906</ele><time>2026-02-05T22:02:12.000Z</time></trkpt>
        <trkpt lat="29.071436" lon="105.057684"><ele>238.58295</ele><time>2026-02-05T22:02:15.000Z</time></trkpt>
        <trkpt lat="29.071455" lon="105.057697"><ele>239.16997</ele><time>2026-02-05T22:02:17.000Z</time></trkpt>
        <trkpt lat="29.071481" lon="105.05771"><ele>239.6931</ele><time>2026-02-05T22:02:19.000Z</time></trkpt>
        <trkpt lat="29.071505" lon="105.057723"><ele>239.82198</ele><time>2026-02-05T22:02:21.000Z</time></trkpt>
        <trkpt lat="29.071528" lon="105.057735"><ele>239.42102</ele><time>2026-02-05T22:02:23.000Z</time></trkpt>
        <trkpt lat="29.071545" lon="105.057749"><ele>238.97586</ele><time>2026-02-05T22:02:25.000Z</time></trkpt>
        <trkpt lat="29.071572" lon="105.057773"><ele>238.01953</ele><time>2026-02-05T22:02:28.000Z</time></trkpt>
        <trkpt lat="29.07158" lon="105.057782"><ele>237.68355</ele><time>2026-02-05T22:02:29.000Z</time></trkpt>
        <trkpt lat="29.07161" lon="105.0578"><ele>236.86217</ele><time>2026-02-05T22:02:32.000Z</time></trkpt>
        <trkpt lat="29.07162" lon="105.057807"><ele>236.55627</ele><time>2026-02-05T22:02:33.000Z</time></trkpt>
        <trkpt lat="29.071656" lon="105.057826"><ele>235.37463</ele><time>2026-02-05T22:02:36.000Z</time></trkpt>
        <trkpt lat="29.071666" lon="105.057833"><ele>235.17131</ele><time>2026-02-05T22:02:37.000Z</time></trkpt>
        <trkpt lat="29.071696" lon="105.057849"><ele>235.24443</ele><time>2026-02-05T22:02:40.000Z</time></trkpt>
        <trkpt lat="29.071705" lon="105.057857"><ele>235.27873</ele><time>2026-02-05T22:02:41.000Z</time></trkpt>
        <trkpt lat="29.071732" lon="105.057881"><ele>235.70096</ele><time>2026-02-05T22:02:44.000Z</time></trkpt>
        <trkpt lat="29.071741" lon="105.057892"><ele>236.04051</ele><time>2026-02-05T22:02:45.000Z</time></trkpt>
        <trkpt lat="29.07177" lon="105.057923"><ele>237.18698</ele><time>2026-02-05T22:02:48.000Z</time></trkpt>
        <trkpt lat="29.071779" lon="105.057935"><ele>237.40094</ele><time>2026-02-05T22:02:49.000Z</time></trkpt>
        <trkpt lat="29.071812" lon="105.057965"><ele>237.5392</ele><time>2026-02-05T22:02:52.000Z</time></trkpt>
        <trkpt lat="29.07182" lon="105.057973"><ele>237.54065</ele><time>2026-02-05T22:02:53.000Z</time></trkpt>
        <trkpt lat="29.071847" lon="105.057999"><ele>237.47919</ele><time>2026-02-05T22:02:56.000Z</time></trkpt>
        <trkpt lat="29.071853" lon="105.058009"><ele>237.6388</ele><time>2026-02-05T22:02:57.000Z</time></trkpt>
        <trkpt lat="29.071878" lon="105.058038"><ele>238.00575</ele><time>2026-02-05T22:03:00.000Z</time></trkpt>
        <trkpt lat="29.071887" lon="105.058046"><ele>238.23506</ele><time>2026-02-05T22:03:01.000Z</time></trkpt>
        <trkpt lat="29.071916" lon="105.058068"><ele>239.13239</ele><time>2026-02-05T22:03:04.000Z</time></trkpt>
        <trkpt lat="29.071926" lon="105.058074"><ele>239.52501</ele><time>2026-02-05T22:03:05.000Z</time></trkpt>
        <trkpt lat="29.071955" lon="105.058097"><ele>240.83998</ele><time>2026-02-05T22:03:08.000Z</time></trkpt>
        <trkpt lat="29.071965" lon="105.058107"><ele>241.23633</ele><time>2026-02-05T22:03:09.000Z</time></trkpt>
        <trkpt lat="29.071992" lon="105.058129"><ele>242.26285</ele><time>2026-02-05T22:03:12.000Z</time></trkpt>
        <trkpt lat="29.072" lon="105.058137"><ele>242.88947</ele><time>2026-02-05T22:03:13.000Z</time></trkpt>
        <trkpt lat="29.072033" lon="105.058158"><ele>244.4484</ele><time>2026-02-05T22:03:16.000Z</time></trkpt>
        <trkpt lat="29.072047" lon="105.058164"><ele>244.54001</ele><time>2026-02-05T22:03:17.000Z</time></trkpt>
        <trkpt lat="29.07208" lon="105.058175"><ele>244.483</ele><time>2026-02-05T22:03:20.000Z</time></trkpt>
        <trkpt lat="29.072091" lon="105.058175"><ele>244.45335</ele><time>2026-02-05T22:03:21.000Z</time></trkpt>
        <trkpt lat="29.072127" lon="105.058176"><ele>244.22568</ele><time>2026-02-05T22:03:24.000Z</time></trkpt>
        <trkpt lat="29.072138" lon="105.058183"><ele>243.83696</ele><time>2026-02-05T22:03:25.000Z</time></trkpt>
        <trkpt lat="29.072175" lon="105.058198"><ele>242.17465</ele><time>2026-02-05T22:03:28.000Z</time></trkpt>
        <trkpt lat="29.072183" lon="105.058202"><ele>241.85025</ele><time>2026-02-05T22:03:29.000Z</time></trkpt>
        <trkpt lat="29.072212" lon="105.058239"><ele>240.07773</ele><time>2026-02-05T22:03:33.000Z</time></trkpt>
        <trkpt lat="29.072248" lon="105.058269"><ele>239.21022</ele><time>2026-02-05T22:03:37.000Z</time></trkpt>
        <trkpt lat="29.072296" lon="105.058296"><ele>239.36072</ele><time>2026-02-05T22:03:41.000Z</time></trkpt>
        <trkpt lat="29.072345" lon="105.058313"><ele>239.55234</ele><time>2026-02-05T22:03:45.000Z</time></trkpt>
        <trkpt lat="29.072407" lon="105.058349"><ele>241.2646</ele><time>2026-02-05T22:04:01.000Z</time></trkpt>
        <trkpt lat="29.072442" lon="105.058388"><ele>241.28937</ele><time>2026-02-05T22:04:05.000Z</time></trkpt>
        <trkpt lat="29.072443" lon="105.058397"><ele>241.51405</ele><time>2026-02-05T22:04:06.000Z</time></trkpt>
        <trkpt lat="29.072443" lon="105.058407"><ele>241.50418</ele><time>2026-02-05T22:04:07.000Z</time></trkpt>
        <trkpt lat="29.072454" lon="105.058438"><ele>241.06425</ele><time>2026-02-05T22:04:10.000Z</time></trkpt>
        <trkpt lat="29.072463" lon="105.058451"><ele>240.86281</ele><time>2026-02-05T22:04:12.000Z</time></trkpt>
        <trkpt lat="29.072466" lon="105.058456"><ele>240.81128</ele><time>2026-02-05T22:04:13.000Z</time></trkpt>
        <trkpt lat="29.072477" lon="105.058494"><ele>241.46428</ele><time>2026-02-05T22:04:17.000Z</time></trkpt>
        <trkpt lat="29.07248" lon="105.058504"><ele>241.24757</ele><time>2026-02-05T22:04:18.000Z</time></trkpt>
        <trkpt lat="29.072482" lon="105.058514"><ele>240.98335</ele><time>2026-02-05T22:04:19.000Z</time></trkpt>
        <trkpt lat="29.072486" lon="105.058542"><ele>239.95407</ele><time>2026-02-05T22:04:22.000Z</time></trkpt>
        <trkpt lat="29.072488" lon="105.058556"><ele>239.82924</ele><time>2026-02-05T22:04:23.000Z</time></trkpt>
        <trkpt lat="29.07249" lon="105.058569"><ele>239.97061</ele><time>2026-02-05T22:04:24.000Z</time></trkpt>
        <trkpt lat="29.072493" lon="105.058593"><ele>240.08505</ele><time>2026-02-05T22:04:26.000Z</time></trkpt>
        <trkpt lat="29.072498" lon="105.058615"><ele>240.0684</ele><time>2026-02-05T22:04:28.000Z</time></trkpt>
        <trkpt lat="29.072499" lon="105.058627"><ele>240.08693</ele><time>2026-02-05T22:04:29.000Z</time></trkpt>
        <trkpt lat="29.07251" lon="105.058658"><ele>240.76122</ele><time>2026-02-05T22:04:31.000Z</time></trkpt>
        <trkpt lat="29.072518" lon="105.058669"><ele>240.7902</ele><time>2026-02-05T22:04:32.000Z</time></trkpt>
        <trkpt lat="29.072527" lon="105.058682"><ele>240.86922</ele><time>2026-02-05T22:04:33.000Z</time></trkpt>
        <trkpt lat="29.072547" lon="105.058694"><ele>241.32709</ele><time>2026-02-05T22:04:36.000Z</time></trkpt>
        <trkpt lat="29.072548" lon="105.058711"><ele>242.13997</ele><time>2026-02-05T22:04:54.000Z</time></trkpt>
        <trkpt lat="29.072589" lon="105.058752"><ele>242.61151</ele><time>2026-02-05T22:04:59.000Z</time></trkpt>
        <trkpt lat="29.072641" lon="105.05877"><ele>242.5853</ele><time>2026-02-05T22:05:04.000Z</time></trkpt>
        <trkpt lat="29.072651" lon="105.058773"><ele>242.4194</ele><time>2026-02-05T22:05:05.000Z</time></trkpt>
        <trkpt lat="29.072651" lon="105.058773"><ele>242.4194</ele><time>2026-02-05T22:05:05.000Z</time></trkpt>
        <trkpt lat="29.072661" lon="105.058777"><ele>242.3102</ele><time>2026-02-05T22:05:06.000Z</time></trkpt>
        <trkpt lat="29.072661" lon="105.058777"><ele>242.3102</ele><time>2026-02-05T22:05:06.000Z</time></trkpt>
        <trkpt lat="29.072669" lon="105.058783"><ele>242.02267</ele><time>2026-02-05T22:05:07.000Z</time></trkpt>
        <trkpt lat="29.072679" lon="105.058789"><ele>241.75548</ele><time>2026-02-05T22:05:08.000Z</time></trkpt>
        <trkpt lat="29.072679" lon="105.058789"><ele>241.75548</ele><time>2026-02-05T22:05:08.000Z</time></trkpt>
        <trkpt lat="29.072711" lon="105.058805"><ele>240.72322</ele><time>2026-02-05T22:05:11.000Z</time></trkpt>
        <trkpt lat="29.072711" lon="105.058805"><ele>240.72322</ele><time>2026-02-05T22:05:11.000Z</time></trkpt>
        <trkpt lat="29.072724" lon="105.058812"><ele>240.5057</ele><time>2026-02-05T22:05:12.000Z</time></trkpt>
        <trkpt lat="29.072737" lon="105.058819"><ele>240.16518</ele><time>2026-02-05T22:05:13.000Z</time></trkpt>
        <trkpt lat="29.072737" lon="105.058819"><ele>240.16518</ele><time>2026-02-05T22:05:13.000Z</time></trkpt>
        <trkpt lat="29.072762" lon="105.058829"><ele>239.1812</ele><time>2026-02-05T22:05:15.000Z</time></trkpt>
        <trkpt lat="29.072762" lon="105.058829"><ele>239.1812</ele><time>2026-02-05T22:05:15.000Z</time></trkpt>
        <trkpt lat="29.072776" lon="105.058834"><ele>239.03238</ele><time>2026-02-05T22:05:16.000Z</time></trkpt>
        <trkpt lat="29.07279" lon="105.058839"><ele>239.01425</ele><time>2026-02-05T22:05:17.000Z</time></trkpt>
        <trkpt lat="29.07279" lon="105.058839"><ele>239.01425</ele><time>2026-02-05T22:05:17.000Z</time></trkpt>
        <trkpt lat="29.072813" lon="105.05885"><ele>238.75787</ele><time>2026-02-05T22:05:19.000Z</time></trkpt>
        <trkpt lat="29.072813" lon="105.05885"><ele>238.75787</ele><time>2026-02-05T22:05:19.000Z</time></trkpt>
        <trkpt lat="29.072825" lon="105.058856"><ele>238.61621</ele><time>2026-02-05T22:05:20.000Z</time></trkpt>
        <trkpt lat="29.072837" lon="105.058866"><ele>238.65027</ele><time>2026-02-05T22:05:21.000Z</time></trkpt>
        <trkpt lat="29.072837" lon="105.058866"><ele>238.65027</ele><time>2026-02-05T22:05:21.000Z</time></trkpt>
        <trkpt lat="29.07286" lon="105.058882"><ele>238.75513</ele><time>2026-02-05T22:05:23.000Z</time></trkpt>
        <trkpt lat="29.07286" lon="105.058882"><ele>238.75513</ele><time>2026-02-05T22:05:23.000Z</time></trkpt>
        <trkpt lat="29.072896" lon="105.058918"><ele>239.15413</ele><time>2026-02-05T22:05:28.000Z</time></trkpt>
        <trkpt lat="29.072863" lon="105.058904"><ele>246.8545</ele><time>2026-02-05T22:06:01.000Z</time></trkpt>
        <trkpt lat="29.072909" lon="105.058898"><ele>247.45174</ele><time>2026-02-05T22:07:07.000Z</time></trkpt>
        <trkpt lat="29.072955" lon="105.058909"><ele>244.60655</ele><time>2026-02-05T22:07:10.000Z</time></trkpt>
        <trkpt lat="29.073011" lon="105.058935"><ele>244.44014</ele><time>2026-02-05T22:07:13.000Z</time></trkpt>
        <trkpt lat="29.073026" lon="105.058938"><ele>244.17888</ele><time>2026-02-05T22:07:14.000Z</time></trkpt>
        <trkpt lat="29.073026" lon="105.058938"><ele>244.17888</ele><time>2026-02-05T22:07:14.000Z</time></trkpt>
        <trkpt lat="29.07304" lon="105.058938"><ele>243.90631</ele><time>2026-02-05T22:07:15.000Z</time></trkpt>
        <trkpt lat="29.07304" lon="105.058938"><ele>243.90631</ele><time>2026-02-05T22:07:15.000Z</time></trkpt>
        <trkpt lat="29.073105" lon="105.058945"><ele>242.01756</ele><time>2026-02-05T22:07:20.000Z</time></trkpt>
        <trkpt lat="29.07314" lon="105.058959"><ele>238.91362</ele><time>2026-02-05T22:07:36.000Z</time></trkpt>
        <trkpt lat="29.073181" lon="105.058971"><ele>236.5382</ele><time>2026-02-05T22:07:41.000Z</time></trkpt>
        <trkpt lat="29.073229" lon="105.058979"><ele>235.05583</ele><time>2026-02-05T22:07:46.000Z</time></trkpt>
        <trkpt lat="29.073279" lon="105.059015"><ele>234.81352</ele><time>2026-02-05T22:07:50.000Z</time></trkpt>
        <trkpt lat="29.073327" lon="105.059028"><ele>234.81648</ele><time>2026-02-05T22:07:54.000Z</time></trkpt>
        <trkpt lat="29.073376" lon="105.059039"><ele>234.57732</ele><time>2026-02-05T22:07:58.000Z</time></trkpt>
        <trkpt lat="29.073426" lon="105.059056"><ele>234.46843</ele><time>2026-02-05T22:08:02.000Z</time></trkpt>
        <trkpt lat="29.073473" lon="105.059085"><ele>235.0796</ele><time>2026-02-05T22:08:06.000Z</time></trkpt>
        <trkpt lat="29.073517" lon="105.059117"><ele>235.4749</ele><time>2026-02-05T22:08:10.000Z</time></trkpt>
        <trkpt lat="29.073555" lon="105.059161"><ele>236.12871</ele><time>2026-02-05T22:08:14.000Z</time></trkpt>
        <trkpt lat="29.073598" lon="105.059193"><ele>236.33699</ele><time>2026-02-05T22:08:18.000Z</time></trkpt>
        <trkpt lat="29.073628" lon="105.059233"><ele>236.61789</ele><time>2026-02-05T22:08:22.000Z</time></trkpt>
        <trkpt lat="29.073661" lon="105.059274"><ele>236.56546</ele><time>2026-02-05T22:08:26.000Z</time></trkpt>
        <trkpt lat="29.07369" lon="105.059329"><ele>236.36005</ele><time>2026-02-05T22:08:30.000Z</time></trkpt>
        <trkpt lat="29.073709" lon="105.059382"><ele>235.52304</ele><time>2026-02-05T22:08:34.000Z</time></trkpt>
        <trkpt lat="29.073726" lon="105.059442"><ele>234.5616</ele><time>2026-02-05T22:08:38.000Z</time></trkpt>
        <trkpt lat="29.073738" lon="105.059499"><ele>234.45297</ele><time>2026-02-05T22:08:42.000Z</time></trkpt>
        <trkpt lat="29.073733" lon="105.05956"><ele>234.41415</ele><time>2026-02-05T22:08:46.000Z</time></trkpt>
        <trkpt lat="29.073725" lon="105.059622"><ele>233.45818</ele><time>2026-02-05T22:08:50.000Z</time></trkpt>
        <trkpt lat="29.073709" lon="105.059678"><ele>233.10957</ele><time>2026-02-05T22:08:54.000Z</time></trkpt>
        <trkpt lat="29.073699" lon="105.059729"><ele>232.2926</ele><time>2026-02-05T22:08:58.000Z</time></trkpt>
        <trkpt lat="29.073695" lon="105.059786"><ele>232.0119</ele><time>2026-02-05T22:09:02.000Z</time></trkpt>
        <trkpt lat="29.0737" lon="105.059845"><ele>231.75844</ele><time>2026-02-05T22:09:06.000Z</time></trkpt>
        <trkpt lat="29.073689" lon="105.059905"><ele>231.64578</ele><time>2026-02-05T22:09:10.000Z</time></trkpt>
        <trkpt lat="29.073684" lon="105.059958"><ele>230.96161</ele><time>2026-02-05T22:09:13.000Z</time></trkpt>
        <trkpt lat="29.073693" lon="105.060018"><ele>229.83646</ele><time>2026-02-05T22:09:17.000Z</time></trkpt>
        <trkpt lat="29.073704" lon="105.060069"><ele>229.28287</ele><time>2026-02-05T22:09:21.000Z</time></trkpt>
        <trkpt lat="29.073707" lon="105.060128"><ele>228.60846</ele><time>2026-02-05T22:09:25.000Z</time></trkpt>
        <trkpt lat="29.073712" lon="105.060184"><ele>227.96132</ele><time>2026-02-05T22:09:28.000Z</time></trkpt>
        <trkpt lat="29.073718" lon="105.060235"><ele>227.0004</ele><time>2026-02-05T22:09:31.000Z</time></trkpt>
        <trkpt lat="29.073728" lon="105.060297"><ele>226.25096</ele><time>2026-02-05T22:09:34.000Z</time></trkpt>
        <trkpt lat="29.073741" lon="105.060351"><ele>226.92552</ele><time>2026-02-05T22:09:37.000Z</time></trkpt>
        <trkpt lat="29.073757" lon="105.060401"><ele>228.26054</ele><time>2026-02-05T22:09:40.000Z</time></trkpt>
        <trkpt lat="29.073784" lon="105.060457"><ele>230.00076</ele><time>2026-02-05T22:09:44.000Z</time></trkpt>
        <trkpt lat="29.073811" lon="105.060501"><ele>232.88847</ele><time>2026-02-05T22:09:48.000Z</time></trkpt>
        <trkpt lat="29.07384" lon="105.060553"><ele>234.49098</ele><time>2026-02-05T22:09:52.000Z</time></trkpt>
        <trkpt lat="29.073863" lon="105.060608"><ele>235.57368</ele><time>2026-02-05T22:09:56.000Z</time></trkpt>
        <trkpt lat="29.073886" lon="105.060661"><ele>236.02206</ele><time>2026-02-05T22:10:00.000Z</time></trkpt>
        <trkpt lat="29.073884" lon="105.060727"><ele>235.9624</ele><time>2026-02-05T22:10:04.000Z</time></trkpt>
        <trkpt lat="29.073889" lon="105.060793"><ele>235.04106</ele><time>2026-02-05T22:10:08.000Z</time></trkpt>
        <trkpt lat="29.073888" lon="105.060849"><ele>233.55516</ele><time>2026-02-05T22:10:12.000Z</time></trkpt>
        <trkpt lat="29.073875" lon="105.060901"><ele>232.28682</ele><time>2026-02-05T22:10:16.000Z</time></trkpt>
        <trkpt lat="29.07387" lon="105.060957"><ele>231.32985</ele><time>2026-02-05T22:10:20.000Z</time></trkpt>
        <trkpt lat="29.073871" lon="105.061012"><ele>230.86383</ele><time>2026-02-05T22:10:23.000Z</time></trkpt>
        <trkpt lat="29.073879" lon="105.06107"><ele>230.95883</ele><time>2026-02-05T22:10:27.000Z</time></trkpt>
        <trkpt lat="29.073898" lon="105.061132"><ele>231.7383</ele><time>2026-02-05T22:10:31.000Z</time></trkpt>
        <trkpt lat="29.073906" lon="105.061198"><ele>232.30305</ele><time>2026-02-05T22:10:35.000Z</time></trkpt>
        <trkpt lat="29.073916" lon="105.06126"><ele>230.92905</ele><time>2026-02-05T22:10:39.000Z</time></trkpt>
        <trkpt lat="29.073919" lon="105.061312"><ele>230.28752</ele><time>2026-02-05T22:10:43.000Z</time></trkpt>
        <trkpt lat="29.073938" lon="105.061369"><ele>229.53458</ele><time>2026-02-05T22:10:47.000Z</time></trkpt>
        <trkpt lat="29.073955" lon="105.061433"><ele>229.10747</ele><time>2026-02-05T22:10:51.000Z</time></trkpt>
        <trkpt lat="29.073978" lon="105.061495"><ele>229.11446</ele><time>2026-02-05T22:10:55.000Z</time></trkpt>
        <trkpt lat="29.073972" lon="105.061562"><ele>228.72832</ele><time>2026-02-05T22:10:59.000Z</time></trkpt>
        <trkpt lat="29.073932" lon="105.061597"><ele>229.55025</ele><time>2026-02-05T22:11:03.000Z</time></trkpt>
        <trkpt lat="29.073932" lon="105.061597"><ele>229.55025</ele><time>2026-02-05T22:11:03.000Z</time></trkpt>
        <trkpt lat="29.07392" lon="105.061604"><ele>229.59323</ele><time>2026-02-05T22:11:04.000Z</time></trkpt>
        <trkpt lat="29.073908" lon="105.061611"><ele>229.63925</ele><time>2026-02-05T22:11:05.000Z</time></trkpt>
        <trkpt lat="29.073908" lon="105.061611"><ele>229.63925</ele><time>2026-02-05T22:11:05.000Z</time></trkpt>
        <trkpt lat="29.073896" lon="105.061617"><ele>229.59006</ele><time>2026-02-05T22:11:06.000Z</time></trkpt>
        <trkpt lat="29.073896" lon="105.061617"><ele>229.59006</ele><time>2026-02-05T22:11:06.000Z</time></trkpt>
        <trkpt lat="29.073885" lon="105.061614"><ele>229.83902</ele><time>2026-02-05T22:11:07.000Z</time></trkpt>
        <trkpt lat="29.073875" lon="105.061609"><ele>230.05707</ele><time>2026-02-05T22:11:08.000Z</time></trkpt>
        <trkpt lat="29.073875" lon="105.061609"><ele>230.05707</ele><time>2026-02-05T22:11:08.000Z</time></trkpt>
        <trkpt lat="29.073848" lon="105.061622"><ele>229.99277</ele><time>2026-02-05T22:11:11.000Z</time></trkpt>
        <trkpt lat="29.073848" lon="105.061622"><ele>229.99277</ele><time>2026-02-05T22:11:11.000Z</time></trkpt>
        <trkpt lat="29.073837" lon="105.061629"><ele>229.77681</ele><time>2026-02-05T22:11:12.000Z</time></trkpt>
        <trkpt lat="29.073829" lon="105.061637"><ele>229.35037</ele><time>2026-02-05T22:11:13.000Z</time></trkpt>
        <trkpt lat="29.073829" lon="105.061637"><ele>229.35037</ele><time>2026-02-05T22:11:13.000Z</time></trkpt>
        <trkpt lat="29.073811" lon="105.061653"><ele>229.06525</ele><time>2026-02-05T22:11:15.000Z</time></trkpt>
        <trkpt lat="29.073811" lon="105.061653"><ele>229.06525</ele><time>2026-02-05T22:11:15.000Z</time></trkpt>
        <trkpt lat="29.073806" lon="105.061667"><ele>228.92572</ele><time>2026-02-05T22:11:16.000Z</time></trkpt>
        <trkpt lat="29.073798" lon="105.061681"><ele>228.80066</ele><time>2026-02-05T22:11:17.000Z</time></trkpt>
        <trkpt lat="29.073798" lon="105.061681"><ele>228.80066</ele><time>2026-02-05T22:11:17.000Z</time></trkpt>
        <trkpt lat="29.073788" lon="105.061708"><ele>228.56497</ele><time>2026-02-05T22:11:19.000Z</time></trkpt>
        <trkpt lat="29.073788" lon="105.061708"><ele>228.56497</ele><time>2026-02-05T22:11:19.000Z</time></trkpt>
        <trkpt lat="29.073782" lon="105.061722"><ele>228.63464</ele><time>2026-02-05T22:11:20.000Z</time></trkpt>
        <trkpt lat="29.073775" lon="105.061738"><ele>228.66698</ele><time>2026-02-05T22:11:21.000Z</time></trkpt>
        <trkpt lat="29.073775" lon="105.061738"><ele>228.66698</ele><time>2026-02-05T22:11:21.000Z</time></trkpt>
        <trkpt lat="29.073765" lon="105.061768"><ele>228.53215</ele><time>2026-02-05T22:11:23.000Z</time></trkpt>
        <trkpt lat="29.073765" lon="105.061768"><ele>228.53215</ele><time>2026-02-05T22:11:23.000Z</time></trkpt>
        <trkpt lat="29.073759" lon="105.061781"><ele>228.42278</ele><time>2026-02-05T22:11:24.000Z</time></trkpt>
        <trkpt lat="29.073752" lon="105.061793"><ele>228.27661</ele><time>2026-02-05T22:11:25.000Z</time></trkpt>
        <trkpt lat="29.073752" lon="105.061793"><ele>228.27661</ele><time>2026-02-05T22:11:25.000Z</time></trkpt>
        <trkpt lat="29.073737" lon="105.061818"><ele>228.22844</ele><time>2026-02-05T22:11:27.000Z</time></trkpt>
        <trkpt lat="29.073737" lon="105.061818"><ele>228.22844</ele><time>2026-02-05T22:11:27.000Z</time></trkpt>
        <trkpt lat="29.073732" lon="105.061833"><ele>228.36043</ele><time>2026-02-05T22:11:28.000Z</time></trkpt>
        <trkpt lat="29.073727" lon="105.061848"><ele>228.44666</ele><time>2026-02-05T22:11:29.000Z</time></trkpt>
        <trkpt lat="29.073727" lon="105.061848"><ele>228.44666</ele><time>2026-02-05T22:11:29.000Z</time></trkpt>
        <trkpt lat="29.07372" lon="105.061881"><ele>228.57674</ele><time>2026-02-05T22:11:31.000Z</time></trkpt>
        <trkpt lat="29.07372" lon="105.061881"><ele>228.57674</ele><time>2026-02-05T22:11:31.000Z</time></trkpt>
        <trkpt lat="29.073716" lon="105.061896"><ele>228.48586</ele><time>2026-02-05T22:11:32.000Z</time></trkpt>
        <trkpt lat="29.073711" lon="105.061911"><ele>228.47195</ele><time>2026-02-05T22:11:33.000Z</time></trkpt>
        <trkpt lat="29.073711" lon="105.061911"><ele>228.47195</ele><time>2026-02-05T22:11:33.000Z</time></trkpt>
        <trkpt lat="29.0737" lon="105.061938"><ele>228.20494</ele><time>2026-02-05T22:11:35.000Z</time></trkpt>
        <trkpt lat="29.0737" lon="105.061938"><ele>228.20494</ele><time>2026-02-05T22:11:35.000Z</time></trkpt>
        <trkpt lat="29.073697" lon="105.061954"><ele>228.28293</ele><time>2026-02-05T22:11:36.000Z</time></trkpt>
        <trkpt lat="29.073691" lon="105.061971"><ele>228.38153</ele><time>2026-02-05T22:11:37.000Z</time></trkpt>
        <trkpt lat="29.073691" lon="105.061971"><ele>228.38153</ele><time>2026-02-05T22:11:37.000Z</time></trkpt>
        <trkpt lat="29.073683" lon="105.061986"><ele>228.47049</ele><time>2026-02-05T22:11:38.000Z</time></trkpt>
        <trkpt lat="29.073683" lon="105.061986"><ele>228.47049</ele><time>2026-02-05T22:11:38.000Z</time></trkpt>
        <trkpt lat="29.073676" lon="105.062"><ele>228.37361</ele><time>2026-02-05T22:11:39.000Z</time></trkpt>
        <trkpt lat="29.073668" lon="105.062014"><ele>228.37717</ele><time>2026-02-05T22:11:40.000Z</time></trkpt>
        <trkpt lat="29.073668" lon="105.062014"><ele>228.37717</ele><time>2026-02-05T22:11:40.000Z</time></trkpt>
        <trkpt lat="29.073657" lon="105.062038"><ele>228.37793</ele><time>2026-02-05T22:11:42.000Z</time></trkpt>
        <trkpt lat="29.073657" lon="105.062038"><ele>228.37793</ele><time>2026-02-05T22:11:42.000Z</time></trkpt>
        <trkpt lat="29.073656" lon="105.062048"><ele>228.75963</ele><time>2026-02-05T22:11:43.000Z</time></trkpt>
        <trkpt lat="29.073656" lon="105.062058"><ele>229.13707</ele><time>2026-02-05T22:11:44.000Z</time></trkpt>
        <trkpt lat="29.073656" lon="105.062058"><ele>229.13707</ele><time>2026-02-05T22:11:44.000Z</time></trkpt>
        <trkpt lat="29.073656" lon="105.062094"><ele>229.8495</ele><time>2026-02-05T22:11:47.000Z</time></trkpt>
        <trkpt lat="29.073656" lon="105.062094"><ele>229.8495</ele><time>2026-02-05T22:11:47.000Z</time></trkpt>
        <trkpt lat="29.073651" lon="105.062155"><ele>231.50168</ele><time>2026-02-05T22:11:54.000Z</time></trkpt>
        <trkpt lat="29.073675" lon="105.062205"><ele>232.91223</ele><time>2026-02-05T22:11:58.000Z</time></trkpt>
        <trkpt lat="29.0737" lon="105.06225"><ele>234.00536</ele><time>2026-02-05T22:12:03.000Z</time></trkpt>
        <trkpt lat="29.073709" lon="105.062307"><ele>234.38861</ele><time>2026-02-05T22:12:08.000Z</time></trkpt>
        <trkpt lat="29.073721" lon="105.062359"><ele>235.21985</ele><time>2026-02-05T22:12:13.000Z</time></trkpt>
        <trkpt lat="29.073752" lon="105.062407"><ele>234.99754</ele><time>2026-02-05T22:12:18.000Z</time></trkpt>
        <trkpt lat="29.073785" lon="105.062446"><ele>236.6238</ele><time>2026-02-05T22:12:24.000Z</time></trkpt>
        <trkpt lat="29.073734" lon="105.062422"><ele>239.5641</ele><time>2026-02-05T22:12:31.000Z</time></trkpt>
        <trkpt lat="29.073703" lon="105.062364"><ele>240.05281</ele><time>2026-02-05T22:12:34.000Z</time></trkpt>
        <trkpt lat="29.073685" lon="105.0623"><ele>240.0932</ele><time>2026-02-05T22:12:38.000Z</time></trkpt>
        <trkpt lat="29.07368" lon="105.062238"><ele>240.37419</ele><time>2026-02-05T22:12:42.000Z</time></trkpt>
        <trkpt lat="29.073659" lon="105.062182"><ele>240.50752</ele><time>2026-02-05T22:12:46.000Z</time></trkpt>
        <trkpt lat="29.07361" lon="105.062145"><ele>240.42168</ele><time>2026-02-05T22:12:50.000Z</time></trkpt>
        <trkpt lat="29.073557" lon="105.062147"><ele>240.66267</ele><time>2026-02-05T22:12:54.000Z</time></trkpt>
        <trkpt lat="29.073508" lon="105.062174"><ele>240.88452</ele><time>2026-02-05T22:12:58.000Z</time></trkpt>
        <trkpt lat="29.073463" lon="105.062203"><ele>239.83647</ele><time>2026-02-05T22:13:03.000Z</time></trkpt>
        <trkpt lat="29.07344" lon="105.062251"><ele>240.49176</ele><time>2026-02-05T22:13:09.000Z</time></trkpt>
        <trkpt lat="29.073465" lon="105.062301"><ele>241.23238</ele><time>2026-02-05T22:13:13.000Z</time></trkpt>
        <trkpt lat="29.073421" lon="105.062275"><ele>242.8091</ele><time>2026-02-05T22:13:21.000Z</time></trkpt>
        <trkpt lat="29.073421" lon="105.062275"><ele>242.8091</ele><time>2026-02-05T22:13:21.000Z</time></trkpt>
        <trkpt lat="29.07338" lon="105.06225"><ele>242.36195</ele><time>2026-02-05T22:13:24.000Z</time></trkpt>
        <trkpt lat="29.07338" lon="105.06225"><ele>242.36195</ele><time>2026-02-05T22:13:24.000Z</time></trkpt>
        <trkpt lat="29.07333" lon="105.062234"><ele>242.06622</ele><time>2026-02-05T22:13:28.000Z</time></trkpt>
        <trkpt lat="29.07333" lon="105.062234"><ele>242.06622</ele><time>2026-02-05T22:13:28.000Z</time></trkpt>
        <trkpt lat="29.073279" lon="105.062236"><ele>241.50279</ele><time>2026-02-05T22:13:35.000Z</time></trkpt>
        <trkpt lat="29.073279" lon="105.062236"><ele>241.50279</ele><time>2026-02-05T22:13:35.000Z</time></trkpt>
        <trkpt lat="29.073237" lon="105.062262"><ele>240.93088</ele><time>2026-02-05T22:13:39.000Z</time></trkpt>
        <trkpt lat="29.073237" lon="105.062262"><ele>240.93088</ele><time>2026-02-05T22:13:39.000Z</time></trkpt>
        <trkpt lat="29.073193" lon="105.06227"><ele>242.61145</ele><time>2026-02-05T22:13:42.000Z</time></trkpt>
        <trkpt lat="29.073193" lon="105.06227"><ele>242.61145</ele><time>2026-02-05T22:13:42.000Z</time></trkpt>
        <trkpt lat="29.073241" lon="105.062265"><ele>243.34074</ele><time>2026-02-05T22:13:55.000Z</time></trkpt>
        <trkpt lat="29.073241" lon="105.062265"><ele>243.34074</ele><time>2026-02-05T22:13:55.000Z</time></trkpt>
        <trkpt lat="29.07326" lon="105.062215"><ele>243.64774</ele><time>2026-02-05T22:13:58.000Z</time></trkpt>
        <trkpt lat="29.07326" lon="105.062215"><ele>243.64774</ele><time>2026-02-05T22:13:58.000Z</time></trkpt>
        <trkpt lat="29.073301" lon="105.062179"><ele>245.23676</ele><time>2026-02-05T22:14:02.000Z</time></trkpt>
        <trkpt lat="29.073301" lon="105.062179"><ele>245.23676</ele><time>2026-02-05T22:14:02.000Z</time></trkpt>
        <trkpt lat="29.073344" lon="105.062189"><ele>246.11853</ele><time>2026-02-05T22:14:05.000Z</time></trkpt>
        <trkpt lat="29.073344" lon="105.062189"><ele>246.11853</ele><time>2026-02-05T22:14:05.000Z</time></trkpt>
        <trkpt lat="29.073398" lon="105.062202"><ele>246.70732</ele><time>2026-02-05T22:14:08.000Z</time></trkpt>
        <trkpt lat="29.073398" lon="105.062202"><ele>246.70732</ele><time>2026-02-05T22:14:08.000Z</time></trkpt>
        <trkpt lat="29.073455" lon="105.062195"><ele>247.30807</ele><time>2026-02-05T22:14:11.000Z</time></trkpt>
        <trkpt lat="29.073455" lon="105.062195"><ele>247.30807</ele><time>2026-02-05T22:14:11.000Z</time></trkpt>
        <trkpt lat="29.07347" lon="105.062188"><ele>247.43939</ele><time>2026-02-05T22:14:12.000Z</time></trkpt>
        <trkpt lat="29.07347" lon="105.062188"><ele>247.43939</ele><time>2026-02-05T22:14:12.000Z</time></trkpt>
        <trkpt lat="29.073486" lon="105.062179"><ele>247.53215</ele><time>2026-02-05T22:14:13.000Z</time></trkpt>
        <trkpt lat="29.073486" lon="105.062179"><ele>247.53215</ele><time>2026-02-05T22:14:13.000Z</time></trkpt>
        <trkpt lat="29.073501" lon="105.062169"><ele>247.56033</ele><time>2026-02-05T22:14:14.000Z</time></trkpt>
        <trkpt lat="29.073511" lon="105.062162"><ele>247.66382</ele><time>2026-02-05T22:14:15.000Z</time></trkpt>
        <trkpt lat="29.073511" lon="105.062162"><ele>247.66382</ele><time>2026-02-05T22:14:15.000Z</time></trkpt>
        <trkpt lat="29.073534" lon="105.062154"><ele>247.79002</ele><time>2026-02-05T22:14:17.000Z</time></trkpt>
        <trkpt lat="29.073534" lon="105.062154"><ele>247.79002</ele><time>2026-02-05T22:14:17.000Z</time></trkpt>
        <trkpt lat="29.073545" lon="105.062143"><ele>247.6398</ele><time>2026-02-05T22:14:18.000Z</time></trkpt>
        <trkpt lat="29.073557" lon="105.062131"><ele>247.50072</ele><time>2026-02-05T22:14:19.000Z</time></trkpt>
        <trkpt lat="29.073557" lon="105.062131"><ele>247.50072</ele><time>2026-02-05T22:14:19.000Z</time></trkpt>
        <trkpt lat="29.07358" lon="105.062118"><ele>245.48346</ele><time>2026-02-05T22:14:21.000Z</time></trkpt>
        <trkpt lat="29.07358" lon="105.062118"><ele>245.48346</ele><time>2026-02-05T22:14:21.000Z</time></trkpt>
        <trkpt lat="29.073592" lon="105.062113"><ele>244.82016</ele><time>2026-02-05T22:14:22.000Z</time></trkpt>
        <trkpt lat="29.073602" lon="105.062108"><ele>244.4699</ele><time>2026-02-05T22:14:23.000Z</time></trkpt>
        <trkpt lat="29.073602" lon="105.062108"><ele>244.4699</ele><time>2026-02-05T22:14:23.000Z</time></trkpt>
        <trkpt lat="29.073619" lon="105.062091"><ele>243.39748</ele><time>2026-02-05T22:14:25.000Z</time></trkpt>
        <trkpt lat="29.073619" lon="105.062091"><ele>243.39748</ele><time>2026-02-05T22:14:25.000Z</time></trkpt>
        <trkpt lat="29.073625" lon="105.062078"><ele>242.60205</ele><time>2026-02-05T22:14:26.000Z</time></trkpt>
        <trkpt lat="29.073627" lon="105.062064"><ele>241.53957</ele><time>2026-02-05T22:14:27.000Z</time></trkpt>
        <trkpt lat="29.073627" lon="105.062064"><ele>241.53957</ele><time>2026-02-05T22:14:27.000Z</time></trkpt>
        <trkpt lat="29.073622" lon="105.062034"><ele>240.02034</ele><time>2026-02-05T22:14:29.000Z</time></trkpt>
        <trkpt lat="29.073622" lon="105.062034"><ele>240.02034</ele><time>2026-02-05T22:14:29.000Z</time></trkpt>
        <trkpt lat="29.073617" lon="105.062015"><ele>239.22414</ele><time>2026-02-05T22:14:30.000Z</time></trkpt>
        <trkpt lat="29.073611" lon="105.061994"><ele>238.73721</ele><time>2026-02-05T22:14:31.000Z</time></trkpt>
        <trkpt lat="29.073611" lon="105.061994"><ele>238.73721</ele><time>2026-02-05T22:14:31.000Z</time></trkpt>
        <trkpt lat="29.073608" lon="105.061972"><ele>238.68356</ele><time>2026-02-05T22:14:32.000Z</time></trkpt>
        <trkpt lat="29.073608" lon="105.061972"><ele>238.68356</ele><time>2026-02-05T22:14:32.000Z</time></trkpt>
        <trkpt lat="29.073628" lon="105.061921"><ele>236.56892</ele><time>2026-02-05T22:14:35.000Z</time></trkpt>
        <trkpt lat="29.073653" lon="105.06188"><ele>234.30876</ele><time>2026-02-05T22:14:38.000Z</time></trkpt>
        <trkpt lat="29.073676" lon="105.061829"><ele>230.84671</ele><time>2026-02-05T22:14:42.000Z</time></trkpt>
        <trkpt lat="29.073698" lon="105.061785"><ele>228.66771</ele><time>2026-02-05T22:14:45.000Z</time></trkpt>
        <trkpt lat="29.073721" lon="105.061739"><ele>227.1299</ele><time>2026-02-05T22:14:48.000Z</time></trkpt>
        <trkpt lat="29.073755" lon="105.06169"><ele>225.6684</ele><time>2026-02-05T22:14:52.000Z</time></trkpt>
        <trkpt lat="29.073786" lon="105.061645"><ele>225.21512</ele><time>2026-02-05T22:14:56.000Z</time></trkpt>
        <trkpt lat="29.073806" lon="105.061599"><ele>225.13466</ele><time>2026-02-05T22:14:59.000Z</time></trkpt>
        <trkpt lat="29.07385" lon="105.06156"><ele>225.54257</ele><time>2026-02-05T22:15:03.000Z</time></trkpt>
        <trkpt lat="29.073901" lon="105.061541"><ele>226.79285</ele><time>2026-02-05T22:15:07.000Z</time></trkpt>
        <trkpt lat="29.073946" lon="105.06153"><ele>227.3156</ele><time>2026-02-05T22:15:10.000Z</time></trkpt>
        <trkpt lat="29.073991" lon="105.061567"><ele>226.9622</ele><time>2026-02-05T22:15:14.000Z</time></trkpt>
        <trkpt lat="29.074014" lon="105.061619"><ele>226.38242</ele><time>2026-02-05T22:15:18.000Z</time></trkpt>
        <trkpt lat="29.074051" lon="105.061662"><ele>226.33617</ele><time>2026-02-05T22:15:22.000Z</time></trkpt>
        <trkpt lat="29.074078" lon="105.061705"><ele>226.17632</ele><time>2026-02-05T22:15:26.000Z</time></trkpt>
        <trkpt lat="29.074109" lon="105.061743"><ele>225.91293</ele><time>2026-02-05T22:15:30.000Z</time></trkpt>
        <trkpt lat="29.074144" lon="105.061779"><ele>226.26793</ele><time>2026-02-05T22:15:34.000Z</time></trkpt>
        <trkpt lat="29.074182" lon="105.061823"><ele>227.04842</ele><time>2026-02-05T22:15:38.000Z</time></trkpt>
        <trkpt lat="29.074214" lon="105.061871"><ele>227.22249</ele><time>2026-02-05T22:15:42.000Z</time></trkpt>
        <trkpt lat="29.074234" lon="105.061926"><ele>228.7864</ele><time>2026-02-05T22:15:46.000Z</time></trkpt>
        <trkpt lat="29.074226" lon="105.061911"><ele>237.70601</ele><time>2026-02-05T22:16:21.000Z</time></trkpt>
        <trkpt lat="29.074235" lon="105.061943"><ele>227.87547</ele><time>2026-02-05T22:16:24.000Z</time></trkpt>
        <trkpt lat="29.074254" lon="105.06199"><ele>226.5499</ele><time>2026-02-05T22:16:31.000Z</time></trkpt>
        <trkpt lat="29.074291" lon="105.06202"><ele>227.7212</ele><time>2026-02-05T22:16:35.000Z</time></trkpt>
        <trkpt lat="29.074333" lon="105.062061"><ele>228.67715</ele><time>2026-02-05T22:16:39.000Z</time></trkpt>
        <trkpt lat="29.074373" lon="105.062102"><ele>229.46356</ele><time>2026-02-05T22:16:43.000Z</time></trkpt>
        <trkpt lat="29.074413" lon="105.062143"><ele>230.04716</ele><time>2026-02-05T22:16:47.000Z</time></trkpt>
        <trkpt lat="29.074441" lon="105.062191"><ele>229.86215</ele><time>2026-02-05T22:16:51.000Z</time></trkpt>
        <trkpt lat="29.074473" lon="105.062227"><ele>229.6297</ele><time>2026-02-05T22:16:54.000Z</time></trkpt>
        <trkpt lat="29.074516" lon="105.062262"><ele>229.61003</ele><time>2026-02-05T22:16:58.000Z</time></trkpt>
        <trkpt lat="29.074538" lon="105.062312"><ele>229.80475</ele><time>2026-02-05T22:17:02.000Z</time></trkpt>
        <trkpt lat="29.07457" lon="105.062355"><ele>230.40633</ele><time>2026-02-05T22:17:06.000Z</time></trkpt>
        <trkpt lat="29.074608" lon="105.062398"><ele>230.45734</ele><time>2026-02-05T22:17:10.000Z</time></trkpt>
        <trkpt lat="29.074643" lon="105.06245"><ele>231.18353</ele><time>2026-02-05T22:17:14.000Z</time></trkpt>
        <trkpt lat="29.074682" lon="105.062496"><ele>231.28978</ele><time>2026-02-05T22:17:18.000Z</time></trkpt>
        <trkpt lat="29.074711" lon="105.062543"><ele>230.7802</ele><time>2026-02-05T22:17:22.000Z</time></trkpt>
        <trkpt lat="29.074752" lon="105.062588"><ele>229.81143</ele><time>2026-02-05T22:17:26.000Z</time></trkpt>
        <trkpt lat="29.074789" lon="105.062637"><ele>229.20879</ele><time>2026-02-05T22:17:30.000Z</time></trkpt>
        <trkpt lat="29.074816" lon="105.06268"><ele>228.16344</ele><time>2026-02-05T22:17:34.000Z</time></trkpt>
        <trkpt lat="29.074848" lon="105.062731"><ele>226.85498</ele><time>2026-02-05T22:17:38.000Z</time></trkpt>
        <trkpt lat="29.074876" lon="105.062779"><ele>227.39243</ele><time>2026-02-05T22:17:42.000Z</time></trkpt>
        <trkpt lat="29.074909" lon="105.06282"><ele>227.62868</ele><time>2026-02-05T22:17:46.000Z</time></trkpt>
        <trkpt lat="29.074945" lon="105.062853"><ele>229.51573</ele><time>2026-02-05T22:17:50.000Z</time></trkpt>
        <trkpt lat="29.074979" lon="105.062915"><ele>230.69441</ele><time>2026-02-05T22:18:05.000Z</time></trkpt>
        <trkpt lat="29.075012" lon="105.062965"><ele>229.04648</ele><time>2026-02-05T22:18:09.000Z</time></trkpt>
        <trkpt lat="29.07505" lon="105.063002"><ele>228.79503</ele><time>2026-02-05T22:18:13.000Z</time></trkpt>
        <trkpt lat="29.075095" lon="105.063029"><ele>229.0254</ele><time>2026-02-05T22:18:17.000Z</time></trkpt>
        <trkpt lat="29.075139" lon="105.06306"><ele>230.01007</ele><time>2026-02-05T22:18:20.000Z</time></trkpt>
        <trkpt lat="29.075181" lon="105.063089"><ele>231.12933</ele><time>2026-02-05T22:18:23.000Z</time></trkpt>
        <trkpt lat="29.075224" lon="105.063113"><ele>231.3559</ele><time>2026-02-05T22:18:27.000Z</time></trkpt>
        <trkpt lat="29.075271" lon="105.063149"><ele>231.04884</ele><time>2026-02-05T22:18:31.000Z</time></trkpt>
        <trkpt lat="29.075316" lon="105.063187"><ele>231.36942</ele><time>2026-02-05T22:18:35.000Z</time></trkpt>
        <trkpt lat="29.075354" lon="105.063222"><ele>230.53912</ele><time>2026-02-05T22:18:39.000Z</time></trkpt>
        <trkpt lat="29.075376" lon="105.063271"><ele>229.63396</ele><time>2026-02-05T22:18:43.000Z</time></trkpt>
        <trkpt lat="29.075412" lon="105.063307"><ele>230.39505</ele><time>2026-02-05T22:18:47.000Z</time></trkpt>
        <trkpt lat="29.075452" lon="105.063343"><ele>231.04248</ele><time>2026-02-05T22:18:51.000Z</time></trkpt>
        <trkpt lat="29.075489" lon="105.063376"><ele>230.64223</ele><time>2026-02-05T22:18:55.000Z</time></trkpt>
        <trkpt lat="29.075518" lon="105.063423"><ele>230.54129</ele><time>2026-02-05T22:19:00.000Z</time></trkpt>
        <trkpt lat="29.075558" lon="105.063452"><ele>230.38179</ele><time>2026-02-05T22:19:04.000Z</time></trkpt>
        <trkpt lat="29.075589" lon="105.063488"><ele>229.03859</ele><time>2026-02-05T22:19:09.000Z</time></trkpt>
        <trkpt lat="29.075618" lon="105.063527"><ele>228.15413</ele><time>2026-02-05T22:19:14.000Z</time></trkpt>
        <trkpt lat="29.075649" lon="105.063577"><ele>227.25655</ele><time>2026-02-05T22:19:20.000Z</time></trkpt>
        <trkpt lat="29.075682" lon="105.063609"><ele>228.53268</ele><time>2026-02-05T22:19:24.000Z</time></trkpt>
        <trkpt lat="29.075718" lon="105.063638"><ele>229.68427</ele><time>2026-02-05T22:19:28.000Z</time></trkpt>
        <trkpt lat="29.075749" lon="105.063679"><ele>230.3876</ele><time>2026-02-05T22:19:32.000Z</time></trkpt>
        <trkpt lat="29.075779" lon="105.063729"><ele>229.61789</ele><time>2026-02-05T22:19:37.000Z</time></trkpt>
        <trkpt lat="29.075812" lon="105.063767"><ele>229.6873</ele><time>2026-02-05T22:19:41.000Z</time></trkpt>
        <trkpt lat="29.075851" lon="105.063805"><ele>229.96072</ele><time>2026-02-05T22:19:45.000Z</time></trkpt>
        <trkpt lat="29.075893" lon="105.063844"><ele>229.45427</ele><time>2026-02-05T22:19:49.000Z</time></trkpt>
        <trkpt lat="29.075927" lon="105.063882"><ele>228.57803</ele><time>2026-02-05T22:19:53.000Z</time></trkpt>
        <trkpt lat="29.075966" lon="105.063923"><ele>228.28879</ele><time>2026-02-05T22:19:57.000Z</time></trkpt>
        <trkpt lat="29.076003" lon="105.063962"><ele>228.47485</ele><time>2026-02-05T22:20:01.000Z</time></trkpt>
        <trkpt lat="29.076045" lon="105.063984"><ele>229.75034</ele><time>2026-02-05T22:20:05.000Z</time></trkpt>
        <trkpt lat="29.076068" lon="105.064012"><ele>225.73251</ele><time>2026-02-05T22:21:43.000Z</time></trkpt>
        <trkpt lat="29.076083" lon="105.064061"><ele>226.2664</ele><time>2026-02-05T22:21:58.000Z</time></trkpt>
        <trkpt lat="29.076128" lon="105.064103"><ele>226.8338</ele><time>2026-02-05T22:22:02.000Z</time></trkpt>
        <trkpt lat="29.076164" lon="105.064142"><ele>226.82602</ele><time>2026-02-05T22:22:06.000Z</time></trkpt>
        <trkpt lat="29.076177" lon="105.064151"><ele>226.89145</ele><time>2026-02-05T22:22:07.000Z</time></trkpt>
        <trkpt lat="29.076177" lon="105.064151"><ele>226.89145</ele><time>2026-02-05T22:22:07.000Z</time></trkpt>
        <trkpt lat="29.076185" lon="105.064156"><ele>226.696</ele><time>2026-02-05T22:22:08.000Z</time></trkpt>
        <trkpt lat="29.076185" lon="105.064156"><ele>226.696</ele><time>2026-02-05T22:22:08.000Z</time></trkpt>
        <trkpt lat="29.076202" lon="105.064168"><ele>226.60048</ele><time>2026-02-05T22:22:10.000Z</time></trkpt>
        <trkpt lat="29.076202" lon="105.064168"><ele>226.60048</ele><time>2026-02-05T22:22:10.000Z</time></trkpt>
        <trkpt lat="29.076225" lon="105.064195"><ele>226.51015</ele><time>2026-02-05T22:22:14.000Z</time></trkpt>
        <trkpt lat="29.076225" lon="105.064195"><ele>226.51015</ele><time>2026-02-05T22:22:14.000Z</time></trkpt>
        <trkpt lat="29.076233" lon="105.064203"><ele>226.76785</ele><time>2026-02-05T22:22:15.000Z</time></trkpt>
        <trkpt lat="29.076263" lon="105.064242"><ele>226.56403</ele><time>2026-02-05T22:22:19.000Z</time></trkpt>
        <trkpt lat="29.0763" lon="105.064281"><ele>226.98936</ele><time>2026-02-05T22:22:24.000Z</time></trkpt>
        <trkpt lat="29.076343" lon="105.064322"><ele>227.64532</ele><time>2026-02-05T22:22:30.000Z</time></trkpt>
        <trkpt lat="29.076387" lon="105.064358"><ele>227.99854</ele><time>2026-02-05T22:22:36.000Z</time></trkpt>
        <trkpt lat="29.07642" lon="105.064394"><ele>227.65857</ele><time>2026-02-05T22:22:40.000Z</time></trkpt>
        <trkpt lat="29.076447" lon="105.064436"><ele>227.5126</ele><time>2026-02-05T22:22:44.000Z</time></trkpt>
        <trkpt lat="29.076489" lon="105.064474"><ele>228.06491</ele><time>2026-02-05T22:22:49.000Z</time></trkpt>
        <trkpt lat="29.076528" lon="105.064518"><ele>228.36746</ele><time>2026-02-05T22:22:54.000Z</time></trkpt>
        <trkpt lat="29.076571" lon="105.064554"><ele>228.05925</ele><time>2026-02-05T22:22:59.000Z</time></trkpt>
        <trkpt lat="29.076598" lon="105.064602"><ele>227.85652</ele><time>2026-02-05T22:23:05.000Z</time></trkpt>
        <trkpt lat="29.076624" lon="105.06465"><ele>226.88501</ele><time>2026-02-05T22:23:11.000Z</time></trkpt>
        <trkpt lat="29.07666" lon="105.064694"><ele>226.71695</ele><time>2026-02-05T22:23:16.000Z</time></trkpt>
        <trkpt lat="29.076688" lon="105.064737"><ele>226.45958</ele><time>2026-02-05T22:23:20.000Z</time></trkpt>
        <trkpt lat="29.076732" lon="105.064773"><ele>226.212</ele><time>2026-02-05T22:23:25.000Z</time></trkpt>
        <trkpt lat="29.076765" lon="105.064808"><ele>226.53514</ele><time>2026-02-05T22:23:30.000Z</time></trkpt>
        <trkpt lat="29.076797" lon="105.064851"><ele>226.90428</ele><time>2026-02-05T22:23:34.000Z</time></trkpt>
        <trkpt lat="29.076827" lon="105.064899"><ele>227.75002</ele><time>2026-02-05T22:23:39.000Z</time></trkpt>
        <trkpt lat="29.076865" lon="105.064946"><ele>227.74637</ele><time>2026-02-05T22:23:52.000Z</time></trkpt>
        <trkpt lat="29.076883" lon="105.064997"><ele>228.08534</ele><time>2026-02-05T22:23:57.000Z</time></trkpt>
        <trkpt lat="29.076841" lon="105.064963"><ele>230.21996</ele><time>2026-02-05T22:24:23.000Z</time></trkpt>
        <trkpt lat="29.076802" lon="105.064917"><ele>230.94061</ele><time>2026-02-05T22:24:27.000Z</time></trkpt>
        <trkpt lat="29.076782" lon="105.064968"><ele>231.83931</ele><time>2026-02-05T22:24:33.000Z</time></trkpt>
        <trkpt lat="29.076779" lon="105.065023"><ele>230.89589</ele><time>2026-02-05T22:24:37.000Z</time></trkpt>
        <trkpt lat="29.076739" lon="105.065071"><ele>231.08546</ele><time>2026-02-05T22:24:41.000Z</time></trkpt>
        <trkpt lat="29.076694" lon="105.065108"><ele>230.4596</ele><time>2026-02-05T22:24:45.000Z</time></trkpt>
        <trkpt lat="29.07665" lon="105.065134"><ele>230.22714</ele><time>2026-02-05T22:24:49.000Z</time></trkpt>
        <trkpt lat="29.076624" lon="105.065176"><ele>230.67627</ele><time>2026-02-05T22:24:52.000Z</time></trkpt>
        <trkpt lat="29.076576" lon="105.065211"><ele>231.20383</ele><time>2026-02-05T22:24:56.000Z</time></trkpt>
        <trkpt lat="29.076543" lon="105.065251"><ele>230.69969</ele><time>2026-02-05T22:25:01.000Z</time></trkpt>
        <trkpt lat="29.076517" lon="105.065298"><ele>231.36688</ele><time>2026-02-05T22:25:05.000Z</time></trkpt>
        <trkpt lat="29.076496" lon="105.065342"><ele>233.2437</ele><time>2026-02-05T22:25:09.000Z</time></trkpt>
        <trkpt lat="29.076464" lon="105.065392"><ele>232.55681</ele><time>2026-02-05T22:25:14.000Z</time></trkpt>
        <trkpt lat="29.076421" lon="105.065417"><ele>232.07114</ele><time>2026-02-05T22:25:18.000Z</time></trkpt>
        <trkpt lat="29.076365" lon="105.065419"><ele>230.94798</ele><time>2026-02-05T22:25:22.000Z</time></trkpt>
        <trkpt lat="29.07631" lon="105.065408"><ele>229.44102</ele><time>2026-02-05T22:25:26.000Z</time></trkpt>
        <trkpt lat="29.076261" lon="105.065408"><ele>226.88345</ele><time>2026-02-05T22:25:30.000Z</time></trkpt>
        <trkpt lat="29.076214" lon="105.065421"><ele>225.5019</ele><time>2026-02-05T22:25:35.000Z</time></trkpt>
        <trkpt lat="29.076171" lon="105.06544"><ele>224.32964</ele><time>2026-02-05T22:25:40.000Z</time></trkpt>
        <trkpt lat="29.076143" lon="105.065478"><ele>222.76128</ele><time>2026-02-05T22:25:45.000Z</time></trkpt>
        <trkpt lat="29.076104" lon="105.065515"><ele>221.31477</ele><time>2026-02-05T22:25:49.000Z</time></trkpt>
        <trkpt lat="29.076059" lon="105.065545"><ele>220.4457</ele><time>2026-02-05T22:25:52.000Z</time></trkpt>
        <trkpt lat="29.076005" lon="105.065539"><ele>220.13998</ele><time>2026-02-05T22:25:56.000Z</time></trkpt>
        <trkpt lat="29.075956" lon="105.065534"><ele>220.28638</ele><time>2026-02-05T22:26:00.000Z</time></trkpt>
        <trkpt lat="29.075912" lon="105.065519"><ele>219.65042</ele><time>2026-02-05T22:26:04.000Z</time></trkpt>
        <trkpt lat="29.075874" lon="105.065556"><ele>217.77013</ele><time>2026-02-05T22:26:09.000Z</time></trkpt>
        <trkpt lat="29.075855" lon="105.065509"><ele>217.96115</ele><time>2026-02-05T22:26:18.000Z</time></trkpt>
        <trkpt lat="29.075803" lon="105.065493"><ele>217.64125</ele><time>2026-02-05T22:26:23.000Z</time></trkpt>
        <trkpt lat="29.075757" lon="105.065493"><ele>216.68164</ele><time>2026-02-05T22:26:28.000Z</time></trkpt>
        <trkpt lat="29.075716" lon="105.065523"><ele>215.31664</ele><time>2026-02-05T22:26:33.000Z</time></trkpt>
        <trkpt lat="29.075673" lon="105.065545"><ele>214.15761</ele><time>2026-02-05T22:26:39.000Z</time></trkpt>
        <trkpt lat="29.075626" lon="105.06554"><ele>215.37238</ele><time>2026-02-05T22:26:47.000Z</time></trkpt>
        <trkpt lat="29.075642" lon="105.065574"><ele>219.90782</ele><time>2026-02-05T22:27:03.000Z</time></trkpt>
        <trkpt lat="29.075616" lon="105.065618"><ele>219.96289</ele><time>2026-02-05T22:27:10.000Z</time></trkpt>
        <trkpt lat="29.075575" lon="105.065639"><ele>221.41763</ele><time>2026-02-05T22:27:19.000Z</time></trkpt>
        <trkpt lat="29.075528" lon="105.065656"><ele>222.74467</ele><time>2026-02-05T22:27:28.000Z</time></trkpt>
        <trkpt lat="29.07548" lon="105.06565"><ele>223.16623</ele><time>2026-02-05T22:27:35.000Z</time></trkpt>
        <trkpt lat="29.075435" lon="105.065644"><ele>224.02242</ele><time>2026-02-05T22:27:53.000Z</time></trkpt>
        <trkpt lat="29.075415" lon="105.065695"><ele>225.34605</ele><time>2026-02-05T22:28:01.000Z</time></trkpt>
        <trkpt lat="29.075376" lon="105.065721"><ele>226.03075</ele><time>2026-02-05T22:28:09.000Z</time></trkpt>
        <trkpt lat="29.075357" lon="105.065774"><ele>225.64229</ele><time>2026-02-05T22:28:19.000Z</time></trkpt>
        <trkpt lat="29.075364" lon="105.065832"><ele>225.3614</ele><time>2026-02-05T22:28:24.000Z</time></trkpt>
        <trkpt lat="29.07538" lon="105.06588"><ele>226.40834</ele><time>2026-02-05T22:28:29.000Z</time></trkpt>
        <trkpt lat="29.075401" lon="105.065929"><ele>227.31331</ele><time>2026-02-05T22:28:33.000Z</time></trkpt>
        <trkpt lat="29.075423" lon="105.065982"><ele>228.40192</ele><time>2026-02-05T22:28:38.000Z</time></trkpt>
        <trkpt lat="29.075453" lon="105.066034"><ele>230.11505</ele><time>2026-02-05T22:28:42.000Z</time></trkpt>
        <trkpt lat="29.075469" lon="105.066088"><ele>231.08641</ele><time>2026-02-05T22:28:47.000Z</time></trkpt>
        <trkpt lat="29.075481" lon="105.066139"><ele>231.13554</ele><time>2026-02-05T22:28:51.000Z</time></trkpt>
        <trkpt lat="29.075496" lon="105.066189"><ele>232.54764</ele><time>2026-02-05T22:28:54.000Z</time></trkpt>
        <trkpt lat="29.075502" lon="105.06625"><ele>234.52496</ele><time>2026-02-05T22:28:58.000Z</time></trkpt>
        <trkpt lat="29.075506" lon="105.066298"><ele>236.55505</ele><time>2026-02-05T22:29:01.000Z</time></trkpt>
        <trkpt lat="29.075495" lon="105.066345"><ele>238.28757</ele><time>2026-02-05T22:29:05.000Z</time></trkpt>
        <trkpt lat="29.075482" lon="105.066407"><ele>239.18932</ele><time>2026-02-05T22:29:10.000Z</time></trkpt>
        <trkpt lat="29.075489" lon="105.066461"><ele>240.93901</ele><time>2026-02-05T22:29:14.000Z</time></trkpt>
        <trkpt lat="29.075504" lon="105.066513"><ele>242.85184</ele><time>2026-02-05T22:29:18.000Z</time></trkpt>
        <trkpt lat="29.075538" lon="105.066568"><ele>244.09148</ele><time>2026-02-05T22:29:22.000Z</time></trkpt>
        <trkpt lat="29.075563" lon="105.066612"><ele>244.5502</ele><time>2026-02-05T22:29:27.000Z</time></trkpt>
        <trkpt lat="29.075579" lon="105.066662"><ele>244.1779</ele><time>2026-02-05T22:29:31.000Z</time></trkpt>
        <trkpt lat="29.075576" lon="105.066726"><ele>245.00334</ele><time>2026-02-05T22:29:36.000Z</time></trkpt>
        <trkpt lat="29.075596" lon="105.066775"><ele>244.78537</ele><time>2026-02-05T22:29:40.000Z</time></trkpt>
        <trkpt lat="29.075601" lon="105.066827"><ele>246.01363</ele><time>2026-02-05T22:29:44.000Z</time></trkpt>
        <trkpt lat="29.075579" lon="105.066871"><ele>247.72908</ele><time>2026-02-05T22:29:50.000Z</time></trkpt>
        <trkpt lat="29.075532" lon="105.066874"><ele>247.94466</ele><time>2026-02-05T22:29:55.000Z</time></trkpt>
        <trkpt lat="29.075484" lon="105.066914"><ele>249.49689</ele><time>2026-02-05T22:29:59.000Z</time></trkpt>
        <trkpt lat="29.07545" lon="105.066964"><ele>249.22064</ele><time>2026-02-05T22:30:04.000Z</time></trkpt>
        <trkpt lat="29.075419" lon="105.067016"><ele>249.63818</ele><time>2026-02-05T22:30:09.000Z</time></trkpt>
        <trkpt lat="29.075391" lon="105.067065"><ele>250.43108</ele><time>2026-02-05T22:30:14.000Z</time></trkpt>
        <trkpt lat="29.075348" lon="105.06709"><ele>249.88235</ele><time>2026-02-05T22:30:19.000Z</time></trkpt>
        <trkpt lat="29.075293" lon="105.067082"><ele>248.4126</ele><time>2026-02-05T22:30:23.000Z</time></trkpt>
        <trkpt lat="29.075243" lon="105.067064"><ele>248.97147</ele><time>2026-02-05T22:30:26.000Z</time></trkpt>
        <trkpt lat="29.0752" lon="105.067048"><ele>250.93437</ele><time>2026-02-05T22:30:30.000Z</time></trkpt>
        <trkpt lat="29.075151" lon="105.067032"><ele>252.4624</ele><time>2026-02-05T22:30:34.000Z</time></trkpt>
        <trkpt lat="29.075103" lon="105.067045"><ele>254.52928</ele><time>2026-02-05T22:30:38.000Z</time></trkpt>
        <trkpt lat="29.075091" lon="105.067096"><ele>253.02992</ele><time>2026-02-05T22:31:14.000Z</time></trkpt>
        <trkpt lat="29.075052" lon="105.067118"><ele>251.53273</ele><time>2026-02-05T22:31:23.000Z</time></trkpt>
        <trkpt lat="29.075005" lon="105.067131"><ele>250.81383</ele><time>2026-02-05T22:31:31.000Z</time></trkpt>
        <trkpt lat="29.074951" lon="105.067146"><ele>251.11424</ele><time>2026-02-05T22:31:35.000Z</time></trkpt>
        <trkpt lat="29.074901" lon="105.067182"><ele>251.39668</ele><time>2026-02-05T22:31:38.000Z</time></trkpt>
        <trkpt lat="29.07486" lon="105.06722"><ele>251.78793</ele><time>2026-02-05T22:31:41.000Z</time></trkpt>
        <trkpt lat="29.074814" lon="105.067249"><ele>252.31851</ele><time>2026-02-05T22:31:43.000Z</time></trkpt>
        <trkpt lat="29.074775" lon="105.067282"><ele>253.6551</ele><time>2026-02-05T22:31:45.000Z</time></trkpt>
        <trkpt lat="29.07473" lon="105.06727"><ele>255.38933</ele><time>2026-02-05T22:31:50.000Z</time></trkpt>
        <trkpt lat="29.074705" lon="105.067276"><ele>260.13336</ele><time>2026-02-05T22:31:54.000Z</time></trkpt>
        <trkpt lat="29.07466" lon="105.067293"><ele>260.55667</ele><time>2026-02-05T22:31:58.000Z</time></trkpt>
        <trkpt lat="29.074614" lon="105.067311"><ele>260.0457</ele><time>2026-02-05T22:32:03.000Z</time></trkpt>
        <trkpt lat="29.07457" lon="105.0673"><ele>259.03928</ele><time>2026-02-05T22:32:08.000Z</time></trkpt>
        <trkpt lat="29.074518" lon="105.067307"><ele>259.05832</ele><time>2026-02-05T22:32:14.000Z</time></trkpt>
        <trkpt lat="29.074482" lon="105.067346"><ele>258.7396</ele><time>2026-02-05T22:32:17.000Z</time></trkpt>
        <trkpt lat="29.074454" lon="105.067387"><ele>258.80035</ele><time>2026-02-05T22:32:22.000Z</time></trkpt>
        <trkpt lat="29.074436" lon="105.067437"><ele>260.03656</ele><time>2026-02-05T22:32:26.000Z</time></trkpt>
        <trkpt lat="29.074407" lon="105.067477"><ele>260.12772</ele><time>2026-02-05T22:32:29.000Z</time></trkpt>
        <trkpt lat="29.074359" lon="105.067517"><ele>260.4218</ele><time>2026-02-05T22:32:34.000Z</time></trkpt>
        <trkpt lat="29.074317" lon="105.067552"><ele>260.62808</ele><time>2026-02-05T22:32:38.000Z</time></trkpt>
        <trkpt lat="29.074266" lon="105.067565"><ele>260.32498</ele><time>2026-02-05T22:32:43.000Z</time></trkpt>
        <trkpt lat="29.074222" lon="105.067585"><ele>262.5075</ele><time>2026-02-05T22:32:48.000Z</time></trkpt>
        <trkpt lat="29.074186" lon="105.06761"><ele>265.53635</ele><time>2026-02-05T22:32:57.000Z</time></trkpt>
        <trkpt lat="29.07414" lon="105.067624"><ele>266.67343</ele><time>2026-02-05T22:33:02.000Z</time></trkpt>
        <trkpt lat="29.074108" lon="105.067662"><ele>269.52014</ele><time>2026-02-05T22:33:07.000Z</time></trkpt>
        <trkpt lat="29.074092" lon="105.067706"><ele>272.6512</ele><time>2026-02-05T22:33:11.000Z</time></trkpt>
        <trkpt lat="29.074078" lon="105.067745"><ele>275.6495</ele><time>2026-02-05T22:33:15.000Z</time></trkpt>
        <trkpt lat="29.074068" lon="105.067791"><ele>277.55377</ele><time>2026-02-05T22:33:20.000Z</time></trkpt>
        <trkpt lat="29.074039" lon="105.067841"><ele>279.5354</ele><time>2026-02-05T22:33:44.000Z</time></trkpt>
        <trkpt lat="29.074021" lon="105.067895"><ele>280.4697</ele><time>2026-02-05T22:33:48.000Z</time></trkpt>
        <trkpt lat="29.073987" lon="105.067911"><ele>285.24182</ele><time>2026-02-05T22:33:55.000Z</time></trkpt>
        <trkpt lat="29.073954" lon="105.067933"><ele>288.21262</ele><time>2026-02-05T22:33:59.000Z</time></trkpt>
        <trkpt lat="29.073927" lon="105.067953"><ele>292.2731</ele><time>2026-02-05T22:34:13.000Z</time></trkpt>
        <trkpt lat="29.073898" lon="105.067961"><ele>296.5649</ele><time>2026-02-05T22:34:19.000Z</time></trkpt>
        <trkpt lat="29.073873" lon="105.068011"><ele>298.84436</ele><time>2026-02-05T22:34:29.000Z</time></trkpt>
        <trkpt lat="29.073837" lon="105.068038"><ele>300.92313</ele><time>2026-02-05T22:34:34.000Z</time></trkpt>
        <trkpt lat="29.0738" lon="105.068079"><ele>301.6946</ele><time>2026-02-05T22:34:40.000Z</time></trkpt>
        <trkpt lat="29.073757" lon="105.068099"><ele>300.95657</ele><time>2026-02-05T22:34:46.000Z</time></trkpt>
        <trkpt lat="29.073712" lon="105.068108"><ele>302.80362</ele><time>2026-02-05T22:34:53.000Z</time></trkpt>
        <trkpt lat="29.07372" lon="105.068045"><ele>304.97592</ele><time>2026-02-05T22:35:24.000Z</time></trkpt>
        <trkpt lat="29.073731" lon="105.068006"><ele>290.10458</ele><time>2026-02-05T22:35:27.000Z</time></trkpt>
        <trkpt lat="29.073707" lon="105.068009"><ele>307.06314</ele><time>2026-02-05T22:35:30.000Z</time></trkpt>
        <trkpt lat="29.073661" lon="105.068039"><ele>308.2974</ele><time>2026-02-05T22:35:33.000Z</time></trkpt>
        <trkpt lat="29.073614" lon="105.068022"><ele>310.44986</ele><time>2026-02-05T22:35:41.000Z</time></trkpt>
        <trkpt lat="29.073575" lon="105.068021"><ele>313.3332</ele><time>2026-02-05T22:35:47.000Z</time></trkpt>
        <trkpt lat="29.073542" lon="105.067986"><ele>311.9682</ele><time>2026-02-05T22:36:01.000Z</time></trkpt>
        <trkpt lat="29.073505" lon="105.06796"><ele>314.61917</ele><time>2026-02-05T22:36:08.000Z</time></trkpt>
        <trkpt lat="29.073462" lon="105.067969"><ele>316.10513</ele><time>2026-02-05T22:36:13.000Z</time></trkpt>
        <trkpt lat="29.073417" lon="105.067946"><ele>317.19534</ele><time>2026-02-05T22:36:23.000Z</time></trkpt>
        <trkpt lat="29.073373" lon="105.067943"><ele>319.4134</ele><time>2026-02-05T22:36:45.000Z</time></trkpt>
        <trkpt lat="29.073332" lon="105.067931"><ele>316.6916</ele><time>2026-02-05T22:36:59.000Z</time></trkpt>
        <trkpt lat="29.073286" lon="105.067922"><ele>317.21866</ele><time>2026-02-05T22:37:07.000Z</time></trkpt>
        <trkpt lat="29.073244" lon="105.067899"><ele>316.80133</ele><time>2026-02-05T22:37:13.000Z</time></trkpt>
        <trkpt lat="29.073205" lon="105.067875"><ele>318.87082</ele><time>2026-02-05T22:37:21.000Z</time></trkpt>
        <trkpt lat="29.073177" lon="105.067833"><ele>319.60214</ele><time>2026-02-05T22:37:29.000Z</time></trkpt>
        <trkpt lat="29.073149" lon="105.067789"><ele>319.08615</ele><time>2026-02-05T22:37:36.000Z</time></trkpt>
        <trkpt lat="29.073113" lon="105.067748"><ele>318.25867</ele><time>2026-02-05T22:37:46.000Z</time></trkpt>
        <trkpt lat="29.073067" lon="105.067735"><ele>317.74063</ele><time>2026-02-05T22:37:54.000Z</time></trkpt>
        <trkpt lat="29.073018" lon="105.067727"><ele>320.02313</ele><time>2026-02-05T22:38:01.000Z</time></trkpt>
        <trkpt lat="29.072988" lon="105.067694"><ele>322.14752</ele><time>2026-02-05T22:38:07.000Z</time></trkpt>
        <trkpt lat="29.072978" lon="105.067637"><ele>322.1656</ele><time>2026-02-05T22:38:14.000Z</time></trkpt>
        <trkpt lat="29.072966" lon="105.067587"><ele>322.44836</ele><time>2026-02-05T22:38:22.000Z</time></trkpt>
        <trkpt lat="29.072914" lon="105.067583"><ele>323.32703</ele><time>2026-02-05T22:38:31.000Z</time></trkpt>
        <trkpt lat="29.072874" lon="105.067564"><ele>325.05283</ele><time>2026-02-05T22:38:35.000Z</time></trkpt>
        <trkpt lat="29.072872" lon="105.067546"><ele>330.80246</ele><time>2026-02-05T22:38:45.000Z</time></trkpt>
        <trkpt lat="29.072875" lon="105.067588"><ele>334.04135</ele><time>2026-02-05T22:38:52.000Z</time></trkpt>
        <trkpt lat="29.072836" lon="105.067629"><ele>334.056</ele><time>2026-02-05T22:38:57.000Z</time></trkpt>
        <trkpt lat="29.072797" lon="105.067655"><ele>334.2391</ele><time>2026-02-05T22:39:02.000Z</time></trkpt>
        <trkpt lat="29.072746" lon="105.067654"><ele>334.9504</ele><time>2026-02-05T22:39:10.000Z</time></trkpt>
        <trkpt lat="29.072703" lon="105.067638"><ele>334.7328</ele><time>2026-02-05T22:39:17.000Z</time></trkpt>
        <trkpt lat="29.072658" lon="105.067647"><ele>333.70358</ele><time>2026-02-05T22:39:25.000Z</time></trkpt>
        <trkpt lat="29.072615" lon="105.067665"><ele>333.38272</ele><time>2026-02-05T22:39:33.000Z</time></trkpt>
        <trkpt lat="29.072574" lon="105.067698"><ele>333.32275</ele><time>2026-02-05T22:39:42.000Z</time></trkpt>
        <trkpt lat="29.072547" lon="105.067742"><ele>333.74908</ele><time>2026-02-05T22:39:52.000Z</time></trkpt>
        <trkpt lat="29.07253" lon="105.067789"><ele>334.56247</ele><time>2026-02-05T22:40:01.000Z</time></trkpt>
        <trkpt lat="29.072485" lon="105.067791"><ele>335.62943</ele><time>2026-02-05T22:40:08.000Z</time></trkpt>
        <trkpt lat="29.072439" lon="105.067789"><ele>336.4602</ele><time>2026-02-05T22:40:17.000Z</time></trkpt>
        <trkpt lat="29.072396" lon="105.067801"><ele>337.6773</ele><time>2026-02-05T22:40:25.000Z</time></trkpt>
        <trkpt lat="29.072361" lon="105.06782"><ele>340.5641</ele><time>2026-02-05T22:40:38.000Z</time></trkpt>
        <trkpt lat="29.072341" lon="105.067865"><ele>342.54163</ele><time>2026-02-05T22:40:45.000Z</time></trkpt>
        <trkpt lat="29.072308" lon="105.067912"><ele>342.60254</ele><time>2026-02-05T22:40:52.000Z</time></trkpt>
        <trkpt lat="29.072271" lon="105.067944"><ele>343.27557</ele><time>2026-02-05T22:41:00.000Z</time></trkpt>
        <trkpt lat="29.072238" lon="105.067978"><ele>344.66037</ele><time>2026-02-05T22:41:08.000Z</time></trkpt>
        <trkpt lat="29.072211" lon="105.068021"><ele>345.40683</ele><time>2026-02-05T22:41:12.000Z</time></trkpt>
        <trkpt lat="29.072187" lon="105.068067"><ele>346.80325</ele><time>2026-02-05T22:41:20.000Z</time></trkpt>
        <trkpt lat="29.072166" lon="105.068116"><ele>348.61188</ele><time>2026-02-05T22:41:27.000Z</time></trkpt>
        <trkpt lat="29.072138" lon="105.06815"><ele>351.25354</ele><time>2026-02-05T22:41:32.000Z</time></trkpt>
        <trkpt lat="29.072102" lon="105.068181"><ele>351.82007</ele><time>2026-02-05T22:41:38.000Z</time></trkpt>
        <trkpt lat="29.07207" lon="105.068216"><ele>351.6739</ele><time>2026-02-05T22:41:46.000Z</time></trkpt>
        <trkpt lat="29.07203" lon="105.068247"><ele>353.31033</ele><time>2026-02-05T22:41:56.000Z</time></trkpt>
        <trkpt lat="29.072009" lon="105.068293"><ele>354.7043</ele><time>2026-02-05T22:42:02.000Z</time></trkpt>
        <trkpt lat="29.071995" lon="105.068341"><ele>355.67413</ele><time>2026-02-05T22:42:10.000Z</time></trkpt>
        <trkpt lat="29.07195" lon="105.068366"><ele>356.23505</ele><time>2026-02-05T22:42:18.000Z</time></trkpt>
        <trkpt lat="29.071953" lon="105.068416"><ele>358.24677</ele><time>2026-02-05T22:42:26.000Z</time></trkpt>
        <trkpt lat="29.071946" lon="105.068465"><ele>361.32654</ele><time>2026-02-05T22:42:33.000Z</time></trkpt>
        <trkpt lat="29.071952" lon="105.068499"><ele>365.73138</ele><time>2026-02-05T22:42:36.000Z</time></trkpt>
        <trkpt lat="29.071952" lon="105.068526"><ele>370.9141</ele><time>2026-02-05T22:42:38.000Z</time></trkpt>
        <trkpt lat="29.071952" lon="105.068571"><ele>374.98224</ele><time>2026-02-05T22:42:41.000Z</time></trkpt>
        <trkpt lat="29.071963" lon="105.068612"><ele>377.90845</ele><time>2026-02-05T22:42:53.000Z</time></trkpt>
        <trkpt lat="29.071968" lon="105.068563"><ele>360.0959</ele><time>2026-02-05T22:43:27.000Z</time></trkpt>
        <trkpt lat="29.071946" lon="105.068613"><ele>360.95886</ele><time>2026-02-05T22:43:37.000Z</time></trkpt>
        <trkpt lat="29.071928" lon="105.068668"><ele>363.3636</ele><time>2026-02-05T22:43:43.000Z</time></trkpt>
        <trkpt lat="29.071929" lon="105.068685"><ele>378.8587</ele><time>2026-02-05T22:43:44.000Z</time></trkpt>
        <trkpt lat="29.071932" lon="105.068751"><ele>379.9928</ele><time>2026-02-05T22:43:47.000Z</time></trkpt>
        <trkpt lat="29.07193" lon="105.068748"><ele>366.20395</ele><time>2026-02-05T22:44:22.000Z</time></trkpt>
        <trkpt lat="29.071934" lon="105.068763"><ele>381.69873</ele><time>2026-02-05T22:44:23.000Z</time></trkpt>
        <trkpt lat="29.071976" lon="105.068877"><ele>380.10858</ele><time>2026-02-05T22:44:28.000Z</time></trkpt>
        <trkpt lat="29.071976" lon="105.068877"><ele>380.10858</ele><time>2026-02-05T22:44:28.000Z</time></trkpt>
        <trkpt lat="29.071981" lon="105.068888"><ele>380.0965</ele><time>2026-02-05T22:44:29.000Z</time></trkpt>
        <trkpt lat="29.071981" lon="105.068888"><ele>380.0965</ele><time>2026-02-05T22:44:29.000Z</time></trkpt>
        <trkpt lat="29.071984" lon="105.0689"><ele>380.03183</ele><time>2026-02-05T22:44:30.000Z</time></trkpt>
        <trkpt lat="29.072007" lon="105.068947"><ele>380.272</ele><time>2026-02-05T22:44:37.000Z</time></trkpt>
        <trkpt lat="29.072032" lon="105.068989"><ele>381.60196</ele><time>2026-02-05T22:44:42.000Z</time></trkpt>
        <trkpt lat="29.072064" lon="105.069038"><ele>383.24408</ele><time>2026-02-05T22:44:47.000Z</time></trkpt>
        <trkpt lat="29.072055" lon="105.06909"><ele>383.63992</ele><time>2026-02-05T22:44:54.000Z</time></trkpt>
        <trkpt lat="29.072055" lon="105.069142"><ele>382.59558</ele><time>2026-02-05T22:45:06.000Z</time></trkpt>
        <trkpt lat="29.072019" lon="105.069178"><ele>382.09235</ele><time>2026-02-05T22:45:13.000Z</time></trkpt>
        <trkpt lat="29.071969" lon="105.069201"><ele>381.55392</ele><time>2026-02-05T22:45:18.000Z</time></trkpt>
        <trkpt lat="29.071935" lon="105.069248"><ele>381.0724</ele><time>2026-02-05T22:45:25.000Z</time></trkpt>
        <trkpt lat="29.071916" lon="105.069297"><ele>380.81573</ele><time>2026-02-05T22:45:30.000Z</time></trkpt>
        <trkpt lat="29.0719" lon="105.06935"><ele>380.84302</ele><time>2026-02-05T22:45:37.000Z</time></trkpt>
        <trkpt lat="29.071902" lon="105.069404"><ele>379.80853</ele><time>2026-02-05T22:45:41.000Z</time></trkpt>
        <trkpt lat="29.071885" lon="105.069438"><ele>383.31982</ele><time>2026-02-05T22:45:46.000Z</time></trkpt>
        <trkpt lat="29.071851" lon="105.06946"><ele>385.99707</ele><time>2026-02-05T22:45:54.000Z</time></trkpt>
        <trkpt lat="29.071836" lon="105.069511"><ele>388.28293</ele><time>2026-02-05T22:46:03.000Z</time></trkpt>
        <trkpt lat="29.071791" lon="105.069539"><ele>387.49033</ele><time>2026-02-05T22:46:11.000Z</time></trkpt>
        <trkpt lat="29.071756" lon="105.069576"><ele>386.94046</ele><time>2026-02-05T22:46:21.000Z</time></trkpt>
        <trkpt lat="29.071719" lon="105.069606"><ele>388.03943</ele><time>2026-02-05T22:46:30.000Z</time></trkpt>
        <trkpt lat="29.071683" lon="105.069637"><ele>387.5341</ele><time>2026-02-05T22:46:43.000Z</time></trkpt>
        <trkpt lat="29.071671" lon="105.069691"><ele>388.2692</ele><time>2026-02-05T22:46:50.000Z</time></trkpt>
        <trkpt lat="29.071682" lon="105.069742"><ele>389.36816</ele><time>2026-02-05T22:46:58.000Z</time></trkpt>
        <trkpt lat="29.071704" lon="105.069789"><ele>390.76468</ele><time>2026-02-05T22:47:01.000Z</time></trkpt>
        <trkpt lat="29.071716" lon="105.069835"><ele>395.1088</ele><time>2026-02-05T22:47:05.000Z</time></trkpt>
        <trkpt lat="29.071725" lon="105.069875"><ele>398.46036</ele><time>2026-02-05T22:47:10.000Z</time></trkpt>
        <trkpt lat="29.071731" lon="105.069897"><ele>403.6062</ele><time>2026-02-05T22:47:16.000Z</time></trkpt>
        <trkpt lat="29.071764" lon="105.069936"><ele>406.17123</ele><time>2026-02-05T22:47:22.000Z</time></trkpt>
        <trkpt lat="29.071795" lon="105.069973"><ele>406.974</ele><time>2026-02-05T22:47:29.000Z</time></trkpt>
        <trkpt lat="29.071811" lon="105.070024"><ele>407.98593</ele><time>2026-02-05T22:47:35.000Z</time></trkpt>
        <trkpt lat="29.071828" lon="105.070074"><ele>409.39014</ele><time>2026-02-05T22:47:43.000Z</time></trkpt>
        <trkpt lat="29.071838" lon="105.070129"><ele>409.48492</ele><time>2026-02-05T22:47:49.000Z</time></trkpt>
        <trkpt lat="29.071851" lon="105.070182"><ele>409.2714</ele><time>2026-02-05T22:47:56.000Z</time></trkpt>
        <trkpt lat="29.071871" lon="105.070234"><ele>410.37927</ele><time>2026-02-05T22:48:02.000Z</time></trkpt>
        <trkpt lat="29.071865" lon="105.070288"><ele>410.6878</ele><time>2026-02-05T22:48:12.000Z</time></trkpt>
        <trkpt lat="29.071843" lon="105.070328"><ele>412.796</ele><time>2026-02-05T22:48:19.000Z</time></trkpt>
        <trkpt lat="29.071856" lon="105.070378"><ele>413.46484</ele><time>2026-02-05T22:48:27.000Z</time></trkpt>
        <trkpt lat="29.071843" lon="105.070422"><ele>416.8255</ele><time>2026-02-05T22:48:36.000Z</time></trkpt>
        <trkpt lat="29.071816" lon="105.07045"><ele>420.31277</ele><time>2026-02-05T22:48:45.000Z</time></trkpt>
        <trkpt lat="29.071827" lon="105.070497"><ele>423.49387</ele><time>2026-02-05T22:48:51.000Z</time></trkpt>
        <trkpt lat="29.071831" lon="105.070547"><ele>425.02286</ele><time>2026-02-05T22:49:01.000Z</time></trkpt>
        <trkpt lat="29.071822" lon="105.070596"><ele>427.32724</ele><time>2026-02-05T22:49:07.000Z</time></trkpt>
        <trkpt lat="29.071826" lon="105.07065"><ele>428.13577</ele><time>2026-02-05T22:49:21.000Z</time></trkpt>
        <trkpt lat="29.071844" lon="105.0707"><ele>429.00784</ele><time>2026-02-05T22:49:31.000Z</time></trkpt>
        <trkpt lat="29.071876" lon="105.070729"><ele>426.58438</ele><time>2026-02-05T22:49:43.000Z</time></trkpt>
        <trkpt lat="29.071894" lon="105.070771"><ele>429.1608</ele><time>2026-02-05T22:49:59.000Z</time></trkpt>
        <trkpt lat="29.071924" lon="105.070813"><ele>430.07773</ele><time>2026-02-05T22:50:06.000Z</time></trkpt>
        <trkpt lat="29.071951" lon="105.070853"><ele>430.95844</ele><time>2026-02-05T22:50:12.000Z</time></trkpt>
        <trkpt lat="29.071989" lon="105.070879"><ele>433.27402</ele><time>2026-02-05T22:50:20.000Z</time></trkpt>
        <trkpt lat="29.072018" lon="105.070935"><ele>435.85785</ele><time>2026-02-05T22:50:33.000Z</time></trkpt>
        <trkpt lat="29.072049" lon="105.070969"><ele>437.7173</ele><time>2026-02-05T22:50:43.000Z</time></trkpt>
        <trkpt lat="29.072029" lon="105.071019"><ele>436.36206</ele><time>2026-02-05T22:50:50.000Z</time></trkpt>
        <trkpt lat="29.071981" lon="105.071025"><ele>437.1567</ele><time>2026-02-05T22:50:56.000Z</time></trkpt>
        <trkpt lat="29.071937" lon="105.071024"><ele>438.1011</ele><time>2026-02-05T22:51:02.000Z</time></trkpt>
        <trkpt lat="29.071894" lon="105.07104"><ele>440.2967</ele><time>2026-02-05T22:51:09.000Z</time></trkpt>
        <trkpt lat="29.071852" lon="105.071008"><ele>438.94553</ele><time>2026-02-05T22:51:16.000Z</time></trkpt>
        <trkpt lat="29.071805" lon="105.071"><ele>440.45737</ele><time>2026-02-05T22:51:25.000Z</time></trkpt>
        <trkpt lat="29.071778" lon="105.071048"><ele>441.99948</ele><time>2026-02-05T22:51:34.000Z</time></trkpt>
        <trkpt lat="29.071731" lon="105.07104"><ele>441.89102</ele><time>2026-02-05T22:51:48.000Z</time></trkpt>
        <trkpt lat="29.071683" lon="105.071031"><ele>442.3163</ele><time>2026-02-05T22:51:54.000Z</time></trkpt>
        <trkpt lat="29.071638" lon="105.071015"><ele>442.4373</ele><time>2026-02-05T22:52:01.000Z</time></trkpt>
        <trkpt lat="29.071617" lon="105.071009"><ele>447.32047</ele><time>2026-02-05T22:52:06.000Z</time></trkpt>
        <trkpt lat="29.071576" lon="105.070994"><ele>449.80362</ele><time>2026-02-05T22:52:15.000Z</time></trkpt>
        <trkpt lat="29.071536" lon="105.070994"><ele>452.26404</ele><time>2026-02-05T22:52:34.000Z</time></trkpt>
        <trkpt lat="29.071468" lon="105.071009"><ele>453.468</ele><time>2026-02-05T22:52:54.000Z</time></trkpt>
        <trkpt lat="29.071468" lon="105.070957"><ele>454.87054</ele><time>2026-02-05T22:52:59.000Z</time></trkpt>
        <trkpt lat="29.071469" lon="105.070901"><ele>456.21613</ele><time>2026-02-05T22:53:04.000Z</time></trkpt>
        <trkpt lat="29.071463" lon="105.07089"><ele>456.30432</ele><time>2026-02-05T22:53:05.000Z</time></trkpt>
        <trkpt lat="29.071463" lon="105.07089"><ele>456.30432</ele><time>2026-02-05T22:53:05.000Z</time></trkpt>
        <trkpt lat="29.071458" lon="105.07088"><ele>456.54562</ele><time>2026-02-05T22:53:06.000Z</time></trkpt>
        <trkpt lat="29.071458" lon="105.07088"><ele>456.54562</ele><time>2026-02-05T22:53:06.000Z</time></trkpt>
        <trkpt lat="29.071436" lon="105.070831"><ele>457.09592</ele><time>2026-02-05T22:53:11.000Z</time></trkpt>
        <trkpt lat="29.071436" lon="105.070831"><ele>457.09592</ele><time>2026-02-05T22:53:11.000Z</time></trkpt>
        <trkpt lat="29.071432" lon="105.070823"><ele>457.01715</ele><time>2026-02-05T22:53:12.000Z</time></trkpt>
        <trkpt lat="29.071432" lon="105.070823"><ele>457.01715</ele><time>2026-02-05T22:53:12.000Z</time></trkpt>
        <trkpt lat="29.07143" lon="105.070814"><ele>456.98502</ele><time>2026-02-05T22:53:13.000Z</time></trkpt>
        <trkpt lat="29.071394" lon="105.070777"><ele>460.4761</ele><time>2026-02-05T22:53:20.000Z</time></trkpt>
        <trkpt lat="29.071372" lon="105.070734"><ele>462.05762</ele><time>2026-02-05T22:53:25.000Z</time></trkpt>
        <trkpt lat="29.071349" lon="105.070682"><ele>461.60126</ele><time>2026-02-05T22:53:32.000Z</time></trkpt>
        <trkpt lat="29.071329" lon="105.070632"><ele>461.84726</ele><time>2026-02-05T22:53:38.000Z</time></trkpt>
        <trkpt lat="29.071294" lon="105.070602"><ele>463.17487</ele><time>2026-02-05T22:53:44.000Z</time></trkpt>
        <trkpt lat="29.071276" lon="105.070555"><ele>465.2711</ele><time>2026-02-05T22:53:51.000Z</time></trkpt>
        <trkpt lat="29.071259" lon="105.070503"><ele>466.6673</ele><time>2026-02-05T22:53:57.000Z</time></trkpt>
        <trkpt lat="29.071234" lon="105.070467"><ele>469.31393</ele><time>2026-02-05T22:54:05.000Z</time></trkpt>
        <trkpt lat="29.0712" lon="105.070417"><ele>470.00912</ele><time>2026-02-05T22:54:11.000Z</time></trkpt>
        <trkpt lat="29.071171" lon="105.07037"><ele>471.60675</ele><time>2026-02-05T22:54:17.000Z</time></trkpt>
        <trkpt lat="29.071138" lon="105.070322"><ele>472.48422</ele><time>2026-02-05T22:54:23.000Z</time></trkpt>
        <trkpt lat="29.071107" lon="105.070278"><ele>474.49176</ele><time>2026-02-05T22:54:29.000Z</time></trkpt>
        <trkpt lat="29.071069" lon="105.070239"><ele>474.83823</ele><time>2026-02-05T22:54:36.000Z</time></trkpt>
        <trkpt lat="29.071045" lon="105.070185"><ele>475.23413</ele><time>2026-02-05T22:54:43.000Z</time></trkpt>
        <trkpt lat="29.071014" lon="105.070149"><ele>476.04846</ele><time>2026-02-05T22:54:49.000Z</time></trkpt>
        <trkpt lat="29.070988" lon="105.070103"><ele>476.11185</ele><time>2026-02-05T22:54:54.000Z</time></trkpt>
        <trkpt lat="29.070961" lon="105.070061"><ele>476.93616</ele><time>2026-02-05T22:54:59.000Z</time></trkpt>
        <trkpt lat="29.070934" lon="105.070017"><ele>478.24066</ele><time>2026-02-05T22:55:05.000Z</time></trkpt>
        <trkpt lat="29.070911" lon="105.06997"><ele>478.0238</ele><time>2026-02-05T22:55:11.000Z</time></trkpt>
        <trkpt lat="29.070887" lon="105.069926"><ele>477.97934</ele><time>2026-02-05T22:55:17.000Z</time></trkpt>
        <trkpt lat="29.070857" lon="105.069887"><ele>478.10022</ele><time>2026-02-05T22:55:21.000Z</time></trkpt>
        <trkpt lat="29.070819" lon="105.069852"><ele>479.3174</ele><time>2026-02-05T22:55:27.000Z</time></trkpt>
        <trkpt lat="29.070794" lon="105.069807"><ele>480.07336</ele><time>2026-02-05T22:55:32.000Z</time></trkpt>
        <trkpt lat="29.070772" lon="105.06976"><ele>479.04556</ele><time>2026-02-05T22:55:37.000Z</time></trkpt>
        <trkpt lat="29.07077" lon="105.069708"><ele>478.15543</ele><time>2026-02-05T22:55:41.000Z</time></trkpt>
        <trkpt lat="29.070738" lon="105.069656"><ele>479.19528</ele><time>2026-02-05T22:55:46.000Z</time></trkpt>
        <trkpt lat="29.070724" lon="105.069606"><ele>479.7945</ele><time>2026-02-05T22:55:51.000Z</time></trkpt>
        <trkpt lat="29.070701" lon="105.069557"><ele>480.4897</ele><time>2026-02-05T22:55:57.000Z</time></trkpt>
        <trkpt lat="29.070685" lon="105.069509"><ele>480.9006</ele><time>2026-02-05T22:56:01.000Z</time></trkpt>
        <trkpt lat="29.070715" lon="105.069473"><ele>479.41888</ele><time>2026-02-05T22:56:17.000Z</time></trkpt>
        <trkpt lat="29.070666" lon="105.069477"><ele>476.91107</ele><time>2026-02-05T22:57:33.000Z</time></trkpt>
        <trkpt lat="29.070619" lon="105.069452"><ele>477.78265</ele><time>2026-02-05T22:57:37.000Z</time></trkpt>
        <trkpt lat="29.070584" lon="105.069424"><ele>479.40735</ele><time>2026-02-05T22:57:45.000Z</time></trkpt>
      </trkseg>
  </trk>
</gpx>